<?xml version="1.0" encoding="UTF-8" standalone="no" ?>
<gpx xmlns="http://www.topografix.com/GPX/1/1" xmlns:xsi="http://www.w3.org/2001/XMLSchema-instance" xsi:schemaLocation="http://www.topografix.com/GPX/1/1 http://www.topografix.com/GPX/1/1/gpx.xsd" version="1.1" creator="VisuGPX - https://www.visugpx.com">
  <metadata>
    <name>de Puyloubier à la colline St Pierre</name>
    <desc><![CDATA[La montée à la chapelle St Pierre, à mi parcours, est raide et se fait à côté du vélo. A part cela, parcours sympa faisant découvrir de nouvelles pistes]]></desc>
  </metadata>
  <trk>
    <name><![CDATA[20180324235402-ZmM83]]></name>
    <trkseg>
      <trkpt lat="43.52647" lon="5.68164">
        <ele>358</ele>
        <time>2017-03-05T06:46:17Z</time>
      </trkpt>
      <trkpt lat="43.52638" lon="5.68187">
        <ele>358</ele>
        <time>2017-03-05T06:47:37Z</time>
      </trkpt>
      <trkpt lat="43.52635" lon="5.68211">
        <ele>359</ele>
        <time>2017-03-05T06:47:48Z</time>
      </trkpt>
      <trkpt lat="43.52634" lon="5.68237">
        <ele>359</ele>
        <time>2017-03-05T06:47:57Z</time>
      </trkpt>
      <trkpt lat="43.52634" lon="5.68264">
        <ele>362</ele>
        <time>2017-03-05T06:48:07Z</time>
      </trkpt>
      <trkpt lat="43.52637" lon="5.6829">
        <ele>362</ele>
        <time>2017-03-05T06:48:17Z</time>
      </trkpt>
      <trkpt lat="43.52639" lon="5.68316">
        <ele>362</ele>
        <time>2017-03-05T06:48:27Z</time>
      </trkpt>
      <trkpt lat="43.52643" lon="5.68342">
        <ele>362</ele>
        <time>2017-03-05T06:48:35Z</time>
      </trkpt>
      <trkpt lat="43.52646" lon="5.68369">
        <ele>361</ele>
        <time>2017-03-05T06:48:41Z</time>
      </trkpt>
      <trkpt lat="43.52647" lon="5.68396">
        <ele>360</ele>
        <time>2017-03-05T06:48:45Z</time>
      </trkpt>
      <trkpt lat="43.52646" lon="5.68425">
        <ele>358</ele>
        <time>2017-03-05T06:48:49Z</time>
      </trkpt>
      <trkpt lat="43.52643" lon="5.68456">
        <ele>358</ele>
        <time>2017-03-05T06:48:53Z</time>
      </trkpt>
      <trkpt lat="43.52639" lon="5.68487">
        <ele>358</ele>
        <time>2017-03-05T06:48:57Z</time>
      </trkpt>
      <trkpt lat="43.52631" lon="5.68513">
        <ele>357</ele>
        <time>2017-03-05T06:49:01Z</time>
      </trkpt>
      <trkpt lat="43.52623" lon="5.68544">
        <ele>356</ele>
        <time>2017-03-05T06:49:05Z</time>
      </trkpt>
      <trkpt lat="43.52616" lon="5.68574">
        <ele>355</ele>
        <time>2017-03-05T06:49:09Z</time>
      </trkpt>
      <trkpt lat="43.52611" lon="5.68607">
        <ele>353</ele>
        <time>2017-03-05T06:49:13Z</time>
      </trkpt>
      <trkpt lat="43.52611" lon="5.68639">
        <ele>352</ele>
        <time>2017-03-05T06:49:17Z</time>
      </trkpt>
      <trkpt lat="43.52617" lon="5.6867">
        <ele>349</ele>
        <time>2017-03-05T06:49:21Z</time>
      </trkpt>
      <trkpt lat="43.52627" lon="5.68697">
        <ele>349</ele>
        <time>2017-03-05T06:49:25Z</time>
      </trkpt>
      <trkpt lat="43.52638" lon="5.68722">
        <ele>349</ele>
        <time>2017-03-05T06:49:29Z</time>
      </trkpt>
      <trkpt lat="43.52649" lon="5.68748">
        <ele>349</ele>
        <time>2017-03-05T06:49:34Z</time>
      </trkpt>
      <trkpt lat="43.52659" lon="5.68771">
        <ele>349</ele>
        <time>2017-03-05T06:49:39Z</time>
      </trkpt>
      <trkpt lat="43.52669" lon="5.68797">
        <ele>353</ele>
        <time>2017-03-05T06:49:45Z</time>
      </trkpt>
      <trkpt lat="43.52674" lon="5.68823">
        <ele>353</ele>
        <time>2017-03-05T06:49:53Z</time>
      </trkpt>
      <trkpt lat="43.52674" lon="5.6885">
        <ele>355</ele>
        <time>2017-03-05T06:50:02Z</time>
      </trkpt>
      <trkpt lat="43.52674" lon="5.68876">
        <ele>356</ele>
        <time>2017-03-05T06:50:12Z</time>
      </trkpt>
      <trkpt lat="43.52676" lon="5.68901">
        <ele>356</ele>
        <time>2017-03-05T06:50:22Z</time>
      </trkpt>
      <trkpt lat="43.52681" lon="5.68927">
        <ele>357</ele>
        <time>2017-03-05T06:50:32Z</time>
      </trkpt>
      <trkpt lat="43.52686" lon="5.68952">
        <ele>358</ele>
        <time>2017-03-05T06:50:42Z</time>
      </trkpt>
      <trkpt lat="43.52691" lon="5.68976">
        <ele>358</ele>
        <time>2017-03-05T06:50:51Z</time>
      </trkpt>
      <trkpt lat="43.52693" lon="5.69003">
        <ele>359</ele>
        <time>2017-03-05T06:51:02Z</time>
      </trkpt>
      <trkpt lat="43.52704" lon="5.69025">
        <ele>360</ele>
        <time>2017-03-05T06:51:13Z</time>
      </trkpt>
      <trkpt lat="43.52718" lon="5.69039">
        <ele>360</ele>
        <time>2017-03-05T06:51:22Z</time>
      </trkpt>
      <trkpt lat="43.52729" lon="5.69061">
        <ele>360</ele>
        <time>2017-03-05T06:51:30Z</time>
      </trkpt>
      <trkpt lat="43.52736" lon="5.69085">
        <ele>360</ele>
        <time>2017-03-05T06:51:38Z</time>
      </trkpt>
      <trkpt lat="43.52744" lon="5.6911">
        <ele>359</ele>
        <time>2017-03-05T06:51:46Z</time>
      </trkpt>
      <trkpt lat="43.52752" lon="5.69132">
        <ele>366</ele>
        <time>2017-03-05T06:51:54Z</time>
      </trkpt>
      <trkpt lat="43.5276" lon="5.69154">
        <ele>364</ele>
        <time>2017-03-05T06:52:02Z</time>
      </trkpt>
      <trkpt lat="43.52769" lon="5.69176">
        <ele>364</ele>
        <time>2017-03-05T06:52:15Z</time>
      </trkpt>
      <trkpt lat="43.52779" lon="5.69201">
        <ele>366</ele>
        <time>2017-03-05T06:52:25Z</time>
      </trkpt>
      <trkpt lat="43.52786" lon="5.69224">
        <ele>367</ele>
        <time>2017-03-05T06:52:37Z</time>
      </trkpt>
      <trkpt lat="43.52799" lon="5.69242">
        <ele>368</ele>
        <time>2017-03-05T06:52:48Z</time>
      </trkpt>
      <trkpt lat="43.52817" lon="5.69247">
        <ele>370</ele>
        <time>2017-03-05T06:52:59Z</time>
      </trkpt>
      <trkpt lat="43.52836" lon="5.69247">
        <ele>375</ele>
        <time>2017-03-05T06:53:09Z</time>
      </trkpt>
      <trkpt lat="43.52854" lon="5.69249">
        <ele>380</ele>
        <time>2017-03-05T06:53:21Z</time>
      </trkpt>
      <trkpt lat="43.52873" lon="5.69254">
        <ele>383</ele>
        <time>2017-03-05T06:53:36Z</time>
      </trkpt>
      <trkpt lat="43.52879" lon="5.69278">
        <ele>384</ele>
        <time>2017-03-05T06:53:50Z</time>
      </trkpt>
      <trkpt lat="43.52879" lon="5.69305">
        <ele>384</ele>
        <time>2017-03-05T06:54:03Z</time>
      </trkpt>
      <trkpt lat="43.52881" lon="5.69331">
        <ele>385</ele>
        <time>2017-03-05T06:54:17Z</time>
      </trkpt>
      <trkpt lat="43.52884" lon="5.69356">
        <ele>387</ele>
        <time>2017-03-05T06:54:30Z</time>
      </trkpt>
      <trkpt lat="43.52885" lon="5.69381">
        <ele>387</ele>
        <time>2017-03-05T06:54:46Z</time>
      </trkpt>
      <trkpt lat="43.52892" lon="5.69406">
        <ele>389</ele>
        <time>2017-03-05T06:55:01Z</time>
      </trkpt>
      <trkpt lat="43.52898" lon="5.6943">
        <ele>388</ele>
        <time>2017-03-05T06:55:16Z</time>
      </trkpt>
      <trkpt lat="43.5291" lon="5.6945">
        <ele>387</ele>
        <time>2017-03-05T06:55:30Z</time>
      </trkpt>
      <trkpt lat="43.52925" lon="5.69467">
        <ele>396</ele>
        <time>2017-03-05T06:55:44Z</time>
      </trkpt>
      <trkpt lat="43.52941" lon="5.69477">
        <ele>397</ele>
        <time>2017-03-05T06:55:58Z</time>
      </trkpt>
      <trkpt lat="43.5296" lon="5.69478">
        <ele>400</ele>
        <time>2017-03-05T06:56:12Z</time>
      </trkpt>
      <trkpt lat="43.52978" lon="5.69472">
        <ele>402</ele>
        <time>2017-03-05T06:56:26Z</time>
      </trkpt>
      <trkpt lat="43.52995" lon="5.69462">
        <ele>403</ele>
        <time>2017-03-05T06:56:41Z</time>
      </trkpt>
      <trkpt lat="43.53012" lon="5.69454">
        <ele>415</ele>
        <time>2017-03-05T06:56:54Z</time>
      </trkpt>
      <trkpt lat="43.5303" lon="5.69444">
        <ele>417</ele>
        <time>2017-03-05T06:57:08Z</time>
      </trkpt>
      <trkpt lat="43.53049" lon="5.69442">
        <ele>419</ele>
        <time>2017-03-05T06:57:23Z</time>
      </trkpt>
      <trkpt lat="43.53053" lon="5.69467">
        <ele>419</ele>
        <time>2017-03-05T06:57:40Z</time>
      </trkpt>
      <trkpt lat="43.53054" lon="5.69494">
        <ele>419</ele>
        <time>2017-03-05T06:57:54Z</time>
      </trkpt>
      <trkpt lat="43.53056" lon="5.6952">
        <ele>420</ele>
        <time>2017-03-05T06:58:09Z</time>
      </trkpt>
      <trkpt lat="43.5306" lon="5.69544">
        <ele>420</ele>
        <time>2017-03-05T06:58:22Z</time>
      </trkpt>
      <trkpt lat="43.53064" lon="5.69568">
        <ele>421</ele>
        <time>2017-03-05T06:58:34Z</time>
      </trkpt>
      <trkpt lat="43.5307" lon="5.69595">
        <ele>422</ele>
        <time>2017-03-05T06:58:46Z</time>
      </trkpt>
      <trkpt lat="43.53074" lon="5.69621">
        <ele>421</ele>
        <time>2017-03-05T06:58:58Z</time>
      </trkpt>
      <trkpt lat="43.53079" lon="5.69645">
        <ele>421</ele>
        <time>2017-03-05T06:59:09Z</time>
      </trkpt>
      <trkpt lat="43.53082" lon="5.69672">
        <ele>423</ele>
        <time>2017-03-05T06:59:20Z</time>
      </trkpt>
      <trkpt lat="43.53085" lon="5.69698">
        <ele>429</ele>
        <time>2017-03-05T06:59:33Z</time>
      </trkpt>
      <trkpt lat="43.53095" lon="5.6972">
        <ele>428</ele>
        <time>2017-03-05T06:59:47Z</time>
      </trkpt>
      <trkpt lat="43.53112" lon="5.6973">
        <ele>430</ele>
        <time>2017-03-05T06:59:59Z</time>
      </trkpt>
      <trkpt lat="43.5313" lon="5.69737">
        <ele>432</ele>
        <time>2017-03-05T07:00:11Z</time>
      </trkpt>
      <trkpt lat="43.53149" lon="5.69742">
        <ele>435</ele>
        <time>2017-03-05T07:00:24Z</time>
      </trkpt>
      <trkpt lat="43.53166" lon="5.69753">
        <ele>438</ele>
        <time>2017-03-05T07:00:37Z</time>
      </trkpt>
      <trkpt lat="43.53164" lon="5.69779">
        <ele>434</ele>
        <time>2017-03-05T07:00:51Z</time>
      </trkpt>
      <trkpt lat="43.53152" lon="5.69799">
        <ele>433</ele>
        <time>2017-03-05T07:01:05Z</time>
      </trkpt>
      <trkpt lat="43.53145" lon="5.69823">
        <ele>433</ele>
        <time>2017-03-05T07:01:16Z</time>
      </trkpt>
      <trkpt lat="43.53147" lon="5.69849">
        <ele>433</ele>
        <time>2017-03-05T07:01:28Z</time>
      </trkpt>
      <trkpt lat="43.53156" lon="5.69872">
        <ele>432</ele>
        <time>2017-03-05T07:01:42Z</time>
      </trkpt>
      <trkpt lat="43.5317" lon="5.6989">
        <ele>447</ele>
        <time>2017-03-05T07:01:55Z</time>
      </trkpt>
      <trkpt lat="43.53186" lon="5.69905">
        <ele>447</ele>
        <time>2017-03-05T07:02:08Z</time>
      </trkpt>
      <trkpt lat="43.53202" lon="5.69918">
        <ele>448</ele>
        <time>2017-03-05T07:02:21Z</time>
      </trkpt>
      <trkpt lat="43.53219" lon="5.69927">
        <ele>452</ele>
        <time>2017-03-05T07:02:35Z</time>
      </trkpt>
      <trkpt lat="43.53222" lon="5.69953">
        <ele>452</ele>
        <time>2017-03-05T07:02:47Z</time>
      </trkpt>
      <trkpt lat="43.53216" lon="5.69977">
        <ele>451</ele>
        <time>2017-03-05T07:02:58Z</time>
      </trkpt>
      <trkpt lat="43.53203" lon="5.69997">
        <ele>448</ele>
        <time>2017-03-05T07:03:10Z</time>
      </trkpt>
      <trkpt lat="43.53199" lon="5.70023">
        <ele>450</ele>
        <time>2017-03-05T07:03:22Z</time>
      </trkpt>
      <trkpt lat="43.53202" lon="5.70048">
        <ele>451</ele>
        <time>2017-03-05T07:03:33Z</time>
      </trkpt>
      <trkpt lat="43.53204" lon="5.70074">
        <ele>452</ele>
        <time>2017-03-05T07:03:46Z</time>
      </trkpt>
      <trkpt lat="43.53205" lon="5.701">
        <ele>455</ele>
        <time>2017-03-05T07:03:59Z</time>
      </trkpt>
      <trkpt lat="43.53208" lon="5.70126">
        <ele>456</ele>
        <time>2017-03-05T07:04:12Z</time>
      </trkpt>
      <trkpt lat="43.53214" lon="5.70151">
        <ele>457</ele>
        <time>2017-03-05T07:04:24Z</time>
      </trkpt>
      <trkpt lat="43.53218" lon="5.70176">
        <ele>458</ele>
        <time>2017-03-05T07:04:36Z</time>
      </trkpt>
      <trkpt lat="43.53223" lon="5.702">
        <ele>457</ele>
        <time>2017-03-05T07:04:48Z</time>
      </trkpt>
      <trkpt lat="43.53229" lon="5.70225">
        <ele>458</ele>
        <time>2017-03-05T07:05:00Z</time>
      </trkpt>
      <trkpt lat="43.53243" lon="5.7024">
        <ele>461</ele>
        <time>2017-03-05T07:05:11Z</time>
      </trkpt>
      <trkpt lat="43.53261" lon="5.7025">
        <ele>467</ele>
        <time>2017-03-05T07:05:23Z</time>
      </trkpt>
      <trkpt lat="43.53267" lon="5.70274">
        <ele>468</ele>
        <time>2017-03-05T07:05:34Z</time>
      </trkpt>
      <trkpt lat="43.53265" lon="5.70299">
        <ele>468</ele>
        <time>2017-03-05T07:05:44Z</time>
      </trkpt>
      <trkpt lat="43.5327" lon="5.70323">
        <ele>467</ele>
        <time>2017-03-05T07:05:54Z</time>
      </trkpt>
      <trkpt lat="43.53272" lon="5.70349">
        <ele>467</ele>
        <time>2017-03-05T07:06:04Z</time>
      </trkpt>
      <trkpt lat="43.53274" lon="5.70373">
        <ele>468</ele>
        <time>2017-03-05T07:06:15Z</time>
      </trkpt>
      <trkpt lat="43.5328" lon="5.70398">
        <ele>468</ele>
        <time>2017-03-05T07:06:25Z</time>
      </trkpt>
      <trkpt lat="43.53287" lon="5.70424">
        <ele>470</ele>
        <time>2017-03-05T07:06:36Z</time>
      </trkpt>
      <trkpt lat="43.53295" lon="5.70448">
        <ele>470</ele>
        <time>2017-03-05T07:06:45Z</time>
      </trkpt>
      <trkpt lat="43.53303" lon="5.70471">
        <ele>471</ele>
        <time>2017-03-05T07:06:54Z</time>
      </trkpt>
      <trkpt lat="43.53311" lon="5.70494">
        <ele>471</ele>
        <time>2017-03-05T07:07:01Z</time>
      </trkpt>
      <trkpt lat="43.5332" lon="5.70516">
        <ele>472</ele>
        <time>2017-03-05T07:07:08Z</time>
      </trkpt>
      <trkpt lat="43.53331" lon="5.7054">
        <ele>472</ele>
        <time>2017-03-05T07:07:15Z</time>
      </trkpt>
      <trkpt lat="43.53342" lon="5.70564">
        <ele>475</ele>
        <time>2017-03-05T07:07:22Z</time>
      </trkpt>
      <trkpt lat="43.53352" lon="5.70587">
        <ele>475</ele>
        <time>2017-03-05T07:07:29Z</time>
      </trkpt>
      <trkpt lat="43.53362" lon="5.70609">
        <ele>475</ele>
        <time>2017-03-05T07:07:36Z</time>
      </trkpt>
      <trkpt lat="43.53372" lon="5.70632">
        <ele>475</ele>
        <time>2017-03-05T07:07:43Z</time>
      </trkpt>
      <trkpt lat="43.53381" lon="5.70653">
        <ele>475</ele>
        <time>2017-03-05T07:07:49Z</time>
      </trkpt>
      <trkpt lat="43.53391" lon="5.70677">
        <ele>475</ele>
        <time>2017-03-05T07:07:55Z</time>
      </trkpt>
      <trkpt lat="43.534" lon="5.70699">
        <ele>475</ele>
        <time>2017-03-05T07:08:01Z</time>
      </trkpt>
      <trkpt lat="43.5341" lon="5.70724">
        <ele>475</ele>
        <time>2017-03-05T07:08:08Z</time>
      </trkpt>
      <trkpt lat="43.53418" lon="5.70747">
        <ele>475</ele>
        <time>2017-03-05T07:08:15Z</time>
      </trkpt>
      <trkpt lat="43.53427" lon="5.70772">
        <ele>475</ele>
        <time>2017-03-05T07:08:22Z</time>
      </trkpt>
      <trkpt lat="43.53434" lon="5.70796">
        <ele>475</ele>
        <time>2017-03-05T07:08:28Z</time>
      </trkpt>
      <trkpt lat="43.53444" lon="5.70821">
        <ele>475</ele>
        <time>2017-03-05T07:08:34Z</time>
      </trkpt>
      <trkpt lat="43.53453" lon="5.70845">
        <ele>474</ele>
        <time>2017-03-05T07:08:40Z</time>
      </trkpt>
      <trkpt lat="43.5346" lon="5.70868">
        <ele>474</ele>
        <time>2017-03-05T07:08:46Z</time>
      </trkpt>
      <trkpt lat="43.53467" lon="5.70892">
        <ele>474</ele>
        <time>2017-03-05T07:08:52Z</time>
      </trkpt>
      <trkpt lat="43.53475" lon="5.70915">
        <ele>475</ele>
        <time>2017-03-05T07:08:58Z</time>
      </trkpt>
      <trkpt lat="43.53485" lon="5.7094">
        <ele>474</ele>
        <time>2017-03-05T07:09:05Z</time>
      </trkpt>
      <trkpt lat="43.53493" lon="5.70963">
        <ele>474</ele>
        <time>2017-03-05T07:09:12Z</time>
      </trkpt>
      <trkpt lat="43.53502" lon="5.70986">
        <ele>477</ele>
        <time>2017-03-05T07:09:19Z</time>
      </trkpt>
      <trkpt lat="43.53511" lon="5.71008">
        <ele>477</ele>
        <time>2017-03-05T07:09:26Z</time>
      </trkpt>
      <trkpt lat="43.5352" lon="5.71033">
        <ele>478</ele>
        <time>2017-03-05T07:09:33Z</time>
      </trkpt>
      <trkpt lat="43.53528" lon="5.71056">
        <ele>478</ele>
        <time>2017-03-05T07:09:39Z</time>
      </trkpt>
      <trkpt lat="43.53536" lon="5.7108">
        <ele>478</ele>
        <time>2017-03-05T07:09:46Z</time>
      </trkpt>
      <trkpt lat="43.53544" lon="5.71105">
        <ele>478</ele>
        <time>2017-03-05T07:09:53Z</time>
      </trkpt>
      <trkpt lat="43.53553" lon="5.71131">
        <ele>478</ele>
        <time>2017-03-05T07:10:00Z</time>
      </trkpt>
      <trkpt lat="43.53566" lon="5.71154">
        <ele>479</ele>
        <time>2017-03-05T07:10:07Z</time>
      </trkpt>
      <trkpt lat="43.53579" lon="5.71174">
        <ele>480</ele>
        <time>2017-03-05T07:10:14Z</time>
      </trkpt>
      <trkpt lat="43.53592" lon="5.71194">
        <ele>481</ele>
        <time>2017-03-05T07:10:21Z</time>
      </trkpt>
      <trkpt lat="43.53605" lon="5.71214">
        <ele>481</ele>
        <time>2017-03-05T07:10:28Z</time>
      </trkpt>
      <trkpt lat="43.53617" lon="5.71233">
        <ele>481</ele>
        <time>2017-03-05T07:10:35Z</time>
      </trkpt>
      <trkpt lat="43.5363" lon="5.71253">
        <ele>480</ele>
        <time>2017-03-05T07:10:43Z</time>
      </trkpt>
      <trkpt lat="43.53641" lon="5.71274">
        <ele>480</ele>
        <time>2017-03-05T07:10:53Z</time>
      </trkpt>
      <trkpt lat="43.53654" lon="5.71294">
        <ele>480</ele>
        <time>2017-03-05T07:11:03Z</time>
      </trkpt>
      <trkpt lat="43.53666" lon="5.71314">
        <ele>481</ele>
        <time>2017-03-05T07:11:12Z</time>
      </trkpt>
      <trkpt lat="43.53679" lon="5.71334">
        <ele>483</ele>
        <time>2017-03-05T07:11:21Z</time>
      </trkpt>
      <trkpt lat="43.53692" lon="5.71356">
        <ele>484</ele>
        <time>2017-03-05T07:11:30Z</time>
      </trkpt>
      <trkpt lat="43.53704" lon="5.71377">
        <ele>484</ele>
        <time>2017-03-05T07:11:39Z</time>
      </trkpt>
      <trkpt lat="43.53717" lon="5.71398">
        <ele>484</ele>
        <time>2017-03-05T07:11:48Z</time>
      </trkpt>
      <trkpt lat="43.53732" lon="5.71415">
        <ele>485</ele>
        <time>2017-03-05T07:11:56Z</time>
      </trkpt>
      <trkpt lat="43.53746" lon="5.71433">
        <ele>486</ele>
        <time>2017-03-05T07:12:05Z</time>
      </trkpt>
      <trkpt lat="43.53756" lon="5.71456">
        <ele>489</ele>
        <time>2017-03-05T07:12:16Z</time>
      </trkpt>
      <trkpt lat="43.53752" lon="5.71482">
        <ele>489</ele>
        <time>2017-03-05T07:12:26Z</time>
      </trkpt>
      <trkpt lat="43.53744" lon="5.71506">
        <ele>488</ele>
        <time>2017-03-05T07:12:36Z</time>
      </trkpt>
      <trkpt lat="43.53734" lon="5.7153">
        <ele>490</ele>
        <time>2017-03-05T07:12:47Z</time>
      </trkpt>
      <trkpt lat="43.53727" lon="5.71554">
        <ele>491</ele>
        <time>2017-03-05T07:12:56Z</time>
      </trkpt>
      <trkpt lat="43.53739" lon="5.71574">
        <ele>494</ele>
        <time>2017-03-05T07:13:13Z</time>
      </trkpt>
      <trkpt lat="43.53759" lon="5.71573">
        <ele>496</ele>
        <time>2017-03-05T07:13:24Z</time>
      </trkpt>
      <trkpt lat="43.53778" lon="5.71569">
        <ele>496</ele>
        <time>2017-03-05T07:13:35Z</time>
      </trkpt>
      <trkpt lat="43.53797" lon="5.71566">
        <ele>497</ele>
        <time>2017-03-05T07:13:46Z</time>
      </trkpt>
      <trkpt lat="43.53816" lon="5.71562">
        <ele>498</ele>
        <time>2017-03-05T07:13:56Z</time>
      </trkpt>
      <trkpt lat="43.53835" lon="5.7156">
        <ele>502</ele>
        <time>2017-03-05T07:14:06Z</time>
      </trkpt>
      <trkpt lat="43.53854" lon="5.71557">
        <ele>502</ele>
        <time>2017-03-05T07:14:17Z</time>
      </trkpt>
      <trkpt lat="43.53873" lon="5.71555">
        <ele>503</ele>
        <time>2017-03-05T07:14:28Z</time>
      </trkpt>
      <trkpt lat="43.53892" lon="5.71552">
        <ele>503</ele>
        <time>2017-03-05T07:14:39Z</time>
      </trkpt>
      <trkpt lat="43.5391" lon="5.71549">
        <ele>504</ele>
        <time>2017-03-05T07:14:50Z</time>
      </trkpt>
      <trkpt lat="43.53929" lon="5.71547">
        <ele>506</ele>
        <time>2017-03-05T07:15:01Z</time>
      </trkpt>
      <trkpt lat="43.53948" lon="5.71545">
        <ele>506</ele>
        <time>2017-03-05T07:15:12Z</time>
      </trkpt>
      <trkpt lat="43.53967" lon="5.71543">
        <ele>506</ele>
        <time>2017-03-05T07:15:22Z</time>
      </trkpt>
      <trkpt lat="43.53985" lon="5.71535">
        <ele>507</ele>
        <time>2017-03-05T07:17:06Z</time>
      </trkpt>
      <trkpt lat="43.54004" lon="5.71525">
        <ele>505</ele>
        <time>2017-03-05T07:17:14Z</time>
      </trkpt>
      <trkpt lat="43.5402" lon="5.7151">
        <ele>505</ele>
        <time>2017-03-05T07:17:22Z</time>
      </trkpt>
      <trkpt lat="43.54035" lon="5.71495">
        <ele>508</ele>
        <time>2017-03-05T07:17:30Z</time>
      </trkpt>
      <trkpt lat="43.54052" lon="5.71478">
        <ele>507</ele>
        <time>2017-03-05T07:17:38Z</time>
      </trkpt>
      <trkpt lat="43.54067" lon="5.71462">
        <ele>507</ele>
        <time>2017-03-05T07:17:45Z</time>
      </trkpt>
      <trkpt lat="43.54082" lon="5.71445">
        <ele>508</ele>
        <time>2017-03-05T07:17:51Z</time>
      </trkpt>
      <trkpt lat="43.54096" lon="5.71429">
        <ele>505</ele>
        <time>2017-03-05T07:17:57Z</time>
      </trkpt>
      <trkpt lat="43.54113" lon="5.71412">
        <ele>507</ele>
        <time>2017-03-05T07:18:03Z</time>
      </trkpt>
      <trkpt lat="43.54132" lon="5.71393">
        <ele>505</ele>
        <time>2017-03-05T07:18:08Z</time>
      </trkpt>
      <trkpt lat="43.54146" lon="5.71375">
        <ele>505</ele>
        <time>2017-03-05T07:18:12Z</time>
      </trkpt>
      <trkpt lat="43.5416" lon="5.71356">
        <ele>504</ele>
        <time>2017-03-05T07:18:16Z</time>
      </trkpt>
      <trkpt lat="43.54175" lon="5.71334">
        <ele>498</ele>
        <time>2017-03-05T07:18:21Z</time>
      </trkpt>
      <trkpt lat="43.54186" lon="5.71314">
        <ele>498</ele>
        <time>2017-03-05T07:18:25Z</time>
      </trkpt>
      <trkpt lat="43.54197" lon="5.71293">
        <ele>497</ele>
        <time>2017-03-05T07:18:29Z</time>
      </trkpt>
      <trkpt lat="43.54209" lon="5.71273">
        <ele>497</ele>
        <time>2017-03-05T07:18:33Z</time>
      </trkpt>
      <trkpt lat="43.54221" lon="5.71254">
        <ele>496</ele>
        <time>2017-03-05T07:18:37Z</time>
      </trkpt>
      <trkpt lat="43.54234" lon="5.71234">
        <ele>497</ele>
        <time>2017-03-05T07:18:41Z</time>
      </trkpt>
      <trkpt lat="43.54247" lon="5.71211">
        <ele>498</ele>
        <time>2017-03-05T07:18:46Z</time>
      </trkpt>
      <trkpt lat="43.54259" lon="5.71189">
        <ele>491</ele>
        <time>2017-03-05T07:18:53Z</time>
      </trkpt>
      <trkpt lat="43.54273" lon="5.7117">
        <ele>491</ele>
        <time>2017-03-05T07:19:00Z</time>
      </trkpt>
      <trkpt lat="43.54286" lon="5.71153">
        <ele>491</ele>
        <time>2017-03-05T07:19:07Z</time>
      </trkpt>
      <trkpt lat="43.54298" lon="5.71133">
        <ele>490</ele>
        <time>2017-03-05T07:19:12Z</time>
      </trkpt>
      <trkpt lat="43.5431" lon="5.71113">
        <ele>490</ele>
        <time>2017-03-05T07:19:17Z</time>
      </trkpt>
      <trkpt lat="43.54324" lon="5.71095">
        <ele>489</ele>
        <time>2017-03-05T07:19:25Z</time>
      </trkpt>
      <trkpt lat="43.54336" lon="5.71075">
        <ele>488</ele>
        <time>2017-03-05T07:19:32Z</time>
      </trkpt>
      <trkpt lat="43.5435" lon="5.71057">
        <ele>488</ele>
        <time>2017-03-05T07:19:41Z</time>
      </trkpt>
      <trkpt lat="43.54364" lon="5.71037">
        <ele>489</ele>
        <time>2017-03-05T07:19:48Z</time>
      </trkpt>
      <trkpt lat="43.54377" lon="5.71018">
        <ele>489</ele>
        <time>2017-03-05T07:19:54Z</time>
      </trkpt>
      <trkpt lat="43.54392" lon="5.70998">
        <ele>489</ele>
        <time>2017-03-05T07:20:01Z</time>
      </trkpt>
      <trkpt lat="43.54405" lon="5.70976">
        <ele>489</ele>
        <time>2017-03-05T07:20:08Z</time>
      </trkpt>
      <trkpt lat="43.54418" lon="5.70957">
        <ele>488</ele>
        <time>2017-03-05T07:20:15Z</time>
      </trkpt>
      <trkpt lat="43.5443" lon="5.70937">
        <ele>488</ele>
        <time>2017-03-05T07:20:22Z</time>
      </trkpt>
      <trkpt lat="43.5444" lon="5.70913">
        <ele>489</ele>
        <time>2017-03-05T07:20:29Z</time>
      </trkpt>
      <trkpt lat="43.54451" lon="5.70894">
        <ele>488</ele>
        <time>2017-03-05T07:20:35Z</time>
      </trkpt>
      <trkpt lat="43.54465" lon="5.70869">
        <ele>488</ele>
        <time>2017-03-05T07:20:42Z</time>
      </trkpt>
      <trkpt lat="43.5448" lon="5.7085">
        <ele>488</ele>
        <time>2017-03-05T07:20:49Z</time>
      </trkpt>
      <trkpt lat="43.54493" lon="5.70831">
        <ele>489</ele>
        <time>2017-03-05T07:20:58Z</time>
      </trkpt>
      <trkpt lat="43.54507" lon="5.70812">
        <ele>490</ele>
        <time>2017-03-05T07:21:06Z</time>
      </trkpt>
      <trkpt lat="43.54519" lon="5.70791">
        <ele>490</ele>
        <time>2017-03-05T07:21:13Z</time>
      </trkpt>
      <trkpt lat="43.5453" lon="5.70771">
        <ele>491</ele>
        <time>2017-03-05T07:21:22Z</time>
      </trkpt>
      <trkpt lat="43.54543" lon="5.7075">
        <ele>492</ele>
        <time>2017-03-05T07:21:31Z</time>
      </trkpt>
      <trkpt lat="43.54556" lon="5.7073">
        <ele>493</ele>
        <time>2017-03-05T07:21:39Z</time>
      </trkpt>
      <trkpt lat="43.54567" lon="5.7071">
        <ele>493</ele>
        <time>2017-03-05T07:21:46Z</time>
      </trkpt>
      <trkpt lat="43.5458" lon="5.70691">
        <ele>494</ele>
        <time>2017-03-05T07:21:54Z</time>
      </trkpt>
      <trkpt lat="43.54594" lon="5.7067">
        <ele>495</ele>
        <time>2017-03-05T07:22:02Z</time>
      </trkpt>
      <trkpt lat="43.54605" lon="5.7065">
        <ele>496</ele>
        <time>2017-03-05T07:22:09Z</time>
      </trkpt>
      <trkpt lat="43.54619" lon="5.70631">
        <ele>497</ele>
        <time>2017-03-05T07:22:17Z</time>
      </trkpt>
      <trkpt lat="43.54632" lon="5.7061">
        <ele>497</ele>
        <time>2017-03-05T07:22:25Z</time>
      </trkpt>
      <trkpt lat="43.54643" lon="5.70589">
        <ele>498</ele>
        <time>2017-03-05T07:22:30Z</time>
      </trkpt>
      <trkpt lat="43.54661" lon="5.70569">
        <ele>499</ele>
        <time>2017-03-05T07:22:36Z</time>
      </trkpt>
      <trkpt lat="43.54681" lon="5.70566">
        <ele>500</ele>
        <time>2017-03-05T07:22:42Z</time>
      </trkpt>
      <trkpt lat="43.547" lon="5.70575">
        <ele>500</ele>
        <time>2017-03-05T07:22:49Z</time>
      </trkpt>
      <trkpt lat="43.54721" lon="5.70578">
        <ele>500</ele>
        <time>2017-03-05T07:22:56Z</time>
      </trkpt>
      <trkpt lat="43.5474" lon="5.70583">
        <ele>500</ele>
        <time>2017-03-05T07:23:02Z</time>
      </trkpt>
      <trkpt lat="43.5476" lon="5.70586">
        <ele>498</ele>
        <time>2017-03-05T07:23:08Z</time>
      </trkpt>
      <trkpt lat="43.54779" lon="5.70591">
        <ele>498</ele>
        <time>2017-03-05T07:23:14Z</time>
      </trkpt>
      <trkpt lat="43.54799" lon="5.70595">
        <ele>498</ele>
        <time>2017-03-05T07:23:19Z</time>
      </trkpt>
      <trkpt lat="43.54819" lon="5.70597">
        <ele>498</ele>
        <time>2017-03-05T07:23:24Z</time>
      </trkpt>
      <trkpt lat="43.54839" lon="5.70598">
        <ele>497</ele>
        <time>2017-03-05T07:23:29Z</time>
      </trkpt>
      <trkpt lat="43.54859" lon="5.70597">
        <ele>497</ele>
        <time>2017-03-05T07:23:34Z</time>
      </trkpt>
      <trkpt lat="43.54879" lon="5.70594">
        <ele>497</ele>
        <time>2017-03-05T07:23:39Z</time>
      </trkpt>
      <trkpt lat="43.54898" lon="5.70595">
        <ele>497</ele>
        <time>2017-03-05T07:23:44Z</time>
      </trkpt>
      <trkpt lat="43.54919" lon="5.70599">
        <ele>498</ele>
        <time>2017-03-05T07:23:50Z</time>
      </trkpt>
      <trkpt lat="43.54939" lon="5.70601">
        <ele>497</ele>
        <time>2017-03-05T07:23:56Z</time>
      </trkpt>
      <trkpt lat="43.5496" lon="5.70603">
        <ele>498</ele>
        <time>2017-03-05T07:24:02Z</time>
      </trkpt>
      <trkpt lat="43.54981" lon="5.70606">
        <ele>498</ele>
        <time>2017-03-05T07:24:08Z</time>
      </trkpt>
      <trkpt lat="43.55" lon="5.7061">
        <ele>498</ele>
        <time>2017-03-05T07:24:14Z</time>
      </trkpt>
      <trkpt lat="43.55021" lon="5.70613">
        <ele>498</ele>
        <time>2017-03-05T07:24:20Z</time>
      </trkpt>
      <trkpt lat="43.55041" lon="5.70615">
        <ele>498</ele>
        <time>2017-03-05T07:24:26Z</time>
      </trkpt>
      <trkpt lat="43.55063" lon="5.70619">
        <ele>498</ele>
        <time>2017-03-05T07:24:32Z</time>
      </trkpt>
      <trkpt lat="43.55083" lon="5.70624">
        <ele>498</ele>
        <time>2017-03-05T07:24:37Z</time>
      </trkpt>
      <trkpt lat="43.55103" lon="5.70629">
        <ele>499</ele>
        <time>2017-03-05T07:24:42Z</time>
      </trkpt>
      <trkpt lat="43.55125" lon="5.70633">
        <ele>499</ele>
        <time>2017-03-05T07:24:47Z</time>
      </trkpt>
      <trkpt lat="43.55146" lon="5.70638">
        <ele>499</ele>
        <time>2017-03-05T07:24:52Z</time>
      </trkpt>
      <trkpt lat="43.55164" lon="5.70644">
        <ele>499</ele>
        <time>2017-03-05T07:24:57Z</time>
      </trkpt>
      <trkpt lat="43.55182" lon="5.70649">
        <ele>501</ele>
        <time>2017-03-05T07:25:02Z</time>
      </trkpt>
      <trkpt lat="43.55203" lon="5.70654">
        <ele>502</ele>
        <time>2017-03-05T07:25:08Z</time>
      </trkpt>
      <trkpt lat="43.55223" lon="5.70658">
        <ele>502</ele>
        <time>2017-03-05T07:25:14Z</time>
      </trkpt>
      <trkpt lat="43.55242" lon="5.70661">
        <ele>501</ele>
        <time>2017-03-05T07:25:20Z</time>
      </trkpt>
      <trkpt lat="43.5526" lon="5.70663">
        <ele>502</ele>
        <time>2017-03-05T07:25:26Z</time>
      </trkpt>
      <trkpt lat="43.55281" lon="5.70666">
        <ele>503</ele>
        <time>2017-03-05T07:25:33Z</time>
      </trkpt>
      <trkpt lat="43.553" lon="5.70669">
        <ele>499</ele>
        <time>2017-03-05T07:25:39Z</time>
      </trkpt>
      <trkpt lat="43.55318" lon="5.70671">
        <ele>499</ele>
        <time>2017-03-05T07:25:45Z</time>
      </trkpt>
      <trkpt lat="43.55337" lon="5.70672">
        <ele>500</ele>
        <time>2017-03-05T07:25:51Z</time>
      </trkpt>
      <trkpt lat="43.55358" lon="5.70673">
        <ele>499</ele>
        <time>2017-03-05T07:25:58Z</time>
      </trkpt>
      <trkpt lat="43.55378" lon="5.70672">
        <ele>498</ele>
        <time>2017-03-05T07:26:05Z</time>
      </trkpt>
      <trkpt lat="43.55397" lon="5.70668">
        <ele>498</ele>
        <time>2017-03-05T07:26:12Z</time>
      </trkpt>
      <trkpt lat="43.55417" lon="5.70661">
        <ele>500</ele>
        <time>2017-03-05T07:26:19Z</time>
      </trkpt>
      <trkpt lat="43.55435" lon="5.70653">
        <ele>501</ele>
        <time>2017-03-05T07:26:25Z</time>
      </trkpt>
      <trkpt lat="43.55454" lon="5.70645">
        <ele>502</ele>
        <time>2017-03-05T07:26:32Z</time>
      </trkpt>
      <trkpt lat="43.55473" lon="5.70637">
        <ele>503</ele>
        <time>2017-03-05T07:26:39Z</time>
      </trkpt>
      <trkpt lat="43.55492" lon="5.70626">
        <ele>503</ele>
        <time>2017-03-05T07:26:46Z</time>
      </trkpt>
      <trkpt lat="43.5551" lon="5.70621">
        <ele>502</ele>
        <time>2017-03-05T07:26:53Z</time>
      </trkpt>
      <trkpt lat="43.55528" lon="5.70616">
        <ele>502</ele>
        <time>2017-03-05T07:27:00Z</time>
      </trkpt>
      <trkpt lat="43.55546" lon="5.70609">
        <ele>503</ele>
        <time>2017-03-05T07:27:07Z</time>
      </trkpt>
      <trkpt lat="43.55565" lon="5.70603">
        <ele>503</ele>
        <time>2017-03-05T07:27:14Z</time>
      </trkpt>
      <trkpt lat="43.55583" lon="5.70593">
        <ele>503</ele>
        <time>2017-03-05T07:27:21Z</time>
      </trkpt>
      <trkpt lat="43.55602" lon="5.7058">
        <ele>503</ele>
        <time>2017-03-05T07:27:28Z</time>
      </trkpt>
      <trkpt lat="43.5562" lon="5.70583">
        <ele>502</ele>
        <time>2017-03-05T07:27:35Z</time>
      </trkpt>
      <trkpt lat="43.55625" lon="5.70608">
        <ele>500</ele>
        <time>2017-03-05T07:27:41Z</time>
      </trkpt>
      <trkpt lat="43.55626" lon="5.7064">
        <ele>500</ele>
        <time>2017-03-05T07:27:45Z</time>
      </trkpt>
      <trkpt lat="43.55626" lon="5.70671">
        <ele>499</ele>
        <time>2017-03-05T07:27:48Z</time>
      </trkpt>
      <trkpt lat="43.55627" lon="5.70701">
        <ele>499</ele>
        <time>2017-03-05T07:27:51Z</time>
      </trkpt>
      <trkpt lat="43.55625" lon="5.7073">
        <ele>498</ele>
        <time>2017-03-05T07:27:54Z</time>
      </trkpt>
      <trkpt lat="43.55622" lon="5.7076">
        <ele>498</ele>
        <time>2017-03-05T07:27:58Z</time>
      </trkpt>
      <trkpt lat="43.5562" lon="5.70788">
        <ele>498</ele>
        <time>2017-03-05T07:28:04Z</time>
      </trkpt>
      <trkpt lat="43.5563" lon="5.70763">
        <ele>498</ele>
      </trkpt>
      <trkpt lat="43.55638" lon="5.70747">
        <ele>499</ele>
      </trkpt>
      <trkpt lat="43.5565" lon="5.70734">
        <ele>499</ele>
      </trkpt>
      <trkpt lat="43.55633" lon="5.70794">
        <ele>499</ele>
      </trkpt>
      <trkpt lat="43.55629" lon="5.70819">
        <ele>499</ele>
        <time>2017-03-05T07:28:45Z</time>
      </trkpt>
      <trkpt lat="43.55625" lon="5.70845">
        <ele>500</ele>
        <time>2017-03-05T07:28:52Z</time>
      </trkpt>
      <trkpt lat="43.55621" lon="5.70871">
        <ele>500</ele>
        <time>2017-03-05T07:28:59Z</time>
      </trkpt>
      <trkpt lat="43.55618" lon="5.70897">
        <ele>500</ele>
        <time>2017-03-05T07:29:07Z</time>
      </trkpt>
      <trkpt lat="43.55615" lon="5.70923">
        <ele>500</ele>
        <time>2017-03-05T07:29:14Z</time>
      </trkpt>
      <trkpt lat="43.55612" lon="5.7095">
        <ele>500</ele>
        <time>2017-03-05T07:29:21Z</time>
      </trkpt>
      <trkpt lat="43.55609" lon="5.70978">
        <ele>500</ele>
        <time>2017-03-05T07:29:28Z</time>
      </trkpt>
      <trkpt lat="43.55607" lon="5.71003">
        <ele>499</ele>
        <time>2017-03-05T07:29:33Z</time>
      </trkpt>
      <trkpt lat="43.55604" lon="5.71028">
        <ele>499</ele>
        <time>2017-03-05T07:29:38Z</time>
      </trkpt>
      <trkpt lat="43.55602" lon="5.71055">
        <ele>498</ele>
        <time>2017-03-05T07:29:43Z</time>
      </trkpt>
      <trkpt lat="43.55599" lon="5.71082">
        <ele>497</ele>
        <time>2017-03-05T07:29:48Z</time>
      </trkpt>
      <trkpt lat="43.556" lon="5.7111">
        <ele>496</ele>
        <time>2017-03-05T07:29:53Z</time>
      </trkpt>
      <trkpt lat="43.55601" lon="5.71139">
        <ele>495</ele>
        <time>2017-03-05T07:29:58Z</time>
      </trkpt>
      <trkpt lat="43.55603" lon="5.7117">
        <ele>492</ele>
        <time>2017-03-05T07:30:03Z</time>
      </trkpt>
      <trkpt lat="43.55603" lon="5.71194">
        <ele>492</ele>
        <time>2017-03-05T07:30:07Z</time>
      </trkpt>
      <trkpt lat="43.55602" lon="5.71222">
        <ele>492</ele>
        <time>2017-03-05T07:30:12Z</time>
      </trkpt>
      <trkpt lat="43.55602" lon="5.71248">
        <ele>491</ele>
        <time>2017-03-05T07:30:17Z</time>
      </trkpt>
      <trkpt lat="43.55603" lon="5.71275">
        <ele>489</ele>
        <time>2017-03-05T07:30:22Z</time>
      </trkpt>
      <trkpt lat="43.55607" lon="5.71302">
        <ele>489</ele>
        <time>2017-03-05T07:30:27Z</time>
      </trkpt>
      <trkpt lat="43.55617" lon="5.71327">
        <ele>488</ele>
        <time>2017-03-05T07:30:32Z</time>
      </trkpt>
      <trkpt lat="43.55627" lon="5.71349">
        <ele>486</ele>
        <time>2017-03-05T07:30:37Z</time>
      </trkpt>
      <trkpt lat="43.55638" lon="5.71374">
        <ele>486</ele>
        <time>2017-03-05T07:30:42Z</time>
      </trkpt>
      <trkpt lat="43.55647" lon="5.714">
        <ele>486</ele>
        <time>2017-03-05T07:30:47Z</time>
      </trkpt>
      <trkpt lat="43.55661" lon="5.71424">
        <ele>485</ele>
        <time>2017-03-05T07:30:52Z</time>
      </trkpt>
      <trkpt lat="43.55677" lon="5.71446">
        <ele>485</ele>
        <time>2017-03-05T07:30:57Z</time>
      </trkpt>
      <trkpt lat="43.55691" lon="5.71469">
        <ele>484</ele>
        <time>2017-03-05T07:31:02Z</time>
      </trkpt>
      <trkpt lat="43.557" lon="5.71496">
        <ele>484</ele>
        <time>2017-03-05T07:31:07Z</time>
      </trkpt>
      <trkpt lat="43.55706" lon="5.7152">
        <ele>481</ele>
        <time>2017-03-05T07:31:11Z</time>
      </trkpt>
      <trkpt lat="43.55713" lon="5.71549">
        <ele>480</ele>
        <time>2017-03-05T07:31:16Z</time>
      </trkpt>
      <trkpt lat="43.5572" lon="5.71574">
        <ele>479</ele>
        <time>2017-03-05T07:31:20Z</time>
      </trkpt>
      <trkpt lat="43.55726" lon="5.71601">
        <ele>477</ele>
        <time>2017-03-05T07:31:24Z</time>
      </trkpt>
      <trkpt lat="43.55731" lon="5.71626">
        <ele>476</ele>
        <time>2017-03-05T07:31:28Z</time>
      </trkpt>
      <trkpt lat="43.55739" lon="5.7165">
        <ele>476</ele>
        <time>2017-03-05T07:31:43Z</time>
      </trkpt>
      <trkpt lat="43.55747" lon="5.71673">
        <ele>475</ele>
        <time>2017-03-05T07:31:51Z</time>
      </trkpt>
      <trkpt lat="43.55759" lon="5.71694">
        <ele>476</ele>
        <time>2017-03-05T07:31:59Z</time>
      </trkpt>
      <trkpt lat="43.55772" lon="5.71712">
        <ele>476</ele>
        <time>2017-03-05T07:32:05Z</time>
      </trkpt>
      <trkpt lat="43.55787" lon="5.7173">
        <ele>477</ele>
        <time>2017-03-05T07:32:11Z</time>
      </trkpt>
      <trkpt lat="43.55803" lon="5.71748">
        <ele>477</ele>
        <time>2017-03-05T07:32:17Z</time>
      </trkpt>
      <trkpt lat="43.55819" lon="5.71766">
        <ele>476</ele>
        <time>2017-03-05T07:32:23Z</time>
      </trkpt>
      <trkpt lat="43.55835" lon="5.71785">
        <ele>477</ele>
        <time>2017-03-05T07:32:29Z</time>
      </trkpt>
      <trkpt lat="43.55851" lon="5.71803">
        <ele>477</ele>
        <time>2017-03-05T07:32:35Z</time>
      </trkpt>
      <trkpt lat="43.55865" lon="5.7182">
        <ele>476</ele>
        <time>2017-03-05T07:32:40Z</time>
      </trkpt>
      <trkpt lat="43.55879" lon="5.71835">
        <ele>474</ele>
        <time>2017-03-05T07:32:45Z</time>
      </trkpt>
      <trkpt lat="43.55893" lon="5.71851">
        <ele>475</ele>
        <time>2017-03-05T07:32:50Z</time>
      </trkpt>
      <trkpt lat="43.5591" lon="5.71868">
        <ele>474</ele>
        <time>2017-03-05T07:32:56Z</time>
      </trkpt>
      <trkpt lat="43.55925" lon="5.71883">
        <ele>476</ele>
        <time>2017-03-05T07:33:01Z</time>
      </trkpt>
      <trkpt lat="43.5594" lon="5.71899">
        <ele>475</ele>
        <time>2017-03-05T07:33:06Z</time>
      </trkpt>
      <trkpt lat="43.55956" lon="5.71915">
        <ele>475</ele>
        <time>2017-03-05T07:33:11Z</time>
      </trkpt>
      <trkpt lat="43.55971" lon="5.71931">
        <ele>472</ele>
        <time>2017-03-05T07:33:16Z</time>
      </trkpt>
      <trkpt lat="43.55987" lon="5.71949">
        <ele>472</ele>
        <time>2017-03-05T07:33:21Z</time>
      </trkpt>
      <trkpt lat="43.56002" lon="5.71968">
        <ele>472</ele>
        <time>2017-03-05T07:33:26Z</time>
      </trkpt>
      <trkpt lat="43.56016" lon="5.71987">
        <ele>471</ele>
        <time>2017-03-05T07:33:31Z</time>
      </trkpt>
      <trkpt lat="43.56032" lon="5.72007">
        <ele>469</ele>
        <time>2017-03-05T07:33:36Z</time>
      </trkpt>
      <trkpt lat="43.56046" lon="5.72029">
        <ele>469</ele>
        <time>2017-03-05T07:33:41Z</time>
      </trkpt>
      <trkpt lat="43.5606" lon="5.72048">
        <ele>469</ele>
        <time>2017-03-05T07:33:46Z</time>
      </trkpt>
      <trkpt lat="43.56068" lon="5.72072">
        <ele>469</ele>
        <time>2017-03-05T07:33:51Z</time>
      </trkpt>
      <trkpt lat="43.56072" lon="5.721">
        <ele>467</ele>
        <time>2017-03-05T07:33:56Z</time>
      </trkpt>
      <trkpt lat="43.5607" lon="5.72128">
        <ele>467</ele>
        <time>2017-03-05T07:34:01Z</time>
      </trkpt>
      <trkpt lat="43.56068" lon="5.72157">
        <ele>466</ele>
        <time>2017-03-05T07:34:06Z</time>
      </trkpt>
      <trkpt lat="43.56072" lon="5.72187">
        <ele>465</ele>
        <time>2017-03-05T07:34:10Z</time>
      </trkpt>
      <trkpt lat="43.56077" lon="5.72214">
        <ele>465</ele>
        <time>2017-03-05T07:34:15Z</time>
      </trkpt>
      <trkpt lat="43.56084" lon="5.72238">
        <ele>466</ele>
        <time>2017-03-05T07:34:19Z</time>
      </trkpt>
      <trkpt lat="43.56093" lon="5.7226">
        <ele>465</ele>
        <time>2017-03-05T07:34:23Z</time>
      </trkpt>
      <trkpt lat="43.56104" lon="5.72282">
        <ele>465</ele>
        <time>2017-03-05T07:34:27Z</time>
      </trkpt>
      <trkpt lat="43.56113" lon="5.72303">
        <ele>465</ele>
        <time>2017-03-05T07:34:31Z</time>
      </trkpt>
      <trkpt lat="43.56123" lon="5.72324">
        <ele>464</ele>
        <time>2017-03-05T07:34:35Z</time>
      </trkpt>
      <trkpt lat="43.56133" lon="5.72346">
        <ele>463</ele>
        <time>2017-03-05T07:34:39Z</time>
      </trkpt>
      <trkpt lat="43.56143" lon="5.72368">
        <ele>463</ele>
        <time>2017-03-05T07:34:43Z</time>
      </trkpt>
      <trkpt lat="43.56151" lon="5.7239">
        <ele>462</ele>
        <time>2017-03-05T07:34:47Z</time>
      </trkpt>
      <trkpt lat="43.56159" lon="5.7242">
        <ele>460</ele>
        <time>2017-03-05T07:34:52Z</time>
      </trkpt>
      <trkpt lat="43.56169" lon="5.72442">
        <ele>460</ele>
        <time>2017-03-05T07:34:56Z</time>
      </trkpt>
      <trkpt lat="43.56184" lon="5.72458">
        <ele>459</ele>
        <time>2017-03-05T07:35:01Z</time>
      </trkpt>
      <trkpt lat="43.56198" lon="5.72473">
        <ele>459</ele>
        <time>2017-03-05T07:35:05Z</time>
      </trkpt>
      <trkpt lat="43.56213" lon="5.72488">
        <ele>459</ele>
        <time>2017-03-05T07:35:09Z</time>
      </trkpt>
      <trkpt lat="43.56226" lon="5.72507">
        <ele>458</ele>
        <time>2017-03-05T07:35:13Z</time>
      </trkpt>
      <trkpt lat="43.56236" lon="5.72532">
        <ele>458</ele>
        <time>2017-03-05T07:35:18Z</time>
      </trkpt>
      <trkpt lat="43.56252" lon="5.72553">
        <ele>457</ele>
        <time>2017-03-05T07:35:23Z</time>
      </trkpt>
      <trkpt lat="43.56267" lon="5.7257">
        <ele>456</ele>
        <time>2017-03-05T07:35:27Z</time>
      </trkpt>
      <trkpt lat="43.56279" lon="5.72592">
        <ele>455</ele>
        <time>2017-03-05T07:35:31Z</time>
      </trkpt>
      <trkpt lat="43.56283" lon="5.72616">
        <ele>455</ele>
        <time>2017-03-05T07:35:35Z</time>
      </trkpt>
      <trkpt lat="43.56287" lon="5.7264">
        <ele>454</ele>
        <time>2017-03-05T07:35:39Z</time>
      </trkpt>
      <trkpt lat="43.563" lon="5.72662">
        <ele>453</ele>
        <time>2017-03-05T07:35:43Z</time>
      </trkpt>
      <trkpt lat="43.56315" lon="5.72679">
        <ele>452</ele>
        <time>2017-03-05T07:35:47Z</time>
      </trkpt>
      <trkpt lat="43.56334" lon="5.72694">
        <ele>450</ele>
        <time>2017-03-05T07:35:51Z</time>
      </trkpt>
      <trkpt lat="43.56352" lon="5.72705">
        <ele>449</ele>
        <time>2017-03-05T07:35:56Z</time>
      </trkpt>
      <trkpt lat="43.56369" lon="5.72695">
        <ele>449</ele>
        <time>2017-03-05T07:58:19Z</time>
      </trkpt>
      <trkpt lat="43.5638" lon="5.72674">
        <ele>449</ele>
        <time>2017-03-05T07:58:31Z</time>
      </trkpt>
      <trkpt lat="43.5639" lon="5.72652">
        <ele>451</ele>
        <time>2017-03-05T07:58:40Z</time>
      </trkpt>
      <trkpt lat="43.56403" lon="5.72632">
        <ele>452</ele>
        <time>2017-03-05T07:58:51Z</time>
      </trkpt>
      <trkpt lat="43.56417" lon="5.72614">
        <ele>451</ele>
        <time>2017-03-05T07:59:00Z</time>
      </trkpt>
      <trkpt lat="43.56432" lon="5.72599">
        <ele>451</ele>
        <time>2017-03-05T07:59:08Z</time>
      </trkpt>
      <trkpt lat="43.56446" lon="5.72581">
        <ele>454</ele>
        <time>2017-03-05T07:59:16Z</time>
      </trkpt>
      <trkpt lat="43.5646" lon="5.72565">
        <ele>454</ele>
        <time>2017-03-05T07:59:23Z</time>
      </trkpt>
      <trkpt lat="43.56475" lon="5.72547">
        <ele>454</ele>
        <time>2017-03-05T07:59:32Z</time>
      </trkpt>
      <trkpt lat="43.56489" lon="5.7253">
        <ele>455</ele>
        <time>2017-03-05T07:59:42Z</time>
      </trkpt>
      <trkpt lat="43.56504" lon="5.72513">
        <ele>457</ele>
        <time>2017-03-05T07:59:53Z</time>
      </trkpt>
      <trkpt lat="43.56519" lon="5.72496">
        <ele>459</ele>
        <time>2017-03-05T08:00:04Z</time>
      </trkpt>
      <trkpt lat="43.56533" lon="5.72477">
        <ele>460</ele>
        <time>2017-03-05T08:00:15Z</time>
      </trkpt>
      <trkpt lat="43.56545" lon="5.72455">
        <ele>460</ele>
        <time>2017-03-05T08:00:26Z</time>
      </trkpt>
      <trkpt lat="43.56555" lon="5.72431">
        <ele>461</ele>
        <time>2017-03-05T08:00:35Z</time>
      </trkpt>
      <trkpt lat="43.56563" lon="5.72407">
        <ele>464</ele>
        <time>2017-03-05T08:00:45Z</time>
      </trkpt>
      <trkpt lat="43.56574" lon="5.72385">
        <ele>465</ele>
        <time>2017-03-05T08:00:57Z</time>
      </trkpt>
      <trkpt lat="43.56585" lon="5.72365">
        <ele>468</ele>
        <time>2017-03-05T08:01:08Z</time>
      </trkpt>
      <trkpt lat="43.56593" lon="5.7234">
        <ele>469</ele>
        <time>2017-03-05T08:01:19Z</time>
      </trkpt>
      <trkpt lat="43.56596" lon="5.72316">
        <ele>472</ele>
        <time>2017-03-05T08:01:29Z</time>
      </trkpt>
      <trkpt lat="43.56602" lon="5.72292">
        <ele>474</ele>
        <time>2017-03-05T08:01:40Z</time>
      </trkpt>
      <trkpt lat="43.5661" lon="5.72269">
        <ele>475</ele>
        <time>2017-03-05T08:01:51Z</time>
      </trkpt>
      <trkpt lat="43.56626" lon="5.72255">
        <ele>475</ele>
        <time>2017-03-05T08:02:03Z</time>
      </trkpt>
      <trkpt lat="43.56636" lon="5.72277">
        <ele>475</ele>
        <time>2017-03-05T08:02:20Z</time>
      </trkpt>
      <trkpt lat="43.56634" lon="5.72248">
        <ele>479</ele>
        <time>2017-03-05T08:03:41Z</time>
      </trkpt>
      <trkpt lat="43.56625" lon="5.72271">
        <ele>475</ele>
        <time>2017-03-05T08:04:09Z</time>
      </trkpt>
      <trkpt lat="43.56618" lon="5.72295">
        <ele>474</ele>
        <time>2017-03-05T08:04:15Z</time>
      </trkpt>
      <trkpt lat="43.56619" lon="5.7232">
        <ele>473</ele>
        <time>2017-03-05T08:04:20Z</time>
      </trkpt>
      <trkpt lat="43.56627" lon="5.72347">
        <ele>470</ele>
        <time>2017-03-05T08:04:26Z</time>
      </trkpt>
      <trkpt lat="43.56639" lon="5.7237">
        <ele>469</ele>
        <time>2017-03-05T08:04:32Z</time>
      </trkpt>
      <trkpt lat="43.56658" lon="5.72384">
        <ele>469</ele>
        <time>2017-03-05T08:04:38Z</time>
      </trkpt>
      <trkpt lat="43.56676" lon="5.72386">
        <ele>471</ele>
        <time>2017-03-05T08:04:43Z</time>
      </trkpt>
      <trkpt lat="43.56697" lon="5.72381">
        <ele>471</ele>
        <time>2017-03-05T08:04:49Z</time>
      </trkpt>
      <trkpt lat="43.56717" lon="5.72372">
        <ele>472</ele>
        <time>2017-03-05T08:04:55Z</time>
      </trkpt>
      <trkpt lat="43.56737" lon="5.72371">
        <ele>472</ele>
        <time>2017-03-05T08:05:00Z</time>
      </trkpt>
      <trkpt lat="43.5675" lon="5.72393">
        <ele>472</ele>
        <time>2017-03-05T08:05:05Z</time>
      </trkpt>
      <trkpt lat="43.56763" lon="5.72417">
        <ele>469</ele>
        <time>2017-03-05T08:05:10Z</time>
      </trkpt>
      <trkpt lat="43.56774" lon="5.72438">
        <ele>468</ele>
        <time>2017-03-05T08:05:14Z</time>
      </trkpt>
      <trkpt lat="43.56784" lon="5.72461">
        <ele>468</ele>
        <time>2017-03-05T08:05:19Z</time>
      </trkpt>
      <trkpt lat="43.568" lon="5.72479">
        <ele>468</ele>
        <time>2017-03-05T08:05:25Z</time>
      </trkpt>
      <trkpt lat="43.56818" lon="5.72472">
        <ele>468</ele>
        <time>2017-03-05T08:05:31Z</time>
      </trkpt>
      <trkpt lat="43.56834" lon="5.72458">
        <ele>471</ele>
        <time>2017-03-05T08:05:37Z</time>
      </trkpt>
      <trkpt lat="43.5685" lon="5.72471">
        <ele>471</ele>
        <time>2017-03-05T08:05:45Z</time>
      </trkpt>
      <trkpt lat="43.56858" lon="5.72497">
        <ele>470</ele>
        <time>2017-03-05T08:05:52Z</time>
      </trkpt>
      <trkpt lat="43.5687" lon="5.72516">
        <ele>468</ele>
        <time>2017-03-05T08:05:58Z</time>
      </trkpt>
      <trkpt lat="43.56887" lon="5.72531">
        <ele>468</ele>
        <time>2017-03-05T08:06:05Z</time>
      </trkpt>
      <trkpt lat="43.56907" lon="5.72526">
        <ele>468</ele>
        <time>2017-03-05T08:06:12Z</time>
      </trkpt>
      <trkpt lat="43.5692" lon="5.72505">
        <ele>470</ele>
        <time>2017-03-05T08:06:18Z</time>
      </trkpt>
      <trkpt lat="43.56931" lon="5.72482">
        <ele>473</ele>
        <time>2017-03-05T08:06:23Z</time>
      </trkpt>
      <trkpt lat="43.56946" lon="5.72462">
        <ele>475</ele>
        <time>2017-03-05T08:06:28Z</time>
      </trkpt>
      <trkpt lat="43.56963" lon="5.72443">
        <ele>476</ele>
        <time>2017-03-05T08:06:33Z</time>
      </trkpt>
      <trkpt lat="43.56966" lon="5.72471">
        <ele>475</ele>
        <time>2017-03-05T08:06:42Z</time>
      </trkpt>
      <trkpt lat="43.56963" lon="5.72498">
        <ele>474</ele>
        <time>2017-03-05T08:06:48Z</time>
      </trkpt>
      <trkpt lat="43.56969" lon="5.72524">
        <ele>471</ele>
        <time>2017-03-05T08:06:53Z</time>
      </trkpt>
      <trkpt lat="43.56977" lon="5.72547">
        <ele>471</ele>
        <time>2017-03-05T08:06:58Z</time>
      </trkpt>
      <trkpt lat="43.56978" lon="5.72571">
        <ele>470</ele>
        <time>2017-03-05T08:07:03Z</time>
      </trkpt>
      <trkpt lat="43.56973" lon="5.72599">
        <ele>469</ele>
        <time>2017-03-05T08:07:08Z</time>
      </trkpt>
      <trkpt lat="43.56967" lon="5.72625">
        <ele>468</ele>
        <time>2017-03-05T08:07:13Z</time>
      </trkpt>
      <trkpt lat="43.56962" lon="5.72652">
        <ele>468</ele>
        <time>2017-03-05T08:07:18Z</time>
      </trkpt>
      <trkpt lat="43.56964" lon="5.72677">
        <ele>467</ele>
        <time>2017-03-05T08:07:23Z</time>
      </trkpt>
      <trkpt lat="43.56972" lon="5.72705">
        <ele>467</ele>
        <time>2017-03-05T08:07:28Z</time>
      </trkpt>
      <trkpt lat="43.56984" lon="5.72731">
        <ele>468</ele>
        <time>2017-03-05T08:07:33Z</time>
      </trkpt>
      <trkpt lat="43.56994" lon="5.72752">
        <ele>468</ele>
        <time>2017-03-05T08:07:37Z</time>
      </trkpt>
      <trkpt lat="43.57005" lon="5.72776">
        <ele>469</ele>
        <time>2017-03-05T08:07:41Z</time>
      </trkpt>
      <trkpt lat="43.57015" lon="5.72799">
        <ele>468</ele>
        <time>2017-03-05T08:07:45Z</time>
      </trkpt>
      <trkpt lat="43.57027" lon="5.72824">
        <ele>468</ele>
        <time>2017-03-05T08:07:49Z</time>
      </trkpt>
      <trkpt lat="43.57038" lon="5.72849">
        <ele>466</ele>
        <time>2017-03-05T08:07:53Z</time>
      </trkpt>
      <trkpt lat="43.57049" lon="5.72873">
        <ele>466</ele>
        <time>2017-03-05T08:07:57Z</time>
      </trkpt>
      <trkpt lat="43.57062" lon="5.72895">
        <ele>466</ele>
        <time>2017-03-05T08:08:01Z</time>
      </trkpt>
      <trkpt lat="43.57077" lon="5.72911">
        <ele>466</ele>
        <time>2017-03-05T08:08:05Z</time>
      </trkpt>
      <trkpt lat="43.57092" lon="5.72925">
        <ele>465</ele>
        <time>2017-03-05T08:08:09Z</time>
      </trkpt>
      <trkpt lat="43.57102" lon="5.72947">
        <ele>464</ele>
        <time>2017-03-05T08:08:13Z</time>
      </trkpt>
      <trkpt lat="43.5711" lon="5.72972">
        <ele>463</ele>
        <time>2017-03-05T08:08:18Z</time>
      </trkpt>
      <trkpt lat="43.57118" lon="5.72995">
        <ele>463</ele>
        <time>2017-03-05T08:08:23Z</time>
      </trkpt>
      <trkpt lat="43.57133" lon="5.73011">
        <ele>460</ele>
        <time>2017-03-05T08:08:28Z</time>
      </trkpt>
      <trkpt lat="43.57153" lon="5.73025">
        <ele>460</ele>
        <time>2017-03-05T08:08:33Z</time>
      </trkpt>
      <trkpt lat="43.5717" lon="5.73033">
        <ele>460</ele>
        <time>2017-03-05T08:08:37Z</time>
      </trkpt>
      <trkpt lat="43.57185" lon="5.73047">
        <ele>459</ele>
        <time>2017-03-05T08:08:41Z</time>
      </trkpt>
      <trkpt lat="43.57181" lon="5.73073">
        <ele>458</ele>
        <time>2017-03-05T08:08:45Z</time>
      </trkpt>
      <trkpt lat="43.57174" lon="5.73098">
        <ele>455</ele>
        <time>2017-03-05T08:08:49Z</time>
      </trkpt>
      <trkpt lat="43.57175" lon="5.73125">
        <ele>454</ele>
        <time>2017-03-05T08:08:53Z</time>
      </trkpt>
      <trkpt lat="43.57185" lon="5.73148">
        <ele>453</ele>
        <time>2017-03-05T08:08:57Z</time>
      </trkpt>
      <trkpt lat="43.57198" lon="5.73168">
        <ele>452</ele>
        <time>2017-03-05T08:09:01Z</time>
      </trkpt>
      <trkpt lat="43.57215" lon="5.73182">
        <ele>451</ele>
        <time>2017-03-05T08:09:05Z</time>
      </trkpt>
      <trkpt lat="43.57236" lon="5.73179">
        <ele>450</ele>
        <time>2017-03-05T08:09:09Z</time>
      </trkpt>
      <trkpt lat="43.57256" lon="5.7318">
        <ele>449</ele>
        <time>2017-03-05T08:09:13Z</time>
      </trkpt>
      <trkpt lat="43.57276" lon="5.7318">
        <ele>449</ele>
        <time>2017-03-05T08:09:17Z</time>
      </trkpt>
      <trkpt lat="43.57296" lon="5.73175">
        <ele>448</ele>
        <time>2017-03-05T08:09:21Z</time>
      </trkpt>
      <trkpt lat="43.57317" lon="5.73176">
        <ele>447</ele>
        <time>2017-03-05T08:09:25Z</time>
      </trkpt>
      <trkpt lat="43.57338" lon="5.73185">
        <ele>445</ele>
        <time>2017-03-05T08:09:29Z</time>
      </trkpt>
      <trkpt lat="43.57358" lon="5.73194">
        <ele>445</ele>
        <time>2017-03-05T08:09:33Z</time>
      </trkpt>
      <trkpt lat="43.57379" lon="5.73202">
        <ele>444</ele>
        <time>2017-03-05T08:09:37Z</time>
      </trkpt>
      <trkpt lat="43.574" lon="5.73214">
        <ele>444</ele>
        <time>2017-03-05T08:09:41Z</time>
      </trkpt>
      <trkpt lat="43.57419" lon="5.73231">
        <ele>442</ele>
        <time>2017-03-05T08:09:45Z</time>
      </trkpt>
      <trkpt lat="43.5744" lon="5.73241">
        <ele>442</ele>
        <time>2017-03-05T08:09:49Z</time>
      </trkpt>
      <trkpt lat="43.5746" lon="5.73255">
        <ele>440</ele>
        <time>2017-03-05T08:09:53Z</time>
      </trkpt>
      <trkpt lat="43.57475" lon="5.73276">
        <ele>440</ele>
        <time>2017-03-05T08:09:57Z</time>
      </trkpt>
      <trkpt lat="43.57484" lon="5.73302">
        <ele>439</ele>
        <time>2017-03-05T08:10:01Z</time>
      </trkpt>
      <trkpt lat="43.57504" lon="5.73305">
        <ele>437</ele>
        <time>2017-03-05T08:10:05Z</time>
      </trkpt>
      <trkpt lat="43.57525" lon="5.73296">
        <ele>437</ele>
        <time>2017-03-05T08:10:09Z</time>
      </trkpt>
      <trkpt lat="43.57547" lon="5.73305">
        <ele>436</ele>
        <time>2017-03-05T08:10:13Z</time>
      </trkpt>
      <trkpt lat="43.57566" lon="5.73319">
        <ele>434</ele>
        <time>2017-03-05T08:10:17Z</time>
      </trkpt>
      <trkpt lat="43.57585" lon="5.73333">
        <ele>429</ele>
        <time>2017-03-05T08:10:21Z</time>
      </trkpt>
      <trkpt lat="43.57601" lon="5.73348">
        <ele>429</ele>
        <time>2017-03-05T08:10:25Z</time>
      </trkpt>
      <trkpt lat="43.57613" lon="5.73366">
        <ele>430</ele>
        <time>2017-03-05T08:10:29Z</time>
      </trkpt>
      <trkpt lat="43.57634" lon="5.73372">
        <ele>429</ele>
        <time>2017-03-05T08:10:34Z</time>
      </trkpt>
      <trkpt lat="43.5765" lon="5.73359">
        <ele>427</ele>
        <time>2017-03-05T08:10:38Z</time>
      </trkpt>
      <trkpt lat="43.5767" lon="5.73355">
        <ele>422</ele>
        <time>2017-03-05T08:10:43Z</time>
      </trkpt>
      <trkpt lat="43.57691" lon="5.73353">
        <ele>421</ele>
        <time>2017-03-05T08:10:47Z</time>
      </trkpt>
      <trkpt lat="43.5771" lon="5.73345">
        <ele>420</ele>
        <time>2017-03-05T08:10:51Z</time>
      </trkpt>
      <trkpt lat="43.57716" lon="5.73318">
        <ele>421</ele>
        <time>2017-03-05T08:10:56Z</time>
      </trkpt>
      <trkpt lat="43.57725" lon="5.73294">
        <ele>422</ele>
        <time>2017-03-05T08:11:01Z</time>
      </trkpt>
      <trkpt lat="43.57743" lon="5.73287">
        <ele>422</ele>
        <time>2017-03-05T08:11:06Z</time>
      </trkpt>
      <trkpt lat="43.57758" lon="5.73304">
        <ele>422</ele>
        <time>2017-03-05T08:11:12Z</time>
      </trkpt>
      <trkpt lat="43.57761" lon="5.73334">
        <ele>417</ele>
        <time>2017-03-05T08:11:17Z</time>
      </trkpt>
      <trkpt lat="43.57762" lon="5.73361">
        <ele>419</ele>
        <time>2017-03-05T08:11:22Z</time>
      </trkpt>
      <trkpt lat="43.57767" lon="5.73391">
        <ele>419</ele>
        <time>2017-03-05T08:11:27Z</time>
      </trkpt>
      <trkpt lat="43.57776" lon="5.73414">
        <ele>419</ele>
        <time>2017-03-05T08:11:31Z</time>
      </trkpt>
      <trkpt lat="43.57788" lon="5.73434">
        <ele>418</ele>
        <time>2017-03-05T08:11:36Z</time>
      </trkpt>
      <trkpt lat="43.57803" lon="5.73459">
        <ele>418</ele>
        <time>2017-03-05T08:11:42Z</time>
      </trkpt>
      <trkpt lat="43.57814" lon="5.73485">
        <ele>416</ele>
        <time>2017-03-05T08:11:46Z</time>
      </trkpt>
      <trkpt lat="43.57815" lon="5.73516">
        <ele>413</ele>
        <time>2017-03-05T08:11:50Z</time>
      </trkpt>
      <trkpt lat="43.57816" lon="5.73541">
        <ele>413</ele>
        <time>2017-03-05T08:11:53Z</time>
      </trkpt>
      <trkpt lat="43.57824" lon="5.73566">
        <ele>410</ele>
        <time>2017-03-05T08:11:57Z</time>
      </trkpt>
      <trkpt lat="43.57833" lon="5.73589">
        <ele>405</ele>
        <time>2017-03-05T08:12:01Z</time>
      </trkpt>
      <trkpt lat="43.57836" lon="5.73616">
        <ele>402</ele>
        <time>2017-03-05T08:12:07Z</time>
      </trkpt>
      <trkpt lat="43.57834" lon="5.73641">
        <ele>402</ele>
        <time>2017-03-05T08:12:14Z</time>
      </trkpt>
      <trkpt lat="43.57851" lon="5.73653">
        <ele>401</ele>
        <time>2017-03-05T08:12:30Z</time>
      </trkpt>
      <trkpt lat="43.5787" lon="5.73647">
        <ele>402</ele>
        <time>2017-03-05T08:12:37Z</time>
      </trkpt>
      <trkpt lat="43.57888" lon="5.7365">
        <ele>402</ele>
        <time>2017-03-05T08:12:43Z</time>
      </trkpt>
      <trkpt lat="43.57906" lon="5.73656">
        <ele>402</ele>
        <time>2017-03-05T08:12:49Z</time>
      </trkpt>
      <trkpt lat="43.57924" lon="5.73657">
        <ele>401</ele>
        <time>2017-03-05T08:12:55Z</time>
      </trkpt>
      <trkpt lat="43.57943" lon="5.73657">
        <ele>400</ele>
        <time>2017-03-05T08:13:01Z</time>
      </trkpt>
      <trkpt lat="43.57964" lon="5.7366">
        <ele>400</ele>
        <time>2017-03-05T08:13:08Z</time>
      </trkpt>
      <trkpt lat="43.57982" lon="5.73647">
        <ele>400</ele>
        <time>2017-03-05T08:13:15Z</time>
      </trkpt>
      <trkpt lat="43.58" lon="5.73642">
        <ele>399</ele>
        <time>2017-03-05T08:13:21Z</time>
      </trkpt>
      <trkpt lat="43.58017" lon="5.73628">
        <ele>401</ele>
        <time>2017-03-05T08:13:29Z</time>
      </trkpt>
      <trkpt lat="43.58021" lon="5.736">
        <ele>400</ele>
        <time>2017-03-05T08:13:35Z</time>
      </trkpt>
      <trkpt lat="43.58023" lon="5.73575">
        <ele>399</ele>
        <time>2017-03-05T08:13:40Z</time>
      </trkpt>
      <trkpt lat="43.58028" lon="5.73549">
        <ele>400</ele>
        <time>2017-03-05T08:13:45Z</time>
      </trkpt>
      <trkpt lat="43.58033" lon="5.73524">
        <ele>400</ele>
        <time>2017-03-05T08:13:50Z</time>
      </trkpt>
      <trkpt lat="43.58037" lon="5.73496">
        <ele>400</ele>
        <time>2017-03-05T08:13:56Z</time>
      </trkpt>
      <trkpt lat="43.58038" lon="5.73466">
        <ele>400</ele>
        <time>2017-03-05T08:14:02Z</time>
      </trkpt>
      <trkpt lat="43.58044" lon="5.73442">
        <ele>400</ele>
        <time>2017-03-05T08:14:07Z</time>
      </trkpt>
      <trkpt lat="43.58054" lon="5.73418">
        <ele>399</ele>
        <time>2017-03-05T08:14:12Z</time>
      </trkpt>
      <trkpt lat="43.58071" lon="5.73404">
        <ele>397</ele>
        <time>2017-03-05T08:14:17Z</time>
      </trkpt>
      <trkpt lat="43.58091" lon="5.73402">
        <ele>394</ele>
        <time>2017-03-05T08:14:23Z</time>
      </trkpt>
      <trkpt lat="43.58109" lon="5.73406">
        <ele>394</ele>
        <time>2017-03-05T08:14:29Z</time>
      </trkpt>
      <trkpt lat="43.58129" lon="5.7341">
        <ele>393</ele>
        <time>2017-03-05T08:14:35Z</time>
      </trkpt>
      <trkpt lat="43.58148" lon="5.7341">
        <ele>393</ele>
        <time>2017-03-05T08:14:40Z</time>
      </trkpt>
      <trkpt lat="43.58168" lon="5.73415">
        <ele>393</ele>
        <time>2017-03-05T08:14:45Z</time>
      </trkpt>
      <trkpt lat="43.58188" lon="5.73412">
        <ele>396</ele>
        <time>2017-03-05T08:14:51Z</time>
      </trkpt>
      <trkpt lat="43.58206" lon="5.73397">
        <ele>397</ele>
        <time>2017-03-05T08:14:57Z</time>
      </trkpt>
      <trkpt lat="43.58222" lon="5.73381">
        <ele>398</ele>
        <time>2017-03-05T08:15:02Z</time>
      </trkpt>
      <trkpt lat="43.58236" lon="5.73358">
        <ele>397</ele>
        <time>2017-03-05T08:15:07Z</time>
      </trkpt>
      <trkpt lat="43.58244" lon="5.73335">
        <ele>395</ele>
        <time>2017-03-05T08:15:12Z</time>
      </trkpt>
      <trkpt lat="43.58256" lon="5.73314">
        <ele>401</ele>
        <time>2017-03-05T08:15:17Z</time>
      </trkpt>
      <trkpt lat="43.58266" lon="5.73288">
        <ele>403</ele>
        <time>2017-03-05T08:15:22Z</time>
      </trkpt>
      <trkpt lat="43.58274" lon="5.7326">
        <ele>402</ele>
        <time>2017-03-05T08:15:27Z</time>
      </trkpt>
      <trkpt lat="43.58276" lon="5.73232">
        <ele>399</ele>
        <time>2017-03-05T08:15:32Z</time>
      </trkpt>
      <trkpt lat="43.5827" lon="5.73206">
        <ele>399</ele>
        <time>2017-03-05T08:15:37Z</time>
      </trkpt>
      <trkpt lat="43.58281" lon="5.73183">
        <ele>399</ele>
        <time>2017-03-05T08:15:42Z</time>
      </trkpt>
      <trkpt lat="43.58285" lon="5.73156">
        <ele>397</ele>
        <time>2017-03-05T08:15:47Z</time>
      </trkpt>
      <trkpt lat="43.58286" lon="5.73129">
        <ele>397</ele>
        <time>2017-03-05T08:15:52Z</time>
      </trkpt>
      <trkpt lat="43.58271" lon="5.73108">
        <ele>395</ele>
        <time>2017-03-05T08:15:58Z</time>
      </trkpt>
      <trkpt lat="43.58258" lon="5.73088">
        <ele>392</ele>
        <time>2017-03-05T08:16:03Z</time>
      </trkpt>
      <trkpt lat="43.58239" lon="5.73082">
        <ele>390</ele>
        <time>2017-03-05T08:16:09Z</time>
      </trkpt>
      <trkpt lat="43.5822" lon="5.73093">
        <ele>389</ele>
        <time>2017-03-05T08:16:14Z</time>
      </trkpt>
      <trkpt lat="43.58201" lon="5.73108">
        <ele>389</ele>
        <time>2017-03-05T08:16:20Z</time>
      </trkpt>
      <trkpt lat="43.58185" lon="5.73127">
        <ele>389</ele>
        <time>2017-03-05T08:16:25Z</time>
      </trkpt>
      <trkpt lat="43.58173" lon="5.73149">
        <ele>388</ele>
        <time>2017-03-05T08:16:30Z</time>
      </trkpt>
      <trkpt lat="43.58165" lon="5.73173">
        <ele>388</ele>
        <time>2017-03-05T08:16:35Z</time>
      </trkpt>
      <trkpt lat="43.58163" lon="5.732">
        <ele>388</ele>
        <time>2017-03-05T08:16:40Z</time>
      </trkpt>
      <trkpt lat="43.58162" lon="5.73225">
        <ele>388</ele>
        <time>2017-03-05T08:16:45Z</time>
      </trkpt>
      <trkpt lat="43.58147" lon="5.73243">
        <ele>388</ele>
        <time>2017-03-05T08:16:51Z</time>
      </trkpt>
      <trkpt lat="43.58129" lon="5.73248">
        <ele>388</ele>
        <time>2017-03-05T08:16:56Z</time>
      </trkpt>
      <trkpt lat="43.58108" lon="5.7325">
        <ele>389</ele>
        <time>2017-03-05T08:17:01Z</time>
      </trkpt>
      <trkpt lat="43.58089" lon="5.7325">
        <ele>389</ele>
        <time>2017-03-05T08:17:06Z</time>
      </trkpt>
      <trkpt lat="43.5807" lon="5.73255">
        <ele>390</ele>
        <time>2017-03-05T08:17:11Z</time>
      </trkpt>
      <trkpt lat="43.58051" lon="5.73259">
        <ele>392</ele>
        <time>2017-03-05T08:17:16Z</time>
      </trkpt>
      <trkpt lat="43.58032" lon="5.73258">
        <ele>393</ele>
        <time>2017-03-05T08:17:21Z</time>
      </trkpt>
      <trkpt lat="43.58014" lon="5.73251">
        <ele>392</ele>
        <time>2017-03-05T08:17:26Z</time>
      </trkpt>
      <trkpt lat="43.57999" lon="5.73233">
        <ele>396</ele>
        <time>2017-03-05T08:17:31Z</time>
      </trkpt>
      <trkpt lat="43.57992" lon="5.73208">
        <ele>398</ele>
        <time>2017-03-05T08:17:36Z</time>
      </trkpt>
      <trkpt lat="43.57987" lon="5.73183">
        <ele>396</ele>
        <time>2017-03-05T08:17:41Z</time>
      </trkpt>
      <trkpt lat="43.57983" lon="5.73157">
        <ele>397</ele>
        <time>2017-03-05T08:17:46Z</time>
      </trkpt>
      <trkpt lat="43.57989" lon="5.7313">
        <ele>399</ele>
        <time>2017-03-05T08:17:51Z</time>
      </trkpt>
      <trkpt lat="43.58002" lon="5.73113">
        <ele>388</ele>
        <time>2017-03-05T08:17:56Z</time>
      </trkpt>
      <trkpt lat="43.58022" lon="5.73107">
        <ele>387</ele>
        <time>2017-03-05T08:18:01Z</time>
      </trkpt>
      <trkpt lat="43.58041" lon="5.7311">
        <ele>387</ele>
        <time>2017-03-05T08:18:05Z</time>
      </trkpt>
      <trkpt lat="43.58059" lon="5.73107">
        <ele>386</ele>
        <time>2017-03-05T08:18:18Z</time>
      </trkpt>
      <trkpt lat="43.58077" lon="5.73102">
        <ele>386</ele>
        <time>2017-03-05T08:18:28Z</time>
      </trkpt>
      <trkpt lat="43.58094" lon="5.73093">
        <ele>385</ele>
        <time>2017-03-05T08:18:58Z</time>
      </trkpt>
      <trkpt lat="43.58099" lon="5.73068">
        <ele>387</ele>
        <time>2017-03-05T08:19:17Z</time>
      </trkpt>
      <trkpt lat="43.58103" lon="5.73059">
        <ele>387</ele>
        <time>2017-03-05T08:21:14Z</time>
      </trkpt>
      <trkpt lat="43.58114" lon="5.73039">
        <ele>388</ele>
        <time>2017-03-05T08:24:18Z</time>
      </trkpt>
      <trkpt lat="43.58123" lon="5.73014">
        <ele>389</ele>
        <time>2017-03-05T08:24:25Z</time>
      </trkpt>
      <trkpt lat="43.58132" lon="5.7299">
        <ele>392</ele>
        <time>2017-03-05T08:24:32Z</time>
      </trkpt>
      <trkpt lat="43.5814" lon="5.72964">
        <ele>393</ele>
        <time>2017-03-05T08:24:38Z</time>
      </trkpt>
      <trkpt lat="43.58151" lon="5.72939">
        <ele>391</ele>
        <time>2017-03-05T08:24:44Z</time>
      </trkpt>
      <trkpt lat="43.58162" lon="5.72917">
        <ele>387</ele>
        <time>2017-03-05T08:24:49Z</time>
      </trkpt>
      <trkpt lat="43.58177" lon="5.72899">
        <ele>387</ele>
        <time>2017-03-05T08:24:55Z</time>
      </trkpt>
      <trkpt lat="43.58194" lon="5.72881">
        <ele>388</ele>
        <time>2017-03-05T08:25:01Z</time>
      </trkpt>
      <trkpt lat="43.58209" lon="5.72864">
        <ele>388</ele>
        <time>2017-03-05T08:25:06Z</time>
      </trkpt>
      <trkpt lat="43.58226" lon="5.72853">
        <ele>388</ele>
        <time>2017-03-05T08:25:11Z</time>
      </trkpt>
      <trkpt lat="43.58248" lon="5.72847">
        <ele>387</ele>
        <time>2017-03-05T08:25:16Z</time>
      </trkpt>
      <trkpt lat="43.58266" lon="5.72853">
        <ele>386</ele>
        <time>2017-03-05T08:25:21Z</time>
      </trkpt>
      <trkpt lat="43.58285" lon="5.7286">
        <ele>386</ele>
        <time>2017-03-05T08:25:26Z</time>
      </trkpt>
      <trkpt lat="43.58306" lon="5.72865">
        <ele>386</ele>
        <time>2017-03-05T08:25:32Z</time>
      </trkpt>
      <trkpt lat="43.58325" lon="5.72874">
        <ele>385</ele>
        <time>2017-03-05T08:25:38Z</time>
      </trkpt>
      <trkpt lat="43.58344" lon="5.72886">
        <ele>384</ele>
        <time>2017-03-05T08:25:44Z</time>
      </trkpt>
      <trkpt lat="43.58363" lon="5.72894">
        <ele>383</ele>
        <time>2017-03-05T08:25:50Z</time>
      </trkpt>
      <trkpt lat="43.58382" lon="5.72902">
        <ele>383</ele>
        <time>2017-03-05T08:25:56Z</time>
      </trkpt>
      <trkpt lat="43.58403" lon="5.72901">
        <ele>382</ele>
        <time>2017-03-05T08:26:03Z</time>
      </trkpt>
      <trkpt lat="43.58421" lon="5.729">
        <ele>383</ele>
        <time>2017-03-05T08:26:09Z</time>
      </trkpt>
      <trkpt lat="43.58441" lon="5.72891">
        <ele>385</ele>
        <time>2017-03-05T08:26:15Z</time>
      </trkpt>
      <trkpt lat="43.5845" lon="5.72867">
        <ele>386</ele>
        <time>2017-03-05T08:26:21Z</time>
      </trkpt>
      <trkpt lat="43.5845" lon="5.72841">
        <ele>386</ele>
        <time>2017-03-05T08:26:27Z</time>
      </trkpt>
      <trkpt lat="43.58446" lon="5.72816">
        <ele>388</ele>
        <time>2017-03-05T08:26:50Z</time>
      </trkpt>
      <trkpt lat="43.58447" lon="5.7279">
        <ele>389</ele>
        <time>2017-03-05T08:27:14Z</time>
      </trkpt>
      <trkpt lat="43.58445" lon="5.72765">
        <ele>389</ele>
        <time>2017-03-05T08:27:31Z</time>
      </trkpt>
      <trkpt lat="43.58432" lon="5.72745">
        <ele>388</ele>
        <time>2017-03-05T08:28:17Z</time>
      </trkpt>
      <trkpt lat="43.58429" lon="5.72719">
        <ele>389</ele>
        <time>2017-03-05T08:28:24Z</time>
      </trkpt>
      <trkpt lat="43.58439" lon="5.72698">
        <ele>389</ele>
        <time>2017-03-05T08:28:30Z</time>
      </trkpt>
      <trkpt lat="43.58442" lon="5.72672">
        <ele>389</ele>
        <time>2017-03-05T08:28:38Z</time>
      </trkpt>
      <trkpt lat="43.58431" lon="5.72651">
        <ele>388</ele>
        <time>2017-03-05T08:28:46Z</time>
      </trkpt>
      <trkpt lat="43.58422" lon="5.72625">
        <ele>387</ele>
        <time>2017-03-05T08:28:52Z</time>
      </trkpt>
      <trkpt lat="43.58416" lon="5.72602">
        <ele>393</ele>
        <time>2017-03-05T08:28:59Z</time>
      </trkpt>
      <trkpt lat="43.58412" lon="5.72576">
        <ele>388</ele>
        <time>2017-03-05T08:29:06Z</time>
      </trkpt>
      <trkpt lat="43.5841" lon="5.72548">
        <ele>389</ele>
        <time>2017-03-05T08:29:12Z</time>
      </trkpt>
      <trkpt lat="43.58399" lon="5.72524">
        <ele>388</ele>
        <time>2017-03-05T08:29:18Z</time>
      </trkpt>
      <trkpt lat="43.58382" lon="5.72509">
        <ele>389</ele>
        <time>2017-03-05T08:29:25Z</time>
      </trkpt>
      <trkpt lat="43.5837" lon="5.72489">
        <ele>388</ele>
        <time>2017-03-05T08:29:31Z</time>
      </trkpt>
      <trkpt lat="43.58358" lon="5.72468">
        <ele>389</ele>
        <time>2017-03-05T08:29:37Z</time>
      </trkpt>
      <trkpt lat="43.58343" lon="5.72449">
        <ele>389</ele>
        <time>2017-03-05T08:29:43Z</time>
      </trkpt>
      <trkpt lat="43.58331" lon="5.72432">
        <ele>392</ele>
        <time>2017-03-05T08:29:48Z</time>
      </trkpt>
      <trkpt lat="43.58319" lon="5.72411">
        <ele>388</ele>
        <time>2017-03-05T08:29:53Z</time>
      </trkpt>
      <trkpt lat="43.58308" lon="5.72387">
        <ele>389</ele>
        <time>2017-03-05T08:29:59Z</time>
      </trkpt>
      <trkpt lat="43.58308" lon="5.72361">
        <ele>389</ele>
        <time>2017-03-05T08:30:20Z</time>
      </trkpt>
      <trkpt lat="43.58326" lon="5.72363">
        <ele>388</ele>
        <time>2017-03-05T08:31:33Z</time>
      </trkpt>
      <trkpt lat="43.58338" lon="5.72385">
        <ele>390</ele>
        <time>2017-03-05T08:31:39Z</time>
      </trkpt>
      <trkpt lat="43.58352" lon="5.72404">
        <ele>390</ele>
        <time>2017-03-05T08:31:44Z</time>
      </trkpt>
      <trkpt lat="43.58365" lon="5.72423">
        <ele>388</ele>
        <time>2017-03-05T08:31:48Z</time>
      </trkpt>
      <trkpt lat="43.58377" lon="5.72444">
        <ele>388</ele>
        <time>2017-03-05T08:31:52Z</time>
      </trkpt>
      <trkpt lat="43.5839" lon="5.72467">
        <ele>387</ele>
        <time>2017-03-05T08:31:56Z</time>
      </trkpt>
      <trkpt lat="43.58403" lon="5.72488">
        <ele>384</ele>
        <time>2017-03-05T08:32:00Z</time>
      </trkpt>
      <trkpt lat="43.58421" lon="5.72492">
        <ele>382</ele>
        <time>2017-03-05T08:32:04Z</time>
      </trkpt>
      <trkpt lat="43.58441" lon="5.72483">
        <ele>385</ele>
        <time>2017-03-05T08:32:09Z</time>
      </trkpt>
      <trkpt lat="43.58462" lon="5.7248">
        <ele>387</ele>
        <time>2017-03-05T08:32:13Z</time>
      </trkpt>
      <trkpt lat="43.58483" lon="5.72485">
        <ele>386</ele>
        <time>2017-03-05T08:32:17Z</time>
      </trkpt>
      <trkpt lat="43.58503" lon="5.72498">
        <ele>382</ele>
        <time>2017-03-05T08:32:21Z</time>
      </trkpt>
      <trkpt lat="43.58521" lon="5.72514">
        <ele>382</ele>
        <time>2017-03-05T08:32:25Z</time>
      </trkpt>
      <trkpt lat="43.58539" lon="5.72532">
        <ele>382</ele>
        <time>2017-03-05T08:32:29Z</time>
      </trkpt>
      <trkpt lat="43.5856" lon="5.72541">
        <ele>382</ele>
        <time>2017-03-05T08:32:33Z</time>
      </trkpt>
      <trkpt lat="43.58584" lon="5.72542">
        <ele>379</ele>
        <time>2017-03-05T08:32:37Z</time>
      </trkpt>
      <trkpt lat="43.58601" lon="5.72539">
        <ele>379</ele>
        <time>2017-03-05T08:32:40Z</time>
      </trkpt>
      <trkpt lat="43.58622" lon="5.72532">
        <ele>379</ele>
        <time>2017-03-05T08:32:44Z</time>
      </trkpt>
      <trkpt lat="43.58644" lon="5.72531">
        <ele>378</ele>
        <time>2017-03-05T08:32:48Z</time>
      </trkpt>
      <trkpt lat="43.58662" lon="5.72531">
        <ele>378</ele>
        <time>2017-03-05T08:32:51Z</time>
      </trkpt>
      <trkpt lat="43.58681" lon="5.72532">
        <ele>375</ele>
        <time>2017-03-05T08:32:54Z</time>
      </trkpt>
      <trkpt lat="43.58699" lon="5.72535">
        <ele>375</ele>
        <time>2017-03-05T08:32:57Z</time>
      </trkpt>
      <trkpt lat="43.58722" lon="5.72536">
        <ele>375</ele>
        <time>2017-03-05T08:33:01Z</time>
      </trkpt>
      <trkpt lat="43.58743" lon="5.72534">
        <ele>374</ele>
        <time>2017-03-05T08:33:05Z</time>
      </trkpt>
      <trkpt lat="43.58759" lon="5.72523">
        <ele>376</ele>
        <time>2017-03-05T08:33:09Z</time>
      </trkpt>
      <trkpt lat="43.58776" lon="5.72512">
        <ele>376</ele>
        <time>2017-03-05T08:33:14Z</time>
      </trkpt>
      <trkpt lat="43.58794" lon="5.725">
        <ele>376</ele>
        <time>2017-03-05T08:33:19Z</time>
      </trkpt>
      <trkpt lat="43.58804" lon="5.72474">
        <ele>376</ele>
        <time>2017-03-05T08:33:24Z</time>
      </trkpt>
      <trkpt lat="43.58806" lon="5.72445">
        <ele>376</ele>
        <time>2017-03-05T08:33:29Z</time>
      </trkpt>
      <trkpt lat="43.58814" lon="5.72418">
        <ele>375</ele>
        <time>2017-03-05T08:33:34Z</time>
      </trkpt>
      <trkpt lat="43.58834" lon="5.72408">
        <ele>375</ele>
        <time>2017-03-05T08:33:39Z</time>
      </trkpt>
      <trkpt lat="43.5885" lon="5.72394">
        <ele>378</ele>
        <time>2017-03-05T08:33:43Z</time>
      </trkpt>
      <trkpt lat="43.58855" lon="5.72369">
        <ele>378</ele>
        <time>2017-03-05T08:33:47Z</time>
      </trkpt>
      <trkpt lat="43.58859" lon="5.72344">
        <ele>378</ele>
        <time>2017-03-05T08:33:51Z</time>
      </trkpt>
      <trkpt lat="43.58869" lon="5.7232">
        <ele>376</ele>
        <time>2017-03-05T08:33:55Z</time>
      </trkpt>
      <trkpt lat="43.58879" lon="5.72294">
        <ele>376</ele>
        <time>2017-03-05T08:33:59Z</time>
      </trkpt>
      <trkpt lat="43.58884" lon="5.72266">
        <ele>376</ele>
        <time>2017-03-05T08:34:03Z</time>
      </trkpt>
      <trkpt lat="43.5888" lon="5.72237">
        <ele>375</ele>
        <time>2017-03-05T08:34:07Z</time>
      </trkpt>
      <trkpt lat="43.58874" lon="5.72209">
        <ele>375</ele>
        <time>2017-03-05T08:34:11Z</time>
      </trkpt>
      <trkpt lat="43.58875" lon="5.72182">
        <ele>375</ele>
        <time>2017-03-05T08:34:16Z</time>
      </trkpt>
      <trkpt lat="43.58884" lon="5.72157">
        <ele>378</ele>
        <time>2017-03-05T08:34:21Z</time>
      </trkpt>
      <trkpt lat="43.58904" lon="5.72144">
        <ele>376</ele>
        <time>2017-03-05T08:34:26Z</time>
      </trkpt>
      <trkpt lat="43.58925" lon="5.72138">
        <ele>369</ele>
        <time>2017-03-05T08:34:31Z</time>
      </trkpt>
      <trkpt lat="43.58943" lon="5.72132">
        <ele>370</ele>
        <time>2017-03-05T08:34:35Z</time>
      </trkpt>
      <trkpt lat="43.58961" lon="5.72127">
        <ele>370</ele>
        <time>2017-03-05T08:34:39Z</time>
      </trkpt>
      <trkpt lat="43.58982" lon="5.72129">
        <ele>370</ele>
        <time>2017-03-05T08:34:43Z</time>
      </trkpt>
      <trkpt lat="43.59" lon="5.72136">
        <ele>369</ele>
        <time>2017-03-05T08:34:47Z</time>
      </trkpt>
      <trkpt lat="43.59017" lon="5.72153">
        <ele>369</ele>
        <time>2017-03-05T08:34:52Z</time>
      </trkpt>
      <trkpt lat="43.5903" lon="5.72175">
        <ele>367</ele>
        <time>2017-03-05T08:34:57Z</time>
      </trkpt>
      <trkpt lat="43.59037" lon="5.72202">
        <ele>367</ele>
        <time>2017-03-05T08:35:02Z</time>
      </trkpt>
      <trkpt lat="43.59041" lon="5.72228">
        <ele>367</ele>
        <time>2017-03-05T08:35:06Z</time>
      </trkpt>
      <trkpt lat="43.59042" lon="5.72256">
        <ele>371</ele>
        <time>2017-03-05T08:35:11Z</time>
      </trkpt>
      <trkpt lat="43.59044" lon="5.72286">
        <ele>372</ele>
        <time>2017-03-05T08:35:16Z</time>
      </trkpt>
      <trkpt lat="43.59063" lon="5.72301">
        <ele>372</ele>
        <time>2017-03-05T08:35:21Z</time>
      </trkpt>
      <trkpt lat="43.59085" lon="5.72302">
        <ele>370</ele>
        <time>2017-03-05T08:35:26Z</time>
      </trkpt>
      <trkpt lat="43.59104" lon="5.72291">
        <ele>370</ele>
        <time>2017-03-05T08:35:30Z</time>
      </trkpt>
      <trkpt lat="43.5912" lon="5.72269">
        <ele>370</ele>
        <time>2017-03-05T08:35:34Z</time>
      </trkpt>
      <trkpt lat="43.59138" lon="5.72247">
        <ele>367</ele>
        <time>2017-03-05T08:35:38Z</time>
      </trkpt>
      <trkpt lat="43.59155" lon="5.72224">
        <ele>367</ele>
        <time>2017-03-05T08:35:42Z</time>
      </trkpt>
      <trkpt lat="43.59173" lon="5.72202">
        <ele>368</ele>
        <time>2017-03-05T08:35:46Z</time>
      </trkpt>
      <trkpt lat="43.59186" lon="5.72184">
        <ele>367</ele>
        <time>2017-03-05T08:35:49Z</time>
      </trkpt>
      <trkpt lat="43.59204" lon="5.72165">
        <ele>365</ele>
        <time>2017-03-05T08:35:53Z</time>
      </trkpt>
      <trkpt lat="43.59222" lon="5.72157">
        <ele>365</ele>
        <time>2017-03-05T08:35:57Z</time>
      </trkpt>
      <trkpt lat="43.59241" lon="5.72142">
        <ele>364</ele>
        <time>2017-03-05T08:36:02Z</time>
      </trkpt>
      <trkpt lat="43.5926" lon="5.72124">
        <ele>362</ele>
        <time>2017-03-05T08:36:06Z</time>
      </trkpt>
      <trkpt lat="43.59273" lon="5.72104">
        <ele>362</ele>
        <time>2017-03-05T08:36:10Z</time>
      </trkpt>
      <trkpt lat="43.59278" lon="5.72078">
        <ele>369</ele>
        <time>2017-03-05T08:36:14Z</time>
      </trkpt>
      <trkpt lat="43.59282" lon="5.72053">
        <ele>372</ele>
        <time>2017-03-05T08:36:19Z</time>
      </trkpt>
      <trkpt lat="43.59302" lon="5.72059">
        <ele>371</ele>
        <time>2017-03-05T08:36:25Z</time>
      </trkpt>
      <trkpt lat="43.59317" lon="5.7208">
        <ele>368</ele>
        <time>2017-03-05T08:36:30Z</time>
      </trkpt>
      <trkpt lat="43.5933" lon="5.72099">
        <ele>363</ele>
        <time>2017-03-05T08:36:34Z</time>
      </trkpt>
      <trkpt lat="43.59342" lon="5.72119">
        <ele>373</ele>
        <time>2017-03-05T08:36:38Z</time>
      </trkpt>
      <trkpt lat="43.5935" lon="5.72143">
        <ele>373</ele>
        <time>2017-03-05T08:36:44Z</time>
      </trkpt>
      <trkpt lat="43.59359" lon="5.72166">
        <ele>373</ele>
        <time>2017-03-05T08:36:50Z</time>
      </trkpt>
      <trkpt lat="43.59368" lon="5.7219">
        <ele>373</ele>
        <time>2017-03-05T08:36:55Z</time>
      </trkpt>
      <trkpt lat="43.59373" lon="5.72219">
        <ele>373</ele>
        <time>2017-03-05T08:37:00Z</time>
      </trkpt>
      <trkpt lat="43.59379" lon="5.72245">
        <ele>374</ele>
        <time>2017-03-05T08:37:05Z</time>
      </trkpt>
      <trkpt lat="43.59383" lon="5.72272">
        <ele>372</ele>
        <time>2017-03-05T08:37:10Z</time>
      </trkpt>
      <trkpt lat="43.5938" lon="5.72297">
        <ele>372</ele>
        <time>2017-03-05T08:37:15Z</time>
      </trkpt>
      <trkpt lat="43.59377" lon="5.72323">
        <ele>372</ele>
        <time>2017-03-05T08:37:21Z</time>
      </trkpt>
      <trkpt lat="43.59377" lon="5.72353">
        <ele>369</ele>
        <time>2017-03-05T08:37:26Z</time>
      </trkpt>
      <trkpt lat="43.59378" lon="5.72381">
        <ele>368</ele>
        <time>2017-03-05T08:37:30Z</time>
      </trkpt>
      <trkpt lat="43.59388" lon="5.7241">
        <ele>365</ele>
        <time>2017-03-05T08:37:34Z</time>
      </trkpt>
      <trkpt lat="43.59402" lon="5.72425">
        <ele>364</ele>
        <time>2017-03-05T08:37:37Z</time>
      </trkpt>
      <trkpt lat="43.59424" lon="5.72428">
        <ele>357</ele>
        <time>2017-03-05T08:37:41Z</time>
      </trkpt>
      <trkpt lat="43.59443" lon="5.72428">
        <ele>358</ele>
        <time>2017-03-05T08:37:45Z</time>
      </trkpt>
      <trkpt lat="43.59457" lon="5.72412">
        <ele>357</ele>
        <time>2017-03-05T08:37:49Z</time>
      </trkpt>
      <trkpt lat="43.59478" lon="5.72397">
        <ele>357</ele>
        <time>2017-03-05T08:37:55Z</time>
      </trkpt>
      <trkpt lat="43.59489" lon="5.72375">
        <ele>358</ele>
        <time>2017-03-05T08:38:00Z</time>
      </trkpt>
      <trkpt lat="43.59506" lon="5.72364">
        <ele>357</ele>
        <time>2017-03-05T08:38:06Z</time>
      </trkpt>
      <trkpt lat="43.59526" lon="5.72355">
        <ele>357</ele>
        <time>2017-03-05T08:38:11Z</time>
      </trkpt>
      <trkpt lat="43.59547" lon="5.72343">
        <ele>355</ele>
        <time>2017-03-05T08:38:16Z</time>
      </trkpt>
      <trkpt lat="43.59566" lon="5.72327">
        <ele>357</ele>
        <time>2017-03-05T08:38:21Z</time>
      </trkpt>
      <trkpt lat="43.59584" lon="5.72314">
        <ele>353</ele>
        <time>2017-03-05T08:38:26Z</time>
      </trkpt>
      <trkpt lat="43.59602" lon="5.72297">
        <ele>356</ele>
        <time>2017-03-05T08:38:30Z</time>
      </trkpt>
      <trkpt lat="43.59622" lon="5.72282">
        <ele>356</ele>
        <time>2017-03-05T08:38:35Z</time>
      </trkpt>
      <trkpt lat="43.59641" lon="5.7227">
        <ele>356</ele>
        <time>2017-03-05T08:38:39Z</time>
      </trkpt>
      <trkpt lat="43.5966" lon="5.72261">
        <ele>354</ele>
        <time>2017-03-05T08:38:43Z</time>
      </trkpt>
      <trkpt lat="43.59681" lon="5.72253">
        <ele>354</ele>
        <time>2017-03-05T08:38:47Z</time>
      </trkpt>
      <trkpt lat="43.59701" lon="5.72242">
        <ele>355</ele>
        <time>2017-03-05T08:38:51Z</time>
      </trkpt>
      <trkpt lat="43.59717" lon="5.72223">
        <ele>355</ele>
        <time>2017-03-05T08:38:55Z</time>
      </trkpt>
      <trkpt lat="43.59733" lon="5.72204">
        <ele>355</ele>
        <time>2017-03-05T08:39:00Z</time>
      </trkpt>
      <trkpt lat="43.59748" lon="5.7219">
        <ele>354</ele>
        <time>2017-03-05T08:39:04Z</time>
      </trkpt>
      <trkpt lat="43.59768" lon="5.72177">
        <ele>348</ele>
        <time>2017-03-05T08:39:09Z</time>
      </trkpt>
      <trkpt lat="43.59787" lon="5.72172">
        <ele>347</ele>
        <time>2017-03-05T08:39:13Z</time>
      </trkpt>
      <trkpt lat="43.59808" lon="5.72168">
        <ele>346</ele>
        <time>2017-03-05T08:39:18Z</time>
      </trkpt>
      <trkpt lat="43.5983" lon="5.72166">
        <ele>346</ele>
        <time>2017-03-05T08:39:23Z</time>
      </trkpt>
      <trkpt lat="43.59849" lon="5.72166">
        <ele>349</ele>
        <time>2017-03-05T08:39:27Z</time>
      </trkpt>
      <trkpt lat="43.59869" lon="5.72174">
        <ele>347</ele>
        <time>2017-03-05T08:39:32Z</time>
      </trkpt>
      <trkpt lat="43.59887" lon="5.7218">
        <ele>348</ele>
        <time>2017-03-05T08:39:36Z</time>
      </trkpt>
      <trkpt lat="43.59907" lon="5.7219">
        <ele>349</ele>
        <time>2017-03-05T08:39:42Z</time>
      </trkpt>
      <trkpt lat="43.59925" lon="5.72204">
        <ele>352</ele>
        <time>2017-03-05T08:39:47Z</time>
      </trkpt>
      <trkpt lat="43.59946" lon="5.72218">
        <ele>351</ele>
        <time>2017-03-05T08:39:52Z</time>
      </trkpt>
      <trkpt lat="43.59963" lon="5.72228">
        <ele>351</ele>
        <time>2017-03-05T08:39:56Z</time>
      </trkpt>
      <trkpt lat="43.59979" lon="5.72241">
        <ele>351</ele>
        <time>2017-03-05T08:40:01Z</time>
      </trkpt>
      <trkpt lat="43.59995" lon="5.72255">
        <ele>348</ele>
        <time>2017-03-05T08:40:06Z</time>
      </trkpt>
      <trkpt lat="43.60011" lon="5.72269">
        <ele>345</ele>
        <time>2017-03-05T08:40:10Z</time>
      </trkpt>
      <trkpt lat="43.60028" lon="5.72286">
        <ele>343</ele>
        <time>2017-03-05T08:40:14Z</time>
      </trkpt>
      <trkpt lat="43.60047" lon="5.72297">
        <ele>342</ele>
        <time>2017-03-05T08:40:17Z</time>
      </trkpt>
      <trkpt lat="43.60066" lon="5.72294">
        <ele>342</ele>
        <time>2017-03-05T08:40:21Z</time>
      </trkpt>
      <trkpt lat="43.60076" lon="5.72266">
        <ele>342</ele>
        <time>2017-03-05T08:40:26Z</time>
      </trkpt>
      <trkpt lat="43.6008" lon="5.72237">
        <ele>345</ele>
        <time>2017-03-05T08:40:30Z</time>
      </trkpt>
      <trkpt lat="43.60087" lon="5.72204">
        <ele>346</ele>
        <time>2017-03-05T08:40:34Z</time>
      </trkpt>
      <trkpt lat="43.60092" lon="5.7218">
        <ele>346</ele>
        <time>2017-03-05T08:40:37Z</time>
      </trkpt>
      <trkpt lat="43.60098" lon="5.72151">
        <ele>347</ele>
        <time>2017-03-05T08:40:41Z</time>
      </trkpt>
      <trkpt lat="43.60106" lon="5.72127">
        <ele>348</ele>
        <time>2017-03-05T08:40:45Z</time>
      </trkpt>
      <trkpt lat="43.6012" lon="5.72109">
        <ele>347</ele>
        <time>2017-03-05T08:40:48Z</time>
      </trkpt>
      <trkpt lat="43.60138" lon="5.72095">
        <ele>345</ele>
        <time>2017-03-05T08:40:52Z</time>
      </trkpt>
      <trkpt lat="43.60153" lon="5.72079">
        <ele>344</ele>
        <time>2017-03-05T08:40:56Z</time>
      </trkpt>
      <trkpt lat="43.60168" lon="5.72065">
        <ele>340</ele>
        <time>2017-03-05T08:41:00Z</time>
      </trkpt>
      <trkpt lat="43.60185" lon="5.7205">
        <ele>340</ele>
        <time>2017-03-05T08:41:04Z</time>
      </trkpt>
      <trkpt lat="43.60199" lon="5.72026">
        <ele>340</ele>
        <time>2017-03-05T08:41:08Z</time>
      </trkpt>
      <trkpt lat="43.60212" lon="5.72003">
        <ele>340</ele>
        <time>2017-03-05T08:41:12Z</time>
      </trkpt>
      <trkpt lat="43.60226" lon="5.71983">
        <ele>338</ele>
        <time>2017-03-05T08:41:17Z</time>
      </trkpt>
      <trkpt lat="43.60236" lon="5.7196">
        <ele>337</ele>
        <time>2017-03-05T08:41:24Z</time>
      </trkpt>
      <trkpt lat="43.60229" lon="5.71934">
        <ele>337</ele>
        <time>2017-03-05T08:44:21Z</time>
      </trkpt>
      <trkpt lat="43.60223" lon="5.71908">
        <ele>336</ele>
        <time>2017-03-05T08:44:28Z</time>
      </trkpt>
      <trkpt lat="43.60213" lon="5.71883">
        <ele>337</ele>
        <time>2017-03-05T08:44:36Z</time>
      </trkpt>
      <trkpt lat="43.60202" lon="5.71862">
        <ele>337</ele>
        <time>2017-03-05T08:44:46Z</time>
      </trkpt>
      <trkpt lat="43.60194" lon="5.7184">
        <ele>338</ele>
        <time>2017-03-05T08:44:56Z</time>
      </trkpt>
      <trkpt lat="43.60179" lon="5.71822">
        <ele>339</ele>
        <time>2017-03-05T08:45:06Z</time>
      </trkpt>
      <trkpt lat="43.60162" lon="5.71808">
        <ele>343</ele>
        <time>2017-03-05T08:45:15Z</time>
      </trkpt>
      <trkpt lat="43.60142" lon="5.71802">
        <ele>344</ele>
        <time>2017-03-05T08:45:23Z</time>
      </trkpt>
      <trkpt lat="43.60123" lon="5.718">
        <ele>345</ele>
        <time>2017-03-05T08:45:33Z</time>
      </trkpt>
      <trkpt lat="43.60105" lon="5.71793">
        <ele>346</ele>
        <time>2017-03-05T08:45:44Z</time>
      </trkpt>
      <trkpt lat="43.60087" lon="5.71792">
        <ele>346</ele>
        <time>2017-03-05T08:45:55Z</time>
      </trkpt>
      <trkpt lat="43.60068" lon="5.71792">
        <ele>352</ele>
        <time>2017-03-05T08:46:06Z</time>
      </trkpt>
      <trkpt lat="43.6005" lon="5.71786">
        <ele>353</ele>
        <time>2017-03-05T08:46:18Z</time>
      </trkpt>
      <trkpt lat="43.60032" lon="5.71786">
        <ele>355</ele>
        <time>2017-03-05T08:46:30Z</time>
      </trkpt>
      <trkpt lat="43.60013" lon="5.71791">
        <ele>356</ele>
        <time>2017-03-05T08:46:43Z</time>
      </trkpt>
      <trkpt lat="43.59995" lon="5.71797">
        <ele>364</ele>
        <time>2017-03-05T08:46:56Z</time>
      </trkpt>
      <trkpt lat="43.59978" lon="5.71807">
        <ele>365</ele>
        <time>2017-03-05T08:47:09Z</time>
      </trkpt>
      <trkpt lat="43.5996" lon="5.71813">
        <ele>367</ele>
        <time>2017-03-05T08:47:23Z</time>
      </trkpt>
      <trkpt lat="43.59944" lon="5.71798">
        <ele>368</ele>
        <time>2017-03-05T08:47:40Z</time>
      </trkpt>
      <trkpt lat="43.59933" lon="5.71778">
        <ele>369</ele>
        <time>2017-03-05T08:47:53Z</time>
      </trkpt>
      <trkpt lat="43.59926" lon="5.71755">
        <ele>372</ele>
        <time>2017-03-05T08:48:04Z</time>
      </trkpt>
      <trkpt lat="43.59919" lon="5.71729">
        <ele>371</ele>
        <time>2017-03-05T08:48:19Z</time>
      </trkpt>
      <trkpt lat="43.59907" lon="5.71709">
        <ele>377</ele>
        <time>2017-03-05T08:48:29Z</time>
      </trkpt>
      <trkpt lat="43.5989" lon="5.71696">
        <ele>378</ele>
        <time>2017-03-05T08:48:42Z</time>
      </trkpt>
      <trkpt lat="43.59877" lon="5.71676">
        <ele>378</ele>
        <time>2017-03-05T08:48:54Z</time>
      </trkpt>
      <trkpt lat="43.59858" lon="5.71673">
        <ele>380</ele>
        <time>2017-03-05T08:49:06Z</time>
      </trkpt>
      <trkpt lat="43.59841" lon="5.71661">
        <ele>381</ele>
        <time>2017-03-05T08:49:19Z</time>
      </trkpt>
      <trkpt lat="43.59825" lon="5.7165">
        <ele>385</ele>
        <time>2017-03-05T08:49:31Z</time>
      </trkpt>
      <trkpt lat="43.5981" lon="5.71634">
        <ele>387</ele>
        <time>2017-03-05T08:49:43Z</time>
      </trkpt>
      <trkpt lat="43.59795" lon="5.7162">
        <ele>388</ele>
        <time>2017-03-05T08:49:56Z</time>
      </trkpt>
      <trkpt lat="43.59778" lon="5.71609">
        <ele>390</ele>
        <time>2017-03-05T08:50:09Z</time>
      </trkpt>
      <trkpt lat="43.59766" lon="5.7159">
        <ele>391</ele>
        <time>2017-03-05T08:50:24Z</time>
      </trkpt>
      <trkpt lat="43.59753" lon="5.71571">
        <ele>393</ele>
        <time>2017-03-05T08:50:37Z</time>
      </trkpt>
      <trkpt lat="43.59739" lon="5.71552">
        <ele>400</ele>
        <time>2017-03-05T08:50:50Z</time>
      </trkpt>
      <trkpt lat="43.59726" lon="5.71534">
        <ele>401</ele>
        <time>2017-03-05T08:51:03Z</time>
      </trkpt>
      <trkpt lat="43.59719" lon="5.7151">
        <ele>402</ele>
        <time>2017-03-05T08:51:16Z</time>
      </trkpt>
      <trkpt lat="43.59715" lon="5.71485">
        <ele>405</ele>
        <time>2017-03-05T08:51:29Z</time>
      </trkpt>
      <trkpt lat="43.59716" lon="5.7146">
        <ele>406</ele>
        <time>2017-03-05T08:51:41Z</time>
      </trkpt>
      <trkpt lat="43.59714" lon="5.71433">
        <ele>407</ele>
        <time>2017-03-05T08:51:55Z</time>
      </trkpt>
      <trkpt lat="43.59706" lon="5.71411">
        <ele>411</ele>
        <time>2017-03-05T08:52:12Z</time>
      </trkpt>
      <trkpt lat="43.59698" lon="5.71385">
        <ele>411</ele>
        <time>2017-03-05T08:52:35Z</time>
      </trkpt>
      <trkpt lat="43.59687" lon="5.71364">
        <ele>412</ele>
        <time>2017-03-05T08:52:49Z</time>
      </trkpt>
      <trkpt lat="43.59672" lon="5.71339">
        <ele>414</ele>
        <time>2017-03-05T08:53:51Z</time>
      </trkpt>
      <trkpt lat="43.59652" lon="5.71343">
        <ele>419</ele>
        <time>2017-03-05T08:57:49Z</time>
      </trkpt>
      <trkpt lat="43.59634" lon="5.71337">
        <ele>422</ele>
        <time>2017-03-05T08:57:58Z</time>
      </trkpt>
      <trkpt lat="43.59616" lon="5.7133">
        <ele>422</ele>
        <time>2017-03-05T08:58:07Z</time>
      </trkpt>
      <trkpt lat="43.59598" lon="5.71326">
        <ele>424</ele>
        <time>2017-03-05T08:58:18Z</time>
      </trkpt>
      <trkpt lat="43.59592" lon="5.713">
        <ele>423</ele>
        <time>2017-03-05T08:58:31Z</time>
      </trkpt>
      <trkpt lat="43.5959" lon="5.71275">
        <ele>423</ele>
        <time>2017-03-05T08:58:43Z</time>
      </trkpt>
      <trkpt lat="43.59583" lon="5.71251">
        <ele>425</ele>
        <time>2017-03-05T08:58:57Z</time>
      </trkpt>
      <trkpt lat="43.59569" lon="5.71268">
        <ele>429</ele>
        <time>2017-03-05T09:00:25Z</time>
      </trkpt>
      <trkpt lat="43.5956" lon="5.71292">
        <ele>430</ele>
        <time>2017-03-05T09:00:37Z</time>
      </trkpt>
      <trkpt lat="43.59546" lon="5.71308">
        <ele>432</ele>
        <time>2017-03-05T09:00:50Z</time>
      </trkpt>
      <trkpt lat="43.59536" lon="5.7133">
        <ele>433</ele>
        <time>2017-03-05T09:01:03Z</time>
      </trkpt>
      <trkpt lat="43.59528" lon="5.71354">
        <ele>439</ele>
        <time>2017-03-05T09:01:17Z</time>
      </trkpt>
      <trkpt lat="43.59511" lon="5.71365">
        <ele>441</ele>
        <time>2017-03-05T09:01:32Z</time>
      </trkpt>
      <trkpt lat="43.59495" lon="5.71351">
        <ele>449</ele>
        <time>2017-03-05T09:01:44Z</time>
      </trkpt>
      <trkpt lat="43.59478" lon="5.71341">
        <ele>451</ele>
        <time>2017-03-05T09:01:53Z</time>
      </trkpt>
      <trkpt lat="43.59459" lon="5.71341">
        <ele>454</ele>
        <time>2017-03-05T09:02:02Z</time>
      </trkpt>
      <trkpt lat="43.59441" lon="5.71336">
        <ele>456</ele>
        <time>2017-03-05T09:02:11Z</time>
      </trkpt>
      <trkpt lat="43.59423" lon="5.71328">
        <ele>454</ele>
        <time>2017-03-05T09:02:21Z</time>
      </trkpt>
      <trkpt lat="43.59409" lon="5.7131">
        <ele>461</ele>
        <time>2017-03-05T09:02:30Z</time>
      </trkpt>
      <trkpt lat="43.59398" lon="5.71291">
        <ele>461</ele>
        <time>2017-03-05T09:02:38Z</time>
      </trkpt>
      <trkpt lat="43.59383" lon="5.71271">
        <ele>461</ele>
        <time>2017-03-05T09:02:46Z</time>
      </trkpt>
      <trkpt lat="43.59369" lon="5.71253">
        <ele>463</ele>
        <time>2017-03-05T09:02:55Z</time>
      </trkpt>
      <trkpt lat="43.59356" lon="5.71234">
        <ele>457</ele>
        <time>2017-03-05T09:03:07Z</time>
      </trkpt>
      <trkpt lat="43.59343" lon="5.71217">
        <ele>456</ele>
        <time>2017-03-05T09:03:19Z</time>
      </trkpt>
      <trkpt lat="43.59328" lon="5.712">
        <ele>468</ele>
        <time>2017-03-05T09:03:31Z</time>
      </trkpt>
      <trkpt lat="43.59315" lon="5.71182">
        <ele>466</ele>
        <time>2017-03-05T09:03:42Z</time>
      </trkpt>
      <trkpt lat="43.59302" lon="5.71165">
        <ele>458</ele>
        <time>2017-03-05T09:03:53Z</time>
      </trkpt>
      <trkpt lat="43.59285" lon="5.71154">
        <ele>460</ele>
        <time>2017-03-05T09:04:00Z</time>
      </trkpt>
      <trkpt lat="43.59272" lon="5.71135">
        <ele>461</ele>
        <time>2017-03-05T09:04:11Z</time>
      </trkpt>
      <trkpt lat="43.59264" lon="5.71112">
        <ele>460</ele>
        <time>2017-03-05T09:04:22Z</time>
      </trkpt>
      <trkpt lat="43.59253" lon="5.7109">
        <ele>462</ele>
        <time>2017-03-05T09:04:32Z</time>
      </trkpt>
      <trkpt lat="43.59242" lon="5.71067">
        <ele>465</ele>
        <time>2017-03-05T09:04:42Z</time>
      </trkpt>
      <trkpt lat="43.59229" lon="5.71047">
        <ele>465</ele>
        <time>2017-03-05T09:04:50Z</time>
      </trkpt>
      <trkpt lat="43.59216" lon="5.71026">
        <ele>465</ele>
        <time>2017-03-05T09:04:59Z</time>
      </trkpt>
      <trkpt lat="43.59201" lon="5.71008">
        <ele>467</ele>
        <time>2017-03-05T09:05:08Z</time>
      </trkpt>
      <trkpt lat="43.59185" lon="5.70992">
        <ele>463</ele>
        <time>2017-03-05T09:05:16Z</time>
      </trkpt>
      <trkpt lat="43.5917" lon="5.70975">
        <ele>461</ele>
        <time>2017-03-05T09:05:25Z</time>
      </trkpt>
      <trkpt lat="43.59154" lon="5.70962">
        <ele>472</ele>
        <time>2017-03-05T09:05:34Z</time>
      </trkpt>
      <trkpt lat="43.59136" lon="5.70946">
        <ele>472</ele>
        <time>2017-03-05T09:05:41Z</time>
      </trkpt>
      <trkpt lat="43.59119" lon="5.70926">
        <ele>473</ele>
        <time>2017-03-05T09:05:46Z</time>
      </trkpt>
      <trkpt lat="43.59104" lon="5.70909">
        <ele>468</ele>
        <time>2017-03-05T09:05:51Z</time>
      </trkpt>
      <trkpt lat="43.59088" lon="5.70893">
        <ele>468</ele>
        <time>2017-03-05T09:05:56Z</time>
      </trkpt>
      <trkpt lat="43.59071" lon="5.70876">
        <ele>478</ele>
        <time>2017-03-05T09:06:01Z</time>
      </trkpt>
      <trkpt lat="43.59054" lon="5.70859">
        <ele>478</ele>
        <time>2017-03-05T09:06:07Z</time>
      </trkpt>
      <trkpt lat="43.59036" lon="5.70846">
        <ele>479</ele>
        <time>2017-03-05T09:06:14Z</time>
      </trkpt>
      <trkpt lat="43.59017" lon="5.70843">
        <ele>481</ele>
        <time>2017-03-05T09:06:22Z</time>
      </trkpt>
      <trkpt lat="43.59002" lon="5.70828">
        <ele>481</ele>
        <time>2017-03-05T09:06:59Z</time>
      </trkpt>
      <trkpt lat="43.58984" lon="5.70825">
        <ele>487</ele>
        <time>2017-03-05T09:07:54Z</time>
      </trkpt>
      <trkpt lat="43.58967" lon="5.70815">
        <ele>490</ele>
        <time>2017-03-05T09:08:25Z</time>
      </trkpt>
      <trkpt lat="43.58956" lon="5.70796">
        <ele>491</ele>
        <time>2017-03-05T09:08:54Z</time>
      </trkpt>
      <trkpt lat="43.58938" lon="5.708">
        <ele>493</ele>
        <time>2017-03-05T09:09:25Z</time>
      </trkpt>
      <trkpt lat="43.58933" lon="5.70824">
        <ele>495</ele>
        <time>2017-03-05T09:10:11Z</time>
      </trkpt>
      <trkpt lat="43.5892" lon="5.70841">
        <ele>499</ele>
        <time>2017-03-05T09:10:33Z</time>
      </trkpt>
      <trkpt lat="43.5892" lon="5.70866">
        <ele>500</ele>
        <time>2017-03-05T09:10:56Z</time>
      </trkpt>
      <trkpt lat="43.5893" lon="5.70887">
        <ele>501</ele>
        <time>2017-03-05T09:11:29Z</time>
      </trkpt>
      <trkpt lat="43.58925" lon="5.70911">
        <ele>508</ele>
        <time>2017-03-05T09:12:15Z</time>
      </trkpt>
      <trkpt lat="43.58907" lon="5.7092">
        <ele>518</ele>
        <time>2017-03-05T09:13:09Z</time>
      </trkpt>
      <trkpt lat="43.58904" lon="5.70944">
        <ele>525</ele>
        <time>2017-03-05T09:14:06Z</time>
      </trkpt>
      <trkpt lat="43.5889" lon="5.70964">
        <ele>528</ele>
        <time>2017-03-05T09:15:35Z</time>
      </trkpt>
      <trkpt lat="43.58881" lon="5.70986">
        <ele>530</ele>
        <time>2017-03-05T09:16:32Z</time>
      </trkpt>
      <trkpt lat="43.58869" lon="5.71005">
        <ele>532</ele>
        <time>2017-03-05T09:17:12Z</time>
      </trkpt>
      <trkpt lat="43.5885" lon="5.7101">
        <ele>534</ele>
        <time>2017-03-05T09:17:42Z</time>
      </trkpt>
      <trkpt lat="43.58833" lon="5.71017">
        <ele>537</ele>
        <time>2017-03-05T09:18:02Z</time>
      </trkpt>
      <trkpt lat="43.58814" lon="5.71036">
        <ele>534</ele>
        <time>2017-03-05T09:26:34Z</time>
      </trkpt>
      <trkpt lat="43.58798" lon="5.71052">
        <ele>533</ele>
        <time>2017-03-05T09:26:43Z</time>
      </trkpt>
      <trkpt lat="43.58785" lon="5.71071">
        <ele>531</ele>
        <time>2017-03-05T09:26:49Z</time>
      </trkpt>
      <trkpt lat="43.58788" lon="5.71097">
        <ele>527</ele>
        <time>2017-03-05T09:26:56Z</time>
      </trkpt>
      <trkpt lat="43.58788" lon="5.71122">
        <ele>526</ele>
        <time>2017-03-05T09:27:02Z</time>
      </trkpt>
      <trkpt lat="43.58788" lon="5.71151">
        <ele>524</ele>
        <time>2017-03-05T09:27:10Z</time>
      </trkpt>
      <trkpt lat="43.58798" lon="5.71176">
        <ele>517</ele>
        <time>2017-03-05T09:27:17Z</time>
      </trkpt>
      <trkpt lat="43.58785" lon="5.71195">
        <ele>516</ele>
        <time>2017-03-05T09:27:30Z</time>
      </trkpt>
      <trkpt lat="43.58772" lon="5.71214">
        <ele>516</ele>
        <time>2017-03-05T09:27:40Z</time>
      </trkpt>
      <trkpt lat="43.58755" lon="5.7122">
        <ele>516</ele>
        <time>2017-03-05T09:28:05Z</time>
      </trkpt>
      <trkpt lat="43.58746" lon="5.71243">
        <ele>512</ele>
        <time>2017-03-05T09:28:15Z</time>
      </trkpt>
      <trkpt lat="43.58747" lon="5.71268">
        <ele>507</ele>
        <time>2017-03-05T09:28:25Z</time>
      </trkpt>
      <trkpt lat="43.58752" lon="5.71294">
        <ele>506</ele>
        <time>2017-03-05T09:28:34Z</time>
      </trkpt>
      <trkpt lat="43.58757" lon="5.71318">
        <ele>504</ele>
        <time>2017-03-05T09:28:39Z</time>
      </trkpt>
      <trkpt lat="43.58764" lon="5.71343">
        <ele>499</ele>
        <time>2017-03-05T09:28:45Z</time>
      </trkpt>
      <trkpt lat="43.58769" lon="5.71368">
        <ele>495</ele>
        <time>2017-03-05T09:28:51Z</time>
      </trkpt>
      <trkpt lat="43.58775" lon="5.71396">
        <ele>493</ele>
        <time>2017-03-05T09:28:58Z</time>
      </trkpt>
      <trkpt lat="43.58772" lon="5.71423">
        <ele>487</ele>
        <time>2017-03-05T09:29:06Z</time>
      </trkpt>
      <trkpt lat="43.58763" lon="5.71446">
        <ele>486</ele>
        <time>2017-03-05T09:29:15Z</time>
      </trkpt>
      <trkpt lat="43.58761" lon="5.71472">
        <ele>484</ele>
        <time>2017-03-05T09:29:30Z</time>
      </trkpt>
      <trkpt lat="43.58758" lon="5.71496">
        <ele>484</ele>
        <time>2017-03-05T09:29:40Z</time>
      </trkpt>
      <trkpt lat="43.58762" lon="5.71521">
        <ele>479</ele>
        <time>2017-03-05T09:29:50Z</time>
      </trkpt>
      <trkpt lat="43.58767" lon="5.71546">
        <ele>477</ele>
        <time>2017-03-05T09:29:59Z</time>
      </trkpt>
      <trkpt lat="43.58766" lon="5.71574">
        <ele>478</ele>
        <time>2017-03-05T09:30:05Z</time>
      </trkpt>
      <trkpt lat="43.58762" lon="5.716">
        <ele>475</ele>
        <time>2017-03-05T09:30:11Z</time>
      </trkpt>
      <trkpt lat="43.58758" lon="5.71626">
        <ele>473</ele>
        <time>2017-03-05T09:30:19Z</time>
      </trkpt>
      <trkpt lat="43.58754" lon="5.71654">
        <ele>475</ele>
        <time>2017-03-05T09:30:27Z</time>
      </trkpt>
      <trkpt lat="43.58746" lon="5.71677">
        <ele>475</ele>
        <time>2017-03-05T09:30:32Z</time>
      </trkpt>
      <trkpt lat="43.58741" lon="5.71701">
        <ele>472</ele>
        <time>2017-03-05T09:30:36Z</time>
      </trkpt>
      <trkpt lat="43.58744" lon="5.71728">
        <ele>472</ele>
        <time>2017-03-05T09:30:42Z</time>
      </trkpt>
      <trkpt lat="43.58741" lon="5.71757">
        <ele>472</ele>
        <time>2017-03-05T09:30:47Z</time>
      </trkpt>
      <trkpt lat="43.58738" lon="5.71784">
        <ele>470</ele>
        <time>2017-03-05T09:30:52Z</time>
      </trkpt>
      <trkpt lat="43.58737" lon="5.71811">
        <ele>469</ele>
        <time>2017-03-05T09:30:58Z</time>
      </trkpt>
      <trkpt lat="43.58731" lon="5.71839">
        <ele>469</ele>
        <time>2017-03-05T09:31:05Z</time>
      </trkpt>
      <trkpt lat="43.5872" lon="5.71863">
        <ele>468</ele>
        <time>2017-03-05T09:31:11Z</time>
      </trkpt>
      <trkpt lat="43.58706" lon="5.7188">
        <ele>468</ele>
        <time>2017-03-05T09:31:17Z</time>
      </trkpt>
      <trkpt lat="43.58699" lon="5.71905">
        <ele>468</ele>
        <time>2017-03-05T09:31:23Z</time>
      </trkpt>
      <trkpt lat="43.58682" lon="5.71924">
        <ele>466</ele>
        <time>2017-03-05T09:31:29Z</time>
      </trkpt>
      <trkpt lat="43.58665" lon="5.71929">
        <ele>468</ele>
        <time>2017-03-05T09:31:34Z</time>
      </trkpt>
      <trkpt lat="43.58647" lon="5.71927">
        <ele>467</ele>
        <time>2017-03-05T09:32:30Z</time>
      </trkpt>
      <trkpt lat="43.58628" lon="5.71922">
        <ele>467</ele>
        <time>2017-03-05T09:32:41Z</time>
      </trkpt>
      <trkpt lat="43.58609" lon="5.71912">
        <ele>466</ele>
        <time>2017-03-05T09:32:47Z</time>
      </trkpt>
      <trkpt lat="43.58594" lon="5.71897">
        <ele>466</ele>
        <time>2017-03-05T09:32:52Z</time>
      </trkpt>
      <trkpt lat="43.58581" lon="5.71875">
        <ele>463</ele>
        <time>2017-03-05T09:32:58Z</time>
      </trkpt>
      <trkpt lat="43.58569" lon="5.71857">
        <ele>461</ele>
        <time>2017-03-05T09:33:05Z</time>
      </trkpt>
      <trkpt lat="43.58567" lon="5.71827">
        <ele>455</ele>
        <time>2017-03-05T09:33:11Z</time>
      </trkpt>
      <trkpt lat="43.58555" lon="5.71804">
        <ele>451</ele>
        <time>2017-03-05T09:33:17Z</time>
      </trkpt>
      <trkpt lat="43.58539" lon="5.71791">
        <ele>450</ele>
        <time>2017-03-05T09:33:22Z</time>
      </trkpt>
      <trkpt lat="43.58526" lon="5.71772">
        <ele>447</ele>
        <time>2017-03-05T09:33:27Z</time>
      </trkpt>
      <trkpt lat="43.58507" lon="5.71759">
        <ele>441</ele>
        <time>2017-03-05T09:33:32Z</time>
      </trkpt>
      <trkpt lat="43.58486" lon="5.71756">
        <ele>438</ele>
        <time>2017-03-05T09:33:37Z</time>
      </trkpt>
      <trkpt lat="43.58464" lon="5.71748">
        <ele>429</ele>
        <time>2017-03-05T09:33:42Z</time>
      </trkpt>
      <trkpt lat="43.58446" lon="5.71746">
        <ele>428</ele>
        <time>2017-03-05T09:33:46Z</time>
      </trkpt>
      <trkpt lat="43.58425" lon="5.71748">
        <ele>428</ele>
        <time>2017-03-05T09:33:50Z</time>
      </trkpt>
      <trkpt lat="43.58404" lon="5.71747">
        <ele>423</ele>
        <time>2017-03-05T09:33:54Z</time>
      </trkpt>
      <trkpt lat="43.58387" lon="5.71755">
        <ele>428</ele>
        <time>2017-03-05T09:33:58Z</time>
      </trkpt>
      <trkpt lat="43.58367" lon="5.71759">
        <ele>426</ele>
        <time>2017-03-05T09:34:02Z</time>
      </trkpt>
      <trkpt lat="43.58348" lon="5.71749">
        <ele>416</ele>
        <time>2017-03-05T09:34:07Z</time>
      </trkpt>
      <trkpt lat="43.58347" lon="5.71723">
        <ele>416</ele>
        <time>2017-03-05T09:34:11Z</time>
      </trkpt>
      <trkpt lat="43.58347" lon="5.71697">
        <ele>414</ele>
        <time>2017-03-05T09:34:16Z</time>
      </trkpt>
      <trkpt lat="43.58344" lon="5.71671">
        <ele>410</ele>
        <time>2017-03-05T09:34:22Z</time>
      </trkpt>
      <trkpt lat="43.58361" lon="5.71658">
        <ele>407</ele>
        <time>2017-03-05T09:34:28Z</time>
      </trkpt>
      <trkpt lat="43.58385" lon="5.71647">
        <ele>408</ele>
      </trkpt>
      <trkpt lat="43.58384" lon="5.71635">
        <ele>408</ele>
      </trkpt>
      <trkpt lat="43.58364" lon="5.71637">
        <ele>407</ele>
        <time>2017-03-05T09:34:51Z</time>
      </trkpt>
      <trkpt lat="43.58343" lon="5.71638">
        <ele>406</ele>
        <time>2017-03-05T09:34:57Z</time>
      </trkpt>
      <trkpt lat="43.58324" lon="5.71642">
        <ele>401</ele>
        <time>2017-03-05T09:35:47Z</time>
      </trkpt>
      <trkpt lat="43.58312" lon="5.71653">
        <ele>401</ele>
      </trkpt>
      <trkpt lat="43.58299" lon="5.71671">
        <ele>403</ele>
        <time>2017-03-05T09:37:50Z</time>
      </trkpt>
      <trkpt lat="43.58282" lon="5.71685">
        <ele>401</ele>
        <time>2017-03-05T09:37:58Z</time>
      </trkpt>
      <trkpt lat="43.58263" lon="5.71695">
        <ele>400</ele>
        <time>2017-03-05T09:38:04Z</time>
      </trkpt>
      <trkpt lat="43.58252" lon="5.71715">
        <ele>401</ele>
        <time>2017-03-05T09:38:11Z</time>
      </trkpt>
      <trkpt lat="43.58241" lon="5.71736">
        <ele>396</ele>
        <time>2017-03-05T09:38:17Z</time>
      </trkpt>
      <trkpt lat="43.58229" lon="5.71759">
        <ele>397</ele>
        <time>2017-03-05T09:38:23Z</time>
      </trkpt>
      <trkpt lat="43.5822" lon="5.71785">
        <ele>397</ele>
        <time>2017-03-05T09:38:29Z</time>
      </trkpt>
      <trkpt lat="43.58212" lon="5.71809">
        <ele>397</ele>
        <time>2017-03-05T09:38:35Z</time>
      </trkpt>
      <trkpt lat="43.58209" lon="5.71835">
        <ele>397</ele>
        <time>2017-03-05T09:38:42Z</time>
      </trkpt>
      <trkpt lat="43.58211" lon="5.71862">
        <ele>397</ele>
        <time>2017-03-05T09:39:02Z</time>
      </trkpt>
      <trkpt lat="43.58215" lon="5.71887">
        <ele>397</ele>
        <time>2017-03-05T09:39:13Z</time>
      </trkpt>
      <trkpt lat="43.58221" lon="5.71914">
        <ele>397</ele>
        <time>2017-03-05T09:39:21Z</time>
      </trkpt>
      <trkpt lat="43.5823" lon="5.7194">
        <ele>395</ele>
        <time>2017-03-05T09:39:28Z</time>
      </trkpt>
      <trkpt lat="43.5824" lon="5.71963">
        <ele>394</ele>
        <time>2017-03-05T09:39:35Z</time>
      </trkpt>
      <trkpt lat="43.58248" lon="5.71986">
        <ele>393</ele>
        <time>2017-03-05T09:39:42Z</time>
      </trkpt>
      <trkpt lat="43.58257" lon="5.72013">
        <ele>395</ele>
        <time>2017-03-05T09:39:48Z</time>
      </trkpt>
      <trkpt lat="43.58267" lon="5.72037">
        <ele>396</ele>
        <time>2017-03-05T09:39:53Z</time>
      </trkpt>
      <trkpt lat="43.58276" lon="5.72061">
        <ele>395</ele>
        <time>2017-03-05T09:39:58Z</time>
      </trkpt>
      <trkpt lat="43.58283" lon="5.72084">
        <ele>392</ele>
        <time>2017-03-05T09:40:03Z</time>
      </trkpt>
      <trkpt lat="43.58291" lon="5.72108">
        <ele>393</ele>
        <time>2017-03-05T09:40:08Z</time>
      </trkpt>
      <trkpt lat="43.58299" lon="5.72134">
        <ele>393</ele>
        <time>2017-03-05T09:40:13Z</time>
      </trkpt>
      <trkpt lat="43.58301" lon="5.72159">
        <ele>393</ele>
        <time>2017-03-05T09:40:18Z</time>
      </trkpt>
      <trkpt lat="43.58299" lon="5.72185">
        <ele>392</ele>
        <time>2017-03-05T09:40:23Z</time>
      </trkpt>
      <trkpt lat="43.58301" lon="5.72214">
        <ele>392</ele>
        <time>2017-03-05T09:40:28Z</time>
      </trkpt>
      <trkpt lat="43.58303" lon="5.72243">
        <ele>391</ele>
        <time>2017-03-05T09:40:32Z</time>
      </trkpt>
      <trkpt lat="43.58309" lon="5.72271">
        <ele>389</ele>
        <time>2017-03-05T09:40:36Z</time>
      </trkpt>
      <trkpt lat="43.5831" lon="5.72296">
        <ele>389</ele>
        <time>2017-03-05T09:40:40Z</time>
      </trkpt>
      <trkpt lat="43.5831" lon="5.72323">
        <ele>388</ele>
        <time>2017-03-05T09:40:44Z</time>
      </trkpt>
      <trkpt lat="43.58313" lon="5.72349">
        <ele>388</ele>
        <time>2017-03-05T09:40:49Z</time>
      </trkpt>
      <trkpt lat="43.58294" lon="5.72345">
        <ele>389</ele>
        <time>2017-03-05T09:42:24Z</time>
      </trkpt>
      <trkpt lat="43.58279" lon="5.7233">
        <ele>389</ele>
        <time>2017-03-05T09:42:33Z</time>
      </trkpt>
      <trkpt lat="43.58259" lon="5.72333">
        <ele>389</ele>
        <time>2017-03-05T09:42:44Z</time>
      </trkpt>
      <trkpt lat="43.58244" lon="5.72349">
        <ele>395</ele>
        <time>2017-03-05T09:42:56Z</time>
      </trkpt>
      <trkpt lat="43.58228" lon="5.72362">
        <ele>399</ele>
        <time>2017-03-05T09:43:11Z</time>
      </trkpt>
      <trkpt lat="43.58217" lon="5.72382">
        <ele>401</ele>
        <time>2017-03-05T09:43:27Z</time>
      </trkpt>
      <trkpt lat="43.58203" lon="5.72398">
        <ele>402</ele>
        <time>2017-03-05T09:43:45Z</time>
      </trkpt>
      <trkpt lat="43.58185" lon="5.72393">
        <ele>403</ele>
        <time>2017-03-05T09:43:58Z</time>
      </trkpt>
      <trkpt lat="43.58167" lon="5.72387">
        <ele>411</ele>
        <time>2017-03-05T09:44:13Z</time>
      </trkpt>
      <trkpt lat="43.5815" lon="5.72378">
        <ele>412</ele>
        <time>2017-03-05T09:44:26Z</time>
      </trkpt>
      <trkpt lat="43.58135" lon="5.72364">
        <ele>413</ele>
        <time>2017-03-05T09:44:40Z</time>
      </trkpt>
      <trkpt lat="43.58122" lon="5.72343">
        <ele>413</ele>
        <time>2017-03-05T09:44:55Z</time>
      </trkpt>
      <trkpt lat="43.5811" lon="5.72323">
        <ele>415</ele>
        <time>2017-03-05T09:45:09Z</time>
      </trkpt>
      <trkpt lat="43.58093" lon="5.72315">
        <ele>415</ele>
        <time>2017-03-05T09:45:22Z</time>
      </trkpt>
      <trkpt lat="43.58075" lon="5.72313">
        <ele>418</ele>
        <time>2017-03-05T09:45:36Z</time>
      </trkpt>
      <trkpt lat="43.58056" lon="5.72314">
        <ele>420</ele>
        <time>2017-03-05T09:45:49Z</time>
      </trkpt>
      <trkpt lat="43.58037" lon="5.72317">
        <ele>421</ele>
        <time>2017-03-05T09:46:03Z</time>
      </trkpt>
      <trkpt lat="43.58018" lon="5.72318">
        <ele>422</ele>
        <time>2017-03-05T09:46:19Z</time>
      </trkpt>
      <trkpt lat="43.57999" lon="5.72313">
        <ele>425</ele>
        <time>2017-03-05T09:46:33Z</time>
      </trkpt>
      <trkpt lat="43.57981" lon="5.72306">
        <ele>427</ele>
        <time>2017-03-05T09:46:47Z</time>
      </trkpt>
      <trkpt lat="43.57963" lon="5.723">
        <ele>429</ele>
        <time>2017-03-05T09:47:00Z</time>
      </trkpt>
      <trkpt lat="43.57948" lon="5.72284">
        <ele>430</ele>
        <time>2017-03-05T09:47:14Z</time>
      </trkpt>
      <trkpt lat="43.57939" lon="5.72262">
        <ele>431</ele>
        <time>2017-03-05T09:47:29Z</time>
      </trkpt>
      <trkpt lat="43.57925" lon="5.72244">
        <ele>434</ele>
        <time>2017-03-05T09:47:43Z</time>
      </trkpt>
      <trkpt lat="43.5791" lon="5.72228">
        <ele>439</ele>
        <time>2017-03-05T09:47:58Z</time>
      </trkpt>
      <trkpt lat="43.57894" lon="5.72215">
        <ele>442</ele>
        <time>2017-03-05T09:48:15Z</time>
      </trkpt>
      <trkpt lat="43.57877" lon="5.72206">
        <ele>443</ele>
        <time>2017-03-05T09:48:28Z</time>
      </trkpt>
      <trkpt lat="43.57859" lon="5.722">
        <ele>444</ele>
        <time>2017-03-05T09:48:40Z</time>
      </trkpt>
      <trkpt lat="43.57841" lon="5.72197">
        <ele>444</ele>
        <time>2017-03-05T09:48:54Z</time>
      </trkpt>
      <trkpt lat="43.57822" lon="5.72201">
        <ele>449</ele>
        <time>2017-03-05T09:49:09Z</time>
      </trkpt>
      <trkpt lat="43.57803" lon="5.72206">
        <ele>449</ele>
        <time>2017-03-05T09:49:23Z</time>
      </trkpt>
      <trkpt lat="43.57785" lon="5.72203">
        <ele>450</ele>
        <time>2017-03-05T09:49:38Z</time>
      </trkpt>
      <trkpt lat="43.57767" lon="5.72203">
        <ele>451</ele>
        <time>2017-03-05T09:49:54Z</time>
      </trkpt>
      <trkpt lat="43.57748" lon="5.72208">
        <ele>456</ele>
        <time>2017-03-05T09:50:09Z</time>
      </trkpt>
      <trkpt lat="43.57731" lon="5.72213">
        <ele>456</ele>
        <time>2017-03-05T09:50:24Z</time>
      </trkpt>
      <trkpt lat="43.57713" lon="5.72208">
        <ele>457</ele>
        <time>2017-03-05T09:50:34Z</time>
      </trkpt>
      <trkpt lat="43.57695" lon="5.72202">
        <ele>457</ele>
        <time>2017-03-05T09:50:49Z</time>
      </trkpt>
      <trkpt lat="43.57677" lon="5.72198">
        <ele>457</ele>
        <time>2017-03-05T09:51:03Z</time>
      </trkpt>
      <trkpt lat="43.57659" lon="5.72194">
        <ele>463</ele>
        <time>2017-03-05T09:51:17Z</time>
      </trkpt>
      <trkpt lat="43.57639" lon="5.72197">
        <ele>465</ele>
        <time>2017-03-05T09:51:32Z</time>
      </trkpt>
      <trkpt lat="43.57623" lon="5.72207">
        <ele>467</ele>
        <time>2017-03-05T09:51:46Z</time>
      </trkpt>
      <trkpt lat="43.57605" lon="5.72214">
        <ele>468</ele>
        <time>2017-03-05T09:52:00Z</time>
      </trkpt>
      <trkpt lat="43.57587" lon="5.72213">
        <ele>469</ele>
        <time>2017-03-05T09:52:12Z</time>
      </trkpt>
      <trkpt lat="43.57567" lon="5.72212">
        <ele>477</ele>
        <time>2017-03-05T09:52:26Z</time>
      </trkpt>
      <trkpt lat="43.57572" lon="5.72188">
        <ele>475</ele>
        <time>2017-03-05T09:52:48Z</time>
      </trkpt>
      <trkpt lat="43.57585" lon="5.7217">
        <ele>470</ele>
        <time>2017-03-05T09:53:02Z</time>
      </trkpt>
      <trkpt lat="43.57567" lon="5.7216">
        <ele>470</ele>
        <time>2017-03-05T09:53:21Z</time>
      </trkpt>
      <trkpt lat="43.57548" lon="5.72157">
        <ele>471</ele>
        <time>2017-03-05T09:53:36Z</time>
      </trkpt>
      <trkpt lat="43.5753" lon="5.72157">
        <ele>472</ele>
        <time>2017-03-05T09:53:56Z</time>
      </trkpt>
      <trkpt lat="43.57511" lon="5.72156">
        <ele>475</ele>
        <time>2017-03-05T09:54:15Z</time>
      </trkpt>
      <trkpt lat="43.57492" lon="5.72152">
        <ele>482</ele>
        <time>2017-03-05T09:54:34Z</time>
      </trkpt>
      <trkpt lat="43.57475" lon="5.72142">
        <ele>484</ele>
        <time>2017-03-05T09:54:51Z</time>
      </trkpt>
      <trkpt lat="43.5746" lon="5.72128">
        <ele>485</ele>
        <time>2017-03-05T09:55:07Z</time>
      </trkpt>
      <trkpt lat="43.57445" lon="5.72113">
        <ele>486</ele>
        <time>2017-03-05T09:55:41Z</time>
      </trkpt>
      <trkpt lat="43.57426" lon="5.72104">
        <ele>489</ele>
        <time>2017-03-05T09:55:55Z</time>
      </trkpt>
      <trkpt lat="43.57411" lon="5.72118">
        <ele>496</ele>
        <time>2017-03-05T09:56:08Z</time>
      </trkpt>
      <trkpt lat="43.57406" lon="5.72143">
        <ele>496</ele>
        <time>2017-03-05T09:56:18Z</time>
      </trkpt>
      <trkpt lat="43.57388" lon="5.72148">
        <ele>497</ele>
        <time>2017-03-05T09:56:30Z</time>
      </trkpt>
      <trkpt lat="43.57367" lon="5.72153">
        <ele>497</ele>
        <time>2017-03-05T09:59:20Z</time>
      </trkpt>
      <trkpt lat="43.57348" lon="5.72163">
        <ele>498</ele>
        <time>2017-03-05T09:59:29Z</time>
      </trkpt>
      <trkpt lat="43.57328" lon="5.72159">
        <ele>500</ele>
        <time>2017-03-05T09:59:38Z</time>
      </trkpt>
      <trkpt lat="43.5731" lon="5.72157">
        <ele>500</ele>
        <time>2017-03-05T09:59:46Z</time>
      </trkpt>
      <trkpt lat="43.57291" lon="5.72158">
        <ele>501</ele>
        <time>2017-03-05T09:59:53Z</time>
      </trkpt>
      <trkpt lat="43.57272" lon="5.72161">
        <ele>501</ele>
        <time>2017-03-05T10:00:01Z</time>
      </trkpt>
      <trkpt lat="43.57253" lon="5.72158">
        <ele>501</ele>
        <time>2017-03-05T10:01:21Z</time>
      </trkpt>
      <trkpt lat="43.57234" lon="5.72156">
        <ele>501</ele>
        <time>2017-03-05T10:01:28Z</time>
      </trkpt>
      <trkpt lat="43.57213" lon="5.72156">
        <ele>501</ele>
        <time>2017-03-05T10:01:33Z</time>
      </trkpt>
      <trkpt lat="43.57193" lon="5.72155">
        <ele>501</ele>
        <time>2017-03-05T10:01:37Z</time>
      </trkpt>
      <trkpt lat="43.57171" lon="5.72154">
        <ele>501</ele>
        <time>2017-03-05T10:01:41Z</time>
      </trkpt>
      <trkpt lat="43.57149" lon="5.72146">
        <ele>499</ele>
        <time>2017-03-05T10:01:45Z</time>
      </trkpt>
      <trkpt lat="43.57129" lon="5.72131">
        <ele>498</ele>
        <time>2017-03-05T10:01:49Z</time>
      </trkpt>
      <trkpt lat="43.5711" lon="5.72113">
        <ele>498</ele>
        <time>2017-03-05T10:01:53Z</time>
      </trkpt>
      <trkpt lat="43.57095" lon="5.72093">
        <ele>497</ele>
        <time>2017-03-05T10:01:57Z</time>
      </trkpt>
      <trkpt lat="43.57082" lon="5.72071">
        <ele>497</ele>
        <time>2017-03-05T10:02:01Z</time>
      </trkpt>
      <trkpt lat="43.57068" lon="5.72048">
        <ele>498</ele>
        <time>2017-03-05T10:02:05Z</time>
      </trkpt>
      <trkpt lat="43.57054" lon="5.72027">
        <ele>499</ele>
        <time>2017-03-05T10:02:09Z</time>
      </trkpt>
      <trkpt lat="43.57035" lon="5.7202">
        <ele>499</ele>
        <time>2017-03-05T10:02:13Z</time>
      </trkpt>
      <trkpt lat="43.5702" lon="5.72045">
        <ele>498</ele>
        <time>2017-03-05T10:02:18Z</time>
      </trkpt>
      <trkpt lat="43.57011" lon="5.7207">
        <ele>497</ele>
        <time>2017-03-05T10:02:22Z</time>
      </trkpt>
      <trkpt lat="43.56998" lon="5.72089">
        <ele>495</ele>
        <time>2017-03-05T10:02:26Z</time>
      </trkpt>
      <trkpt lat="43.56982" lon="5.72107">
        <ele>493</ele>
        <time>2017-03-05T10:02:30Z</time>
      </trkpt>
      <trkpt lat="43.56964" lon="5.7212">
        <ele>493</ele>
        <time>2017-03-05T10:02:34Z</time>
      </trkpt>
      <trkpt lat="43.56945" lon="5.72123">
        <ele>493</ele>
        <time>2017-03-05T10:02:38Z</time>
      </trkpt>
      <trkpt lat="43.56927" lon="5.72127">
        <ele>493</ele>
        <time>2017-03-05T10:02:42Z</time>
      </trkpt>
      <trkpt lat="43.56908" lon="5.72137">
        <ele>494</ele>
        <time>2017-03-05T10:02:46Z</time>
      </trkpt>
      <trkpt lat="43.5689" lon="5.72149">
        <ele>493</ele>
        <time>2017-03-05T10:02:50Z</time>
      </trkpt>
      <trkpt lat="43.56869" lon="5.72159">
        <ele>493</ele>
        <time>2017-03-05T10:02:54Z</time>
      </trkpt>
      <trkpt lat="43.56852" lon="5.72173">
        <ele>490</ele>
        <time>2017-03-05T10:02:58Z</time>
      </trkpt>
      <trkpt lat="43.56835" lon="5.72188">
        <ele>490</ele>
        <time>2017-03-05T10:03:02Z</time>
      </trkpt>
      <trkpt lat="43.56815" lon="5.72205">
        <ele>487</ele>
        <time>2017-03-05T10:03:06Z</time>
      </trkpt>
      <trkpt lat="43.56795" lon="5.72217">
        <ele>487</ele>
        <time>2017-03-05T10:03:10Z</time>
      </trkpt>
      <trkpt lat="43.56776" lon="5.72224">
        <ele>486</ele>
        <time>2017-03-05T10:03:14Z</time>
      </trkpt>
      <trkpt lat="43.56757" lon="5.72232">
        <ele>485</ele>
        <time>2017-03-05T10:03:18Z</time>
      </trkpt>
      <trkpt lat="43.56738" lon="5.72243">
        <ele>483</ele>
        <time>2017-03-05T10:03:22Z</time>
      </trkpt>
      <trkpt lat="43.56718" lon="5.72256">
        <ele>479</ele>
        <time>2017-03-05T10:03:26Z</time>
      </trkpt>
      <trkpt lat="43.56699" lon="5.72272">
        <ele>478</ele>
        <time>2017-03-05T10:03:30Z</time>
      </trkpt>
      <trkpt lat="43.5668" lon="5.72284">
        <ele>478</ele>
        <time>2017-03-05T10:03:34Z</time>
      </trkpt>
      <trkpt lat="43.56662" lon="5.7229">
        <ele>475</ele>
        <time>2017-03-05T10:03:38Z</time>
      </trkpt>
      <trkpt lat="43.56643" lon="5.72275">
        <ele>476</ele>
        <time>2017-03-05T10:03:43Z</time>
      </trkpt>
      <trkpt lat="43.56639" lon="5.7225">
        <ele>476</ele>
        <time>2017-03-05T10:03:47Z</time>
      </trkpt>
      <trkpt lat="43.56629" lon="5.72228">
        <ele>479</ele>
        <time>2017-03-05T10:03:54Z</time>
      </trkpt>
      <trkpt lat="43.5662" lon="5.72253">
        <ele>475</ele>
        <time>2017-03-05T10:05:19Z</time>
      </trkpt>
      <trkpt lat="43.56612" lon="5.72279">
        <ele>475</ele>
        <time>2017-03-05T10:05:24Z</time>
      </trkpt>
      <trkpt lat="43.56607" lon="5.72304">
        <ele>473</ele>
        <time>2017-03-05T10:05:28Z</time>
      </trkpt>
      <trkpt lat="43.56601" lon="5.72333">
        <ele>472</ele>
        <time>2017-03-05T10:05:32Z</time>
      </trkpt>
      <trkpt lat="43.56587" lon="5.7236">
        <ele>468</ele>
        <time>2017-03-05T10:05:36Z</time>
      </trkpt>
      <trkpt lat="43.56573" lon="5.72383">
        <ele>465</ele>
        <time>2017-03-05T10:05:40Z</time>
      </trkpt>
      <trkpt lat="43.56565" lon="5.72405">
        <ele>464</ele>
        <time>2017-03-05T10:05:43Z</time>
      </trkpt>
      <trkpt lat="43.56558" lon="5.72429">
        <ele>461</ele>
        <time>2017-03-05T10:05:46Z</time>
      </trkpt>
      <trkpt lat="43.56545" lon="5.72454">
        <ele>460</ele>
        <time>2017-03-05T10:05:50Z</time>
      </trkpt>
      <trkpt lat="43.5653" lon="5.72475">
        <ele>460</ele>
        <time>2017-03-05T10:05:54Z</time>
      </trkpt>
      <trkpt lat="43.56512" lon="5.72494">
        <ele>458</ele>
        <time>2017-03-05T10:05:58Z</time>
      </trkpt>
      <trkpt lat="43.56498" lon="5.7251">
        <ele>456</ele>
        <time>2017-03-05T10:06:01Z</time>
      </trkpt>
      <trkpt lat="43.56482" lon="5.72528">
        <ele>455</ele>
        <time>2017-03-05T10:06:04Z</time>
      </trkpt>
      <trkpt lat="43.56467" lon="5.72546">
        <ele>454</ele>
        <time>2017-03-05T10:06:07Z</time>
      </trkpt>
      <trkpt lat="43.56451" lon="5.72564">
        <ele>454</ele>
        <time>2017-03-05T10:06:11Z</time>
      </trkpt>
      <trkpt lat="43.56435" lon="5.72584">
        <ele>452</ele>
        <time>2017-03-05T10:06:16Z</time>
      </trkpt>
      <trkpt lat="43.56421" lon="5.726">
        <ele>452</ele>
        <time>2017-03-05T10:06:20Z</time>
      </trkpt>
      <trkpt lat="43.56407" lon="5.72618">
        <ele>452</ele>
        <time>2017-03-05T10:06:24Z</time>
      </trkpt>
      <trkpt lat="43.56394" lon="5.72636">
        <ele>452</ele>
        <time>2017-03-05T10:06:28Z</time>
      </trkpt>
      <trkpt lat="43.56384" lon="5.72657">
        <ele>451</ele>
        <time>2017-03-05T10:06:32Z</time>
      </trkpt>
      <trkpt lat="43.56374" lon="5.7268">
        <ele>450</ele>
        <time>2017-03-05T10:06:36Z</time>
      </trkpt>
      <trkpt lat="43.56358" lon="5.72696">
        <ele>450</ele>
        <time>2017-03-05T10:06:40Z</time>
      </trkpt>
      <trkpt lat="43.56338" lon="5.72695">
        <ele>450</ele>
        <time>2017-03-05T10:06:44Z</time>
      </trkpt>
      <trkpt lat="43.56321" lon="5.72683">
        <ele>451</ele>
        <time>2017-03-05T10:06:48Z</time>
      </trkpt>
      <trkpt lat="43.56305" lon="5.72664">
        <ele>453</ele>
        <time>2017-03-05T10:06:53Z</time>
      </trkpt>
      <trkpt lat="43.56293" lon="5.72646">
        <ele>454</ele>
        <time>2017-03-05T10:06:58Z</time>
      </trkpt>
      <trkpt lat="43.56289" lon="5.7262">
        <ele>454</ele>
        <time>2017-03-05T10:07:05Z</time>
      </trkpt>
      <trkpt lat="43.56286" lon="5.72595">
        <ele>455</ele>
        <time>2017-03-05T10:07:12Z</time>
      </trkpt>
      <trkpt lat="43.56274" lon="5.72574">
        <ele>456</ele>
        <time>2017-03-05T10:07:19Z</time>
      </trkpt>
      <trkpt lat="43.56257" lon="5.7256">
        <ele>457</ele>
        <time>2017-03-05T10:07:26Z</time>
      </trkpt>
      <trkpt lat="43.56243" lon="5.72542">
        <ele>458</ele>
        <time>2017-03-05T10:07:34Z</time>
      </trkpt>
      <trkpt lat="43.56233" lon="5.72521">
        <ele>458</ele>
        <time>2017-03-05T10:07:41Z</time>
      </trkpt>
      <trkpt lat="43.56221" lon="5.72498">
        <ele>459</ele>
        <time>2017-03-05T10:07:49Z</time>
      </trkpt>
      <trkpt lat="43.56205" lon="5.72482">
        <ele>459</ele>
        <time>2017-03-05T10:07:57Z</time>
      </trkpt>
      <trkpt lat="43.56191" lon="5.72467">
        <ele>459</ele>
        <time>2017-03-05T10:08:04Z</time>
      </trkpt>
      <trkpt lat="43.56176" lon="5.7245">
        <ele>459</ele>
        <time>2017-03-05T10:08:12Z</time>
      </trkpt>
      <trkpt lat="43.56163" lon="5.72429">
        <ele>460</ele>
        <time>2017-03-05T10:08:20Z</time>
      </trkpt>
      <trkpt lat="43.56156" lon="5.72403">
        <ele>461</ele>
        <time>2017-03-05T10:08:28Z</time>
      </trkpt>
      <trkpt lat="43.56152" lon="5.72377">
        <ele>462</ele>
        <time>2017-03-05T10:08:36Z</time>
      </trkpt>
      <trkpt lat="43.56143" lon="5.72354">
        <ele>463</ele>
        <time>2017-03-05T10:08:44Z</time>
      </trkpt>
      <trkpt lat="43.56131" lon="5.72334">
        <ele>463</ele>
        <time>2017-03-05T10:08:51Z</time>
      </trkpt>
      <trkpt lat="43.5612" lon="5.72315">
        <ele>465</ele>
        <time>2017-03-05T10:08:58Z</time>
      </trkpt>
      <trkpt lat="43.56108" lon="5.72292">
        <ele>465</ele>
        <time>2017-03-05T10:09:06Z</time>
      </trkpt>
      <trkpt lat="43.56097" lon="5.72272">
        <ele>465</ele>
        <time>2017-03-05T10:09:13Z</time>
      </trkpt>
      <trkpt lat="43.56087" lon="5.72251">
        <ele>465</ele>
        <time>2017-03-05T10:09:20Z</time>
      </trkpt>
      <trkpt lat="43.56082" lon="5.72226">
        <ele>465</ele>
        <time>2017-03-05T10:09:28Z</time>
      </trkpt>
      <trkpt lat="43.56077" lon="5.72199">
        <ele>465</ele>
        <time>2017-03-05T10:09:36Z</time>
      </trkpt>
      <trkpt lat="43.56075" lon="5.72173">
        <ele>466</ele>
        <time>2017-03-05T10:09:43Z</time>
      </trkpt>
      <trkpt lat="43.56073" lon="5.72148">
        <ele>466</ele>
        <time>2017-03-05T10:09:50Z</time>
      </trkpt>
      <trkpt lat="43.56073" lon="5.7212">
        <ele>467</ele>
        <time>2017-03-05T10:09:58Z</time>
      </trkpt>
      <trkpt lat="43.56076" lon="5.72095">
        <ele>468</ele>
        <time>2017-03-05T10:10:05Z</time>
      </trkpt>
      <trkpt lat="43.56074" lon="5.7207">
        <ele>469</ele>
        <time>2017-03-05T10:10:12Z</time>
      </trkpt>
      <trkpt lat="43.56063" lon="5.72045">
        <ele>469</ele>
        <time>2017-03-05T10:10:20Z</time>
      </trkpt>
      <trkpt lat="43.56049" lon="5.72029">
        <ele>469</ele>
        <time>2017-03-05T10:10:27Z</time>
      </trkpt>
      <trkpt lat="43.56035" lon="5.72011">
        <ele>469</ele>
        <time>2017-03-05T10:10:36Z</time>
      </trkpt>
      <trkpt lat="43.5602" lon="5.71994">
        <ele>471</ele>
        <time>2017-03-05T10:10:46Z</time>
      </trkpt>
      <trkpt lat="43.56007" lon="5.71973">
        <ele>471</ele>
        <time>2017-03-05T10:10:56Z</time>
      </trkpt>
      <trkpt lat="43.55992" lon="5.71954">
        <ele>472</ele>
        <time>2017-03-05T10:11:05Z</time>
      </trkpt>
      <trkpt lat="43.55977" lon="5.71937">
        <ele>472</ele>
        <time>2017-03-05T10:11:16Z</time>
      </trkpt>
      <trkpt lat="43.55962" lon="5.71922">
        <ele>472</ele>
        <time>2017-03-05T10:11:25Z</time>
      </trkpt>
      <trkpt lat="43.55946" lon="5.71906">
        <ele>475</ele>
        <time>2017-03-05T10:11:33Z</time>
      </trkpt>
      <trkpt lat="43.55931" lon="5.71892">
        <ele>475</ele>
        <time>2017-03-05T10:11:40Z</time>
      </trkpt>
      <trkpt lat="43.55916" lon="5.71877">
        <ele>474</ele>
        <time>2017-03-05T10:11:47Z</time>
      </trkpt>
      <trkpt lat="43.55901" lon="5.7186">
        <ele>475</ele>
        <time>2017-03-05T10:11:55Z</time>
      </trkpt>
      <trkpt lat="43.55887" lon="5.71844">
        <ele>474</ele>
        <time>2017-03-05T10:12:07Z</time>
      </trkpt>
      <trkpt lat="43.55873" lon="5.71828">
        <ele>477</ele>
        <time>2017-03-05T10:12:15Z</time>
      </trkpt>
      <trkpt lat="43.55858" lon="5.71812">
        <ele>476</ele>
        <time>2017-03-05T10:12:22Z</time>
      </trkpt>
      <trkpt lat="43.55844" lon="5.71795">
        <ele>477</ele>
        <time>2017-03-05T10:12:29Z</time>
      </trkpt>
      <trkpt lat="43.55829" lon="5.71776">
        <ele>476</ele>
        <time>2017-03-05T10:12:36Z</time>
      </trkpt>
      <trkpt lat="43.55814" lon="5.7176">
        <ele>476</ele>
        <time>2017-03-05T10:12:42Z</time>
      </trkpt>
      <trkpt lat="43.55798" lon="5.71742">
        <ele>477</ele>
        <time>2017-03-05T10:12:49Z</time>
      </trkpt>
      <trkpt lat="43.55782" lon="5.71723">
        <ele>476</ele>
        <time>2017-03-05T10:12:56Z</time>
      </trkpt>
      <trkpt lat="43.55769" lon="5.71707">
        <ele>476</ele>
        <time>2017-03-05T10:13:02Z</time>
      </trkpt>
      <trkpt lat="43.55755" lon="5.71686">
        <ele>476</ele>
        <time>2017-03-05T10:13:08Z</time>
      </trkpt>
      <trkpt lat="43.55744" lon="5.71665">
        <ele>475</ele>
        <time>2017-03-05T10:13:14Z</time>
      </trkpt>
      <trkpt lat="43.55737" lon="5.71639">
        <ele>476</ele>
        <time>2017-03-05T10:13:21Z</time>
      </trkpt>
      <trkpt lat="43.55731" lon="5.71613">
        <ele>477</ele>
        <time>2017-03-05T10:13:28Z</time>
      </trkpt>
      <trkpt lat="43.55726" lon="5.71587">
        <ele>477</ele>
        <time>2017-03-05T10:13:35Z</time>
      </trkpt>
      <trkpt lat="43.5572" lon="5.71562">
        <ele>479</ele>
        <time>2017-03-05T10:13:42Z</time>
      </trkpt>
      <trkpt lat="43.55715" lon="5.71537">
        <ele>480</ele>
        <time>2017-03-05T10:13:50Z</time>
      </trkpt>
      <trkpt lat="43.55708" lon="5.71512">
        <ele>481</ele>
        <time>2017-03-05T10:13:58Z</time>
      </trkpt>
      <trkpt lat="43.55703" lon="5.71487">
        <ele>484</ele>
        <time>2017-03-05T10:14:06Z</time>
      </trkpt>
      <trkpt lat="43.55692" lon="5.71466">
        <ele>484</ele>
        <time>2017-03-05T10:14:14Z</time>
      </trkpt>
      <trkpt lat="43.55679" lon="5.71448">
        <ele>485</ele>
        <time>2017-03-05T10:14:22Z</time>
      </trkpt>
      <trkpt lat="43.55665" lon="5.71431">
        <ele>484</ele>
        <time>2017-03-05T10:14:30Z</time>
      </trkpt>
      <trkpt lat="43.55653" lon="5.71411">
        <ele>486</ele>
        <time>2017-03-05T10:14:39Z</time>
      </trkpt>
      <trkpt lat="43.55642" lon="5.71388">
        <ele>486</ele>
        <time>2017-03-05T10:14:48Z</time>
      </trkpt>
      <trkpt lat="43.55633" lon="5.71364">
        <ele>486</ele>
        <time>2017-03-05T10:14:57Z</time>
      </trkpt>
      <trkpt lat="43.55622" lon="5.71341">
        <ele>487</ele>
        <time>2017-03-05T10:15:06Z</time>
      </trkpt>
      <trkpt lat="43.55614" lon="5.71319">
        <ele>488</ele>
        <time>2017-03-05T10:15:14Z</time>
      </trkpt>
      <trkpt lat="43.55607" lon="5.71296">
        <ele>489</ele>
        <time>2017-03-05T10:15:22Z</time>
      </trkpt>
      <trkpt lat="43.55604" lon="5.7127">
        <ele>489</ele>
        <time>2017-03-05T10:15:31Z</time>
      </trkpt>
      <trkpt lat="43.55602" lon="5.71245">
        <ele>491</ele>
        <time>2017-03-05T10:15:40Z</time>
      </trkpt>
      <trkpt lat="43.55603" lon="5.71218">
        <ele>492</ele>
        <time>2017-03-05T10:15:49Z</time>
      </trkpt>
      <trkpt lat="43.55602" lon="5.71193">
        <ele>492</ele>
        <time>2017-03-05T10:15:57Z</time>
      </trkpt>
      <trkpt lat="43.55604" lon="5.71166">
        <ele>494</ele>
        <time>2017-03-05T10:16:06Z</time>
      </trkpt>
      <trkpt lat="43.55602" lon="5.71138">
        <ele>495</ele>
        <time>2017-03-05T10:16:15Z</time>
      </trkpt>
      <trkpt lat="43.55602" lon="5.71113">
        <ele>496</ele>
        <time>2017-03-05T10:16:23Z</time>
      </trkpt>
      <trkpt lat="43.55601" lon="5.71086">
        <ele>496</ele>
        <time>2017-03-05T10:16:31Z</time>
      </trkpt>
      <trkpt lat="43.55601" lon="5.71059">
        <ele>498</ele>
        <time>2017-03-05T10:16:40Z</time>
      </trkpt>
      <trkpt lat="43.55603" lon="5.71031">
        <ele>499</ele>
        <time>2017-03-05T10:16:49Z</time>
      </trkpt>
      <trkpt lat="43.55607" lon="5.71006">
        <ele>499</ele>
        <time>2017-03-05T10:16:57Z</time>
      </trkpt>
      <trkpt lat="43.55609" lon="5.70979">
        <ele>500</ele>
        <time>2017-03-05T10:17:05Z</time>
      </trkpt>
      <trkpt lat="43.55611" lon="5.70954">
        <ele>500</ele>
        <time>2017-03-05T10:17:13Z</time>
      </trkpt>
      <trkpt lat="43.55613" lon="5.70929">
        <ele>500</ele>
        <time>2017-03-05T10:17:21Z</time>
      </trkpt>
      <trkpt lat="43.55615" lon="5.70905">
        <ele>500</ele>
        <time>2017-03-05T10:17:28Z</time>
      </trkpt>
      <trkpt lat="43.55619" lon="5.70878">
        <ele>500</ele>
        <time>2017-03-05T10:17:35Z</time>
      </trkpt>
      <trkpt lat="43.55621" lon="5.70851">
        <ele>499</ele>
        <time>2017-03-05T10:17:42Z</time>
      </trkpt>
      <trkpt lat="43.55624" lon="5.70824">
        <ele>498</ele>
        <time>2017-03-05T10:17:48Z</time>
      </trkpt>
      <trkpt lat="43.5563" lon="5.708">
        <ele>498</ele>
        <time>2017-03-05T10:17:53Z</time>
      </trkpt>
      <trkpt lat="43.55636" lon="5.70775">
        <ele>499</ele>
        <time>2017-03-05T10:17:59Z</time>
      </trkpt>
      <trkpt lat="43.55649" lon="5.70736">
        <ele>499</ele>
      </trkpt>
      <trkpt lat="43.55638" lon="5.70745">
        <ele>499</ele>
      </trkpt>
      <trkpt lat="43.55632" lon="5.70759">
        <ele>498</ele>
      </trkpt>
      <trkpt lat="43.55627" lon="5.70745">
        <ele>498</ele>
        <time>2017-03-05T10:19:25Z</time>
      </trkpt>
      <trkpt lat="43.55628" lon="5.70718">
        <ele>498</ele>
        <time>2017-03-05T10:19:30Z</time>
      </trkpt>
      <trkpt lat="43.55628" lon="5.7069">
        <ele>499</ele>
        <time>2017-03-05T10:19:35Z</time>
      </trkpt>
      <trkpt lat="43.55629" lon="5.70665">
        <ele>500</ele>
        <time>2017-03-05T10:19:41Z</time>
      </trkpt>
      <trkpt lat="43.55626" lon="5.70638">
        <ele>500</ele>
        <time>2017-03-05T10:19:49Z</time>
      </trkpt>
      <trkpt lat="43.55626" lon="5.70612">
        <ele>500</ele>
        <time>2017-03-05T10:19:57Z</time>
      </trkpt>
      <trkpt lat="43.55625" lon="5.70587">
        <ele>501</ele>
        <time>2017-03-05T10:20:07Z</time>
      </trkpt>
      <trkpt lat="43.55609" lon="5.70573">
        <ele>503</ele>
        <time>2017-03-05T10:20:18Z</time>
      </trkpt>
      <trkpt lat="43.55593" lon="5.70583">
        <ele>503</ele>
        <time>2017-03-05T10:20:29Z</time>
      </trkpt>
      <trkpt lat="43.55575" lon="5.70594">
        <ele>503</ele>
        <time>2017-03-05T10:20:39Z</time>
      </trkpt>
      <trkpt lat="43.55557" lon="5.706">
        <ele>503</ele>
        <time>2017-03-05T10:20:48Z</time>
      </trkpt>
      <trkpt lat="43.55538" lon="5.70607">
        <ele>503</ele>
        <time>2017-03-05T10:20:56Z</time>
      </trkpt>
      <trkpt lat="43.55519" lon="5.70614">
        <ele>503</ele>
        <time>2017-03-05T10:21:02Z</time>
      </trkpt>
      <trkpt lat="43.55499" lon="5.70621">
        <ele>503</ele>
        <time>2017-03-05T10:21:07Z</time>
      </trkpt>
      <trkpt lat="43.55477" lon="5.70629">
        <ele>503</ele>
        <time>2017-03-05T10:21:12Z</time>
      </trkpt>
      <trkpt lat="43.5546" lon="5.70638">
        <ele>503</ele>
        <time>2017-03-05T10:21:16Z</time>
      </trkpt>
      <trkpt lat="43.5544" lon="5.70646">
        <ele>502</ele>
        <time>2017-03-05T10:21:21Z</time>
      </trkpt>
      <trkpt lat="43.55421" lon="5.70653">
        <ele>501</ele>
        <time>2017-03-05T10:21:26Z</time>
      </trkpt>
      <trkpt lat="43.55401" lon="5.7066">
        <ele>502</ele>
        <time>2017-03-05T10:21:31Z</time>
      </trkpt>
      <trkpt lat="43.55381" lon="5.70664">
        <ele>503</ele>
        <time>2017-03-05T10:21:36Z</time>
      </trkpt>
      <trkpt lat="43.55363" lon="5.70667">
        <ele>499</ele>
        <time>2017-03-05T10:21:40Z</time>
      </trkpt>
      <trkpt lat="43.55341" lon="5.70668">
        <ele>500</ele>
        <time>2017-03-05T10:21:45Z</time>
      </trkpt>
      <trkpt lat="43.55323" lon="5.70666">
        <ele>502</ele>
        <time>2017-03-05T10:21:49Z</time>
      </trkpt>
      <trkpt lat="43.55304" lon="5.70663">
        <ele>503</ele>
        <time>2017-03-05T10:21:53Z</time>
      </trkpt>
      <trkpt lat="43.55285" lon="5.70661">
        <ele>503</ele>
        <time>2017-03-05T10:21:57Z</time>
      </trkpt>
      <trkpt lat="43.55266" lon="5.70658">
        <ele>502</ele>
        <time>2017-03-05T10:22:01Z</time>
      </trkpt>
      <trkpt lat="43.55244" lon="5.70656">
        <ele>501</ele>
        <time>2017-03-05T10:22:05Z</time>
      </trkpt>
      <trkpt lat="43.55221" lon="5.70651">
        <ele>502</ele>
        <time>2017-03-05T10:22:09Z</time>
      </trkpt>
      <trkpt lat="43.55199" lon="5.70648">
        <ele>502</ele>
        <time>2017-03-05T10:22:13Z</time>
      </trkpt>
      <trkpt lat="43.55175" lon="5.70641">
        <ele>501</ele>
        <time>2017-03-05T10:22:17Z</time>
      </trkpt>
      <trkpt lat="43.55157" lon="5.70636">
        <ele>500</ele>
        <time>2017-03-05T10:22:20Z</time>
      </trkpt>
      <trkpt lat="43.5514" lon="5.70629">
        <ele>499</ele>
        <time>2017-03-05T10:22:23Z</time>
      </trkpt>
      <trkpt lat="43.55119" lon="5.70624">
        <ele>499</ele>
        <time>2017-03-05T10:22:27Z</time>
      </trkpt>
      <trkpt lat="43.551" lon="5.7062">
        <ele>499</ele>
        <time>2017-03-05T10:22:31Z</time>
      </trkpt>
      <trkpt lat="43.55079" lon="5.70616">
        <ele>498</ele>
        <time>2017-03-05T10:22:36Z</time>
      </trkpt>
      <trkpt lat="43.55058" lon="5.70611">
        <ele>498</ele>
        <time>2017-03-05T10:22:41Z</time>
      </trkpt>
      <trkpt lat="43.55039" lon="5.70607">
        <ele>498</ele>
        <time>2017-03-05T10:22:46Z</time>
      </trkpt>
      <trkpt lat="43.55018" lon="5.70604">
        <ele>498</ele>
        <time>2017-03-05T10:22:51Z</time>
      </trkpt>
      <trkpt lat="43.54997" lon="5.70602">
        <ele>498</ele>
        <time>2017-03-05T10:22:56Z</time>
      </trkpt>
      <trkpt lat="43.54977" lon="5.706">
        <ele>498</ele>
        <time>2017-03-05T10:23:01Z</time>
      </trkpt>
      <trkpt lat="43.54959" lon="5.70597">
        <ele>498</ele>
        <time>2017-03-05T10:23:05Z</time>
      </trkpt>
      <trkpt lat="43.54939" lon="5.70594">
        <ele>498</ele>
        <time>2017-03-05T10:23:09Z</time>
      </trkpt>
      <trkpt lat="43.54917" lon="5.70591">
        <ele>498</ele>
        <time>2017-03-05T10:23:13Z</time>
      </trkpt>
      <trkpt lat="43.54899" lon="5.70588">
        <ele>497</ele>
        <time>2017-03-05T10:23:16Z</time>
      </trkpt>
      <trkpt lat="43.54877" lon="5.70591">
        <ele>497</ele>
        <time>2017-03-05T10:23:20Z</time>
      </trkpt>
      <trkpt lat="43.54859" lon="5.70593">
        <ele>497</ele>
        <time>2017-03-05T10:23:25Z</time>
      </trkpt>
      <trkpt lat="43.54838" lon="5.70593">
        <ele>497</ele>
        <time>2017-03-05T10:23:32Z</time>
      </trkpt>
      <trkpt lat="43.54819" lon="5.70591">
        <ele>498</ele>
        <time>2017-03-05T10:23:37Z</time>
      </trkpt>
      <trkpt lat="43.54797" lon="5.70588">
        <ele>498</ele>
        <time>2017-03-05T10:23:43Z</time>
      </trkpt>
      <trkpt lat="43.54777" lon="5.70583">
        <ele>500</ele>
        <time>2017-03-05T10:23:49Z</time>
      </trkpt>
      <trkpt lat="43.54757" lon="5.70578">
        <ele>499</ele>
        <time>2017-03-05T10:23:55Z</time>
      </trkpt>
      <trkpt lat="43.54737" lon="5.70574">
        <ele>500</ele>
        <time>2017-03-05T10:24:01Z</time>
      </trkpt>
      <trkpt lat="43.54717" lon="5.70572">
        <ele>501</ele>
        <time>2017-03-05T10:24:06Z</time>
      </trkpt>
      <trkpt lat="43.54698" lon="5.70566">
        <ele>501</ele>
        <time>2017-03-05T10:24:11Z</time>
      </trkpt>
      <trkpt lat="43.54678" lon="5.70556">
        <ele>501</ele>
        <time>2017-03-05T10:24:17Z</time>
      </trkpt>
      <trkpt lat="43.54657" lon="5.70555">
        <ele>500</ele>
        <time>2017-03-05T10:24:23Z</time>
      </trkpt>
      <trkpt lat="43.5464" lon="5.7057">
        <ele>499</ele>
        <time>2017-03-05T10:24:28Z</time>
      </trkpt>
      <trkpt lat="43.54628" lon="5.70589">
        <ele>497</ele>
        <time>2017-03-05T10:24:32Z</time>
      </trkpt>
      <trkpt lat="43.54614" lon="5.70612">
        <ele>497</ele>
        <time>2017-03-05T10:24:36Z</time>
      </trkpt>
      <trkpt lat="43.54598" lon="5.70636">
        <ele>497</ele>
        <time>2017-03-05T10:24:40Z</time>
      </trkpt>
      <trkpt lat="43.54586" lon="5.70656">
        <ele>496</ele>
        <time>2017-03-05T10:24:43Z</time>
      </trkpt>
      <trkpt lat="43.54573" lon="5.70675">
        <ele>494</ele>
        <time>2017-03-05T10:24:46Z</time>
      </trkpt>
      <trkpt lat="43.54561" lon="5.70694">
        <ele>493</ele>
        <time>2017-03-05T10:24:49Z</time>
      </trkpt>
      <trkpt lat="43.54545" lon="5.70717">
        <ele>493</ele>
        <time>2017-03-05T10:24:53Z</time>
      </trkpt>
      <trkpt lat="43.54533" lon="5.70736">
        <ele>492</ele>
        <time>2017-03-05T10:24:56Z</time>
      </trkpt>
      <trkpt lat="43.54518" lon="5.70761">
        <ele>490</ele>
        <time>2017-03-05T10:25:00Z</time>
      </trkpt>
      <trkpt lat="43.54505" lon="5.70787">
        <ele>490</ele>
        <time>2017-03-05T10:25:04Z</time>
      </trkpt>
      <trkpt lat="43.5449" lon="5.70809">
        <ele>489</ele>
        <time>2017-03-05T10:25:08Z</time>
      </trkpt>
      <trkpt lat="43.54477" lon="5.70828">
        <ele>488</ele>
        <time>2017-03-05T10:25:12Z</time>
      </trkpt>
      <trkpt lat="43.54465" lon="5.70849">
        <ele>488</ele>
        <time>2017-03-05T10:25:16Z</time>
      </trkpt>
      <trkpt lat="43.54453" lon="5.70871">
        <ele>488</ele>
        <time>2017-03-05T10:25:20Z</time>
      </trkpt>
      <trkpt lat="43.5444" lon="5.70892">
        <ele>488</ele>
        <time>2017-03-05T10:25:24Z</time>
      </trkpt>
      <trkpt lat="43.5443" lon="5.70914">
        <ele>489</ele>
        <time>2017-03-05T10:25:28Z</time>
      </trkpt>
      <trkpt lat="43.54419" lon="5.70935">
        <ele>488</ele>
        <time>2017-03-05T10:25:32Z</time>
      </trkpt>
      <trkpt lat="43.54406" lon="5.70955">
        <ele>489</ele>
        <time>2017-03-05T10:25:36Z</time>
      </trkpt>
      <trkpt lat="43.54392" lon="5.70975">
        <ele>489</ele>
        <time>2017-03-05T10:25:40Z</time>
      </trkpt>
      <trkpt lat="43.54378" lon="5.70992">
        <ele>489</ele>
        <time>2017-03-05T10:25:44Z</time>
      </trkpt>
      <trkpt lat="43.54365" lon="5.7101">
        <ele>489</ele>
        <time>2017-03-05T10:25:48Z</time>
      </trkpt>
      <trkpt lat="43.54353" lon="5.71028">
        <ele>489</ele>
        <time>2017-03-05T10:25:52Z</time>
      </trkpt>
      <trkpt lat="43.5434" lon="5.71046">
        <ele>489</ele>
        <time>2017-03-05T10:25:56Z</time>
      </trkpt>
      <trkpt lat="43.54327" lon="5.71064">
        <ele>490</ele>
        <time>2017-03-05T10:26:00Z</time>
      </trkpt>
      <trkpt lat="43.54313" lon="5.71087">
        <ele>490</ele>
        <time>2017-03-05T10:26:05Z</time>
      </trkpt>
      <trkpt lat="43.543" lon="5.7111">
        <ele>491</ele>
        <time>2017-03-05T10:26:10Z</time>
      </trkpt>
      <trkpt lat="43.54287" lon="5.71132">
        <ele>491</ele>
        <time>2017-03-05T10:26:16Z</time>
      </trkpt>
      <trkpt lat="43.54275" lon="5.71154">
        <ele>491</ele>
        <time>2017-03-05T10:26:22Z</time>
      </trkpt>
      <trkpt lat="43.54261" lon="5.71176">
        <ele>491</ele>
        <time>2017-03-05T10:26:29Z</time>
      </trkpt>
      <trkpt lat="43.54249" lon="5.71195">
        <ele>498</ele>
        <time>2017-03-05T10:26:36Z</time>
      </trkpt>
      <trkpt lat="43.54237" lon="5.71216">
        <ele>498</ele>
        <time>2017-03-05T10:26:44Z</time>
      </trkpt>
      <trkpt lat="43.54224" lon="5.71237">
        <ele>498</ele>
        <time>2017-03-05T10:26:52Z</time>
      </trkpt>
      <trkpt lat="43.54211" lon="5.71258">
        <ele>497</ele>
        <time>2017-03-05T10:27:01Z</time>
      </trkpt>
      <trkpt lat="43.54199" lon="5.71279">
        <ele>498</ele>
        <time>2017-03-05T10:27:10Z</time>
      </trkpt>
      <trkpt lat="43.54186" lon="5.713">
        <ele>498</ele>
        <time>2017-03-05T10:27:19Z</time>
      </trkpt>
      <trkpt lat="43.54175" lon="5.71319">
        <ele>499</ele>
        <time>2017-03-05T10:27:27Z</time>
      </trkpt>
      <trkpt lat="43.54163" lon="5.71338">
        <ele>502</ele>
        <time>2017-03-05T10:27:35Z</time>
      </trkpt>
      <trkpt lat="43.54149" lon="5.71358">
        <ele>505</ele>
        <time>2017-03-05T10:27:44Z</time>
      </trkpt>
      <trkpt lat="43.54134" lon="5.71377">
        <ele>506</ele>
        <time>2017-03-05T10:27:53Z</time>
      </trkpt>
      <trkpt lat="43.54119" lon="5.71395">
        <ele>507</ele>
        <time>2017-03-05T10:28:02Z</time>
      </trkpt>
      <trkpt lat="43.54105" lon="5.71412">
        <ele>508</ele>
        <time>2017-03-05T10:28:10Z</time>
      </trkpt>
      <trkpt lat="43.5409" lon="5.71427">
        <ele>506</ele>
        <time>2017-03-05T10:28:18Z</time>
      </trkpt>
      <trkpt lat="43.54076" lon="5.71442">
        <ele>509</ele>
        <time>2017-03-05T10:28:26Z</time>
      </trkpt>
      <trkpt lat="43.54061" lon="5.71458">
        <ele>508</ele>
        <time>2017-03-05T10:28:34Z</time>
      </trkpt>
      <trkpt lat="43.54046" lon="5.71475">
        <ele>508</ele>
        <time>2017-03-05T10:28:41Z</time>
      </trkpt>
      <trkpt lat="43.54032" lon="5.7149">
        <ele>508</ele>
        <time>2017-03-05T10:28:47Z</time>
      </trkpt>
      <trkpt lat="43.54015" lon="5.71507">
        <ele>506</ele>
        <time>2017-03-05T10:28:53Z</time>
      </trkpt>
      <trkpt lat="43.53998" lon="5.71522">
        <ele>508</ele>
        <time>2017-03-05T10:28:59Z</time>
      </trkpt>
      <trkpt lat="43.53979" lon="5.71534">
        <ele>507</ele>
        <time>2017-03-05T10:29:05Z</time>
      </trkpt>
      <trkpt lat="43.53962" lon="5.7154">
        <ele>506</ele>
        <time>2017-03-05T10:29:11Z</time>
      </trkpt>
      <trkpt lat="43.53943" lon="5.7154">
        <ele>506</ele>
        <time>2017-03-05T10:30:12Z</time>
      </trkpt>
      <trkpt lat="43.5392" lon="5.71543">
        <ele>506</ele>
        <time>2017-03-05T10:30:17Z</time>
      </trkpt>
      <trkpt lat="43.53901" lon="5.71547">
        <ele>503</ele>
        <time>2017-03-05T10:30:20Z</time>
      </trkpt>
      <trkpt lat="43.5388" lon="5.7155">
        <ele>503</ele>
        <time>2017-03-05T10:30:23Z</time>
      </trkpt>
      <trkpt lat="43.53858" lon="5.71552">
        <ele>502</ele>
        <time>2017-03-05T10:30:26Z</time>
      </trkpt>
      <trkpt lat="43.53834" lon="5.71557">
        <ele>502</ele>
        <time>2017-03-05T10:30:29Z</time>
      </trkpt>
      <trkpt lat="43.5381" lon="5.71561">
        <ele>497</ele>
        <time>2017-03-05T10:30:32Z</time>
      </trkpt>
      <trkpt lat="43.53786" lon="5.71565">
        <ele>496</ele>
        <time>2017-03-05T10:30:35Z</time>
      </trkpt>
      <trkpt lat="43.53762" lon="5.71569">
        <ele>496</ele>
        <time>2017-03-05T10:30:38Z</time>
      </trkpt>
      <trkpt lat="43.5374" lon="5.71573">
        <ele>494</ele>
        <time>2017-03-05T10:30:41Z</time>
      </trkpt>
      <trkpt lat="43.53721" lon="5.7156">
        <ele>491</ele>
        <time>2017-03-05T10:30:45Z</time>
      </trkpt>
      <trkpt lat="43.53726" lon="5.71529">
        <ele>489</ele>
        <time>2017-03-05T10:30:49Z</time>
      </trkpt>
      <trkpt lat="43.53739" lon="5.71508">
        <ele>489</ele>
        <time>2017-03-05T10:30:52Z</time>
      </trkpt>
      <trkpt lat="43.5375" lon="5.71485">
        <ele>489</ele>
        <time>2017-03-05T10:30:55Z</time>
      </trkpt>
      <trkpt lat="43.53757" lon="5.7146">
        <ele>489</ele>
        <time>2017-03-05T10:30:58Z</time>
      </trkpt>
      <trkpt lat="43.53745" lon="5.71431">
        <ele>486</ele>
        <time>2017-03-05T10:31:02Z</time>
      </trkpt>
      <trkpt lat="43.53726" lon="5.71408">
        <ele>485</ele>
        <time>2017-03-05T10:31:05Z</time>
      </trkpt>
      <trkpt lat="43.53713" lon="5.7139">
        <ele>484</ele>
        <time>2017-03-05T10:31:07Z</time>
      </trkpt>
      <trkpt lat="43.53697" lon="5.71361">
        <ele>484</ele>
        <time>2017-03-05T10:31:10Z</time>
      </trkpt>
      <trkpt lat="43.53681" lon="5.71335">
        <ele>483</ele>
        <time>2017-03-05T10:31:13Z</time>
      </trkpt>
      <trkpt lat="43.53664" lon="5.7131">
        <ele>481</ele>
        <time>2017-03-05T10:31:16Z</time>
      </trkpt>
      <trkpt lat="43.53648" lon="5.71285">
        <ele>480</ele>
        <time>2017-03-05T10:31:19Z</time>
      </trkpt>
      <trkpt lat="43.53633" lon="5.71259">
        <ele>480</ele>
        <time>2017-03-05T10:31:22Z</time>
      </trkpt>
      <trkpt lat="43.53617" lon="5.71233">
        <ele>481</ele>
        <time>2017-03-05T10:31:25Z</time>
      </trkpt>
      <trkpt lat="43.53601" lon="5.71207">
        <ele>481</ele>
        <time>2017-03-05T10:31:28Z</time>
      </trkpt>
      <trkpt lat="43.53584" lon="5.71182">
        <ele>481</ele>
        <time>2017-03-05T10:31:31Z</time>
      </trkpt>
      <trkpt lat="43.53568" lon="5.71157">
        <ele>479</ele>
        <time>2017-03-05T10:31:34Z</time>
      </trkpt>
      <trkpt lat="43.53553" lon="5.71131">
        <ele>478</ele>
        <time>2017-03-05T10:31:37Z</time>
      </trkpt>
      <trkpt lat="43.53544" lon="5.71102">
        <ele>478</ele>
        <time>2017-03-05T10:31:40Z</time>
      </trkpt>
      <trkpt lat="43.53535" lon="5.71077">
        <ele>478</ele>
        <time>2017-03-05T10:31:43Z</time>
      </trkpt>
      <trkpt lat="43.53525" lon="5.71047">
        <ele>478</ele>
        <time>2017-03-05T10:31:47Z</time>
      </trkpt>
      <trkpt lat="43.53517" lon="5.7102">
        <ele>478</ele>
        <time>2017-03-05T10:31:51Z</time>
      </trkpt>
      <trkpt lat="43.53507" lon="5.70994">
        <ele>477</ele>
        <time>2017-03-05T10:31:55Z</time>
      </trkpt>
      <trkpt lat="43.53497" lon="5.70969">
        <ele>474</ele>
        <time>2017-03-05T10:31:59Z</time>
      </trkpt>
      <trkpt lat="43.53489" lon="5.70947">
        <ele>474</ele>
        <time>2017-03-05T10:32:03Z</time>
      </trkpt>
      <trkpt lat="43.53481" lon="5.70924">
        <ele>475</ele>
        <time>2017-03-05T10:32:07Z</time>
      </trkpt>
      <trkpt lat="43.53472" lon="5.70899">
        <ele>475</ele>
        <time>2017-03-05T10:32:11Z</time>
      </trkpt>
      <trkpt lat="43.53465" lon="5.70874">
        <ele>474</ele>
        <time>2017-03-05T10:32:15Z</time>
      </trkpt>
      <trkpt lat="43.53457" lon="5.7085">
        <ele>474</ele>
        <time>2017-03-05T10:32:19Z</time>
      </trkpt>
      <trkpt lat="43.53449" lon="5.70826">
        <ele>475</ele>
        <time>2017-03-05T10:32:23Z</time>
      </trkpt>
      <trkpt lat="43.53439" lon="5.70801">
        <ele>475</ele>
        <time>2017-03-05T10:32:28Z</time>
      </trkpt>
      <trkpt lat="43.53431" lon="5.70774">
        <ele>475</ele>
        <time>2017-03-05T10:32:34Z</time>
      </trkpt>
      <trkpt lat="43.53422" lon="5.70749">
        <ele>475</ele>
        <time>2017-03-05T10:32:39Z</time>
      </trkpt>
      <trkpt lat="43.5341" lon="5.70724">
        <ele>475</ele>
        <time>2017-03-05T10:32:44Z</time>
      </trkpt>
      <trkpt lat="43.534" lon="5.70697">
        <ele>475</ele>
        <time>2017-03-05T10:32:49Z</time>
      </trkpt>
      <trkpt lat="43.53391" lon="5.7067">
        <ele>475</ele>
        <time>2017-03-05T10:32:54Z</time>
      </trkpt>
      <trkpt lat="43.53381" lon="5.70646">
        <ele>475</ele>
        <time>2017-03-05T10:32:59Z</time>
      </trkpt>
      <trkpt lat="43.53371" lon="5.70622">
        <ele>475</ele>
        <time>2017-03-05T10:33:04Z</time>
      </trkpt>
      <trkpt lat="43.53359" lon="5.70598">
        <ele>475</ele>
        <time>2017-03-05T10:33:09Z</time>
      </trkpt>
      <trkpt lat="43.53347" lon="5.70572">
        <ele>475</ele>
        <time>2017-03-05T10:33:14Z</time>
      </trkpt>
      <trkpt lat="43.53337" lon="5.7055">
        <ele>475</ele>
        <time>2017-03-05T10:33:18Z</time>
      </trkpt>
      <trkpt lat="43.53326" lon="5.70526">
        <ele>472</ele>
        <time>2017-03-05T10:33:22Z</time>
      </trkpt>
      <trkpt lat="43.53315" lon="5.70501">
        <ele>472</ele>
        <time>2017-03-05T10:33:26Z</time>
      </trkpt>
      <trkpt lat="43.53306" lon="5.70476">
        <ele>471</ele>
        <time>2017-03-05T10:33:30Z</time>
      </trkpt>
      <trkpt lat="43.53297" lon="5.7045">
        <ele>470</ele>
        <time>2017-03-05T10:33:34Z</time>
      </trkpt>
      <trkpt lat="43.53289" lon="5.70427">
        <ele>470</ele>
        <time>2017-03-05T10:33:38Z</time>
      </trkpt>
      <trkpt lat="43.53282" lon="5.70403">
        <ele>468</ele>
        <time>2017-03-05T10:33:43Z</time>
      </trkpt>
      <trkpt lat="43.53276" lon="5.70378">
        <ele>468</ele>
        <time>2017-03-05T10:33:49Z</time>
      </trkpt>
      <trkpt lat="43.53272" lon="5.70353">
        <ele>467</ele>
        <time>2017-03-05T10:33:54Z</time>
      </trkpt>
      <trkpt lat="43.53271" lon="5.70327">
        <ele>467</ele>
        <time>2017-03-05T10:33:58Z</time>
      </trkpt>
      <trkpt lat="43.53265" lon="5.703">
        <ele>468</ele>
        <time>2017-03-05T10:34:04Z</time>
      </trkpt>
      <trkpt lat="43.53265" lon="5.70274">
        <ele>468</ele>
        <time>2017-03-05T10:34:09Z</time>
      </trkpt>
      <trkpt lat="43.5326" lon="5.7025">
        <ele>467</ele>
        <time>2017-03-05T10:34:13Z</time>
      </trkpt>
      <trkpt lat="43.5324" lon="5.70237">
        <ele>460</ele>
        <time>2017-03-05T10:34:17Z</time>
      </trkpt>
      <trkpt lat="43.53224" lon="5.70214">
        <ele>457</ele>
        <time>2017-03-05T10:34:21Z</time>
      </trkpt>
      <trkpt lat="43.53219" lon="5.7019">
        <ele>457</ele>
        <time>2017-03-05T10:34:24Z</time>
      </trkpt>
      <trkpt lat="43.53214" lon="5.70165">
        <ele>457</ele>
        <time>2017-03-05T10:34:27Z</time>
      </trkpt>
      <trkpt lat="43.53209" lon="5.70137">
        <ele>456</ele>
        <time>2017-03-05T10:34:30Z</time>
      </trkpt>
      <trkpt lat="43.53203" lon="5.70109">
        <ele>455</ele>
        <time>2017-03-05T10:34:33Z</time>
      </trkpt>
      <trkpt lat="43.53201" lon="5.70077">
        <ele>452</ele>
        <time>2017-03-05T10:34:36Z</time>
      </trkpt>
      <trkpt lat="43.53199" lon="5.70041">
        <ele>451</ele>
        <time>2017-03-05T10:34:39Z</time>
      </trkpt>
      <trkpt lat="43.53198" lon="5.70008">
        <ele>449</ele>
        <time>2017-03-05T10:34:42Z</time>
      </trkpt>
      <trkpt lat="43.53207" lon="5.69983">
        <ele>449</ele>
        <time>2017-03-05T10:34:45Z</time>
      </trkpt>
      <trkpt lat="43.53219" lon="5.69958">
        <ele>451</ele>
        <time>2017-03-05T10:34:48Z</time>
      </trkpt>
      <trkpt lat="43.53221" lon="5.69929">
        <ele>452</ele>
        <time>2017-03-05T10:34:51Z</time>
      </trkpt>
      <trkpt lat="43.53201" lon="5.69912">
        <ele>450</ele>
        <time>2017-03-05T10:34:55Z</time>
      </trkpt>
      <trkpt lat="43.53182" lon="5.69898">
        <ele>447</ele>
        <time>2017-03-05T10:34:58Z</time>
      </trkpt>
      <trkpt lat="43.53164" lon="5.6988">
        <ele>432</ele>
        <time>2017-03-05T10:35:01Z</time>
      </trkpt>
      <trkpt lat="43.5315" lon="5.69856">
        <ele>432</ele>
        <time>2017-03-05T10:35:04Z</time>
      </trkpt>
      <trkpt lat="43.53143" lon="5.69828">
        <ele>433</ele>
        <time>2017-03-05T10:35:07Z</time>
      </trkpt>
      <trkpt lat="43.53147" lon="5.69798">
        <ele>432</ele>
        <time>2017-03-05T10:35:10Z</time>
      </trkpt>
      <trkpt lat="43.5316" lon="5.69775">
        <ele>434</ele>
        <time>2017-03-05T10:35:13Z</time>
      </trkpt>
      <trkpt lat="43.53162" lon="5.6975">
        <ele>438</ele>
        <time>2017-03-05T10:35:17Z</time>
      </trkpt>
      <trkpt lat="43.53145" lon="5.69739">
        <ele>435</ele>
        <time>2017-03-05T10:35:20Z</time>
      </trkpt>
      <trkpt lat="43.53123" lon="5.69734">
        <ele>431</ele>
        <time>2017-03-05T10:35:23Z</time>
      </trkpt>
      <trkpt lat="43.53102" lon="5.69722">
        <ele>429</ele>
        <time>2017-03-05T10:35:26Z</time>
      </trkpt>
      <trkpt lat="43.53088" lon="5.69703">
        <ele>429</ele>
        <time>2017-03-05T10:35:29Z</time>
      </trkpt>
      <trkpt lat="43.53082" lon="5.69674">
        <ele>422</ele>
        <time>2017-03-05T10:35:32Z</time>
      </trkpt>
      <trkpt lat="43.53078" lon="5.6964">
        <ele>421</ele>
        <time>2017-03-05T10:35:35Z</time>
      </trkpt>
      <trkpt lat="43.53071" lon="5.69606">
        <ele>421</ele>
        <time>2017-03-05T10:35:38Z</time>
      </trkpt>
      <trkpt lat="43.53065" lon="5.69576">
        <ele>422</ele>
        <time>2017-03-05T10:35:41Z</time>
      </trkpt>
      <trkpt lat="43.53059" lon="5.69549">
        <ele>420</ele>
        <time>2017-03-05T10:35:44Z</time>
      </trkpt>
      <trkpt lat="43.53054" lon="5.69522">
        <ele>419</ele>
        <time>2017-03-05T10:35:47Z</time>
      </trkpt>
      <trkpt lat="43.53052" lon="5.69493">
        <ele>419</ele>
        <time>2017-03-05T10:35:50Z</time>
      </trkpt>
      <trkpt lat="43.53051" lon="5.6946">
        <ele>419</ele>
        <time>2017-03-05T10:35:53Z</time>
      </trkpt>
      <trkpt lat="43.53043" lon="5.69436">
        <ele>418</ele>
        <time>2017-03-05T10:35:57Z</time>
      </trkpt>
      <trkpt lat="43.53025" lon="5.69441">
        <ele>416</ele>
        <time>2017-03-05T10:36:00Z</time>
      </trkpt>
      <trkpt lat="43.53005" lon="5.69453">
        <ele>415</ele>
        <time>2017-03-05T10:36:03Z</time>
      </trkpt>
      <trkpt lat="43.52983" lon="5.69465">
        <ele>402</ele>
        <time>2017-03-05T10:36:06Z</time>
      </trkpt>
      <trkpt lat="43.52961" lon="5.69475">
        <ele>400</ele>
        <time>2017-03-05T10:36:09Z</time>
      </trkpt>
      <trkpt lat="43.52941" lon="5.69474">
        <ele>397</ele>
        <time>2017-03-05T10:36:12Z</time>
      </trkpt>
      <trkpt lat="43.5292" lon="5.69459">
        <ele>397</ele>
        <time>2017-03-05T10:36:16Z</time>
      </trkpt>
      <trkpt lat="43.52906" lon="5.69441">
        <ele>388</ele>
        <time>2017-03-05T10:36:19Z</time>
      </trkpt>
      <trkpt lat="43.52896" lon="5.69414">
        <ele>390</ele>
        <time>2017-03-05T10:36:22Z</time>
      </trkpt>
      <trkpt lat="43.52887" lon="5.69383">
        <ele>387</ele>
        <time>2017-03-05T10:36:25Z</time>
      </trkpt>
      <trkpt lat="43.52881" lon="5.6935">
        <ele>387</ele>
        <time>2017-03-05T10:36:28Z</time>
      </trkpt>
      <trkpt lat="43.52878" lon="5.69315">
        <ele>384</ele>
        <time>2017-03-05T10:36:31Z</time>
      </trkpt>
      <trkpt lat="43.52878" lon="5.69282">
        <ele>384</ele>
        <time>2017-03-05T10:36:34Z</time>
      </trkpt>
      <trkpt lat="43.52876" lon="5.69255">
        <ele>383</ele>
        <time>2017-03-05T10:36:37Z</time>
      </trkpt>
      <trkpt lat="43.52858" lon="5.69242">
        <ele>381</ele>
        <time>2017-03-05T10:36:40Z</time>
      </trkpt>
      <trkpt lat="43.52834" lon="5.69241">
        <ele>377</ele>
        <time>2017-03-05T10:36:43Z</time>
      </trkpt>
      <trkpt lat="43.5281" lon="5.69242">
        <ele>369</ele>
        <time>2017-03-05T10:36:46Z</time>
      </trkpt>
      <trkpt lat="43.52793" lon="5.69232">
        <ele>367</ele>
        <time>2017-03-05T10:36:49Z</time>
      </trkpt>
      <trkpt lat="43.52782" lon="5.69211">
        <ele>366</ele>
        <time>2017-03-05T10:36:52Z</time>
      </trkpt>
      <trkpt lat="43.52772" lon="5.69185">
        <ele>365</ele>
        <time>2017-03-05T10:36:55Z</time>
      </trkpt>
      <trkpt lat="43.52762" lon="5.69162">
        <ele>363</ele>
        <time>2017-03-05T10:36:58Z</time>
      </trkpt>
      <trkpt lat="43.52753" lon="5.6914">
        <ele>365</ele>
        <time>2017-03-05T10:37:04Z</time>
      </trkpt>
      <trkpt lat="43.52743" lon="5.69116">
        <ele>359</ele>
        <time>2017-03-05T10:37:11Z</time>
      </trkpt>
      <trkpt lat="43.52735" lon="5.69093">
        <ele>360</ele>
        <time>2017-03-05T10:37:16Z</time>
      </trkpt>
      <trkpt lat="43.52727" lon="5.69068">
        <ele>360</ele>
        <time>2017-03-05T10:37:21Z</time>
      </trkpt>
      <trkpt lat="43.52719" lon="5.69042">
        <ele>360</ele>
        <time>2017-03-05T10:37:26Z</time>
      </trkpt>
      <trkpt lat="43.52703" lon="5.69023">
        <ele>360</ele>
        <time>2017-03-05T10:37:31Z</time>
      </trkpt>
      <trkpt lat="43.5269" lon="5.69">
        <ele>359</ele>
        <time>2017-03-05T10:37:37Z</time>
      </trkpt>
      <trkpt lat="43.52688" lon="5.68971">
        <ele>358</ele>
        <time>2017-03-05T10:37:42Z</time>
      </trkpt>
      <trkpt lat="43.52684" lon="5.6894">
        <ele>358</ele>
        <time>2017-03-05T10:37:46Z</time>
      </trkpt>
      <trkpt lat="43.5268" lon="5.68914">
        <ele>356</ele>
        <time>2017-03-05T10:37:49Z</time>
      </trkpt>
      <trkpt lat="43.52676" lon="5.68885">
        <ele>356</ele>
        <time>2017-03-05T10:37:52Z</time>
      </trkpt>
      <trkpt lat="43.52673" lon="5.68855">
        <ele>355</ele>
        <time>2017-03-05T10:37:55Z</time>
      </trkpt>
      <trkpt lat="43.52673" lon="5.68828">
        <ele>353</ele>
        <time>2017-03-05T10:37:58Z</time>
      </trkpt>
      <trkpt lat="43.52671" lon="5.688">
        <ele>353</ele>
        <time>2017-03-05T10:38:02Z</time>
      </trkpt>
      <trkpt lat="43.52664" lon="5.68777">
        <ele>349</ele>
        <time>2017-03-05T10:38:06Z</time>
      </trkpt>
      <trkpt lat="43.52655" lon="5.68752">
        <ele>349</ele>
        <time>2017-03-05T10:38:10Z</time>
      </trkpt>
      <trkpt lat="43.52643" lon="5.68727">
        <ele>349</ele>
        <time>2017-03-05T10:38:14Z</time>
      </trkpt>
      <trkpt lat="43.52633" lon="5.68704">
        <ele>349</ele>
        <time>2017-03-05T10:38:18Z</time>
      </trkpt>
      <trkpt lat="43.52622" lon="5.68681">
        <ele>349</ele>
        <time>2017-03-05T10:38:22Z</time>
      </trkpt>
      <trkpt lat="43.52613" lon="5.68656">
        <ele>351</ele>
        <time>2017-03-05T10:38:27Z</time>
      </trkpt>
      <trkpt lat="43.52609" lon="5.68627">
        <ele>352</ele>
        <time>2017-03-05T10:38:33Z</time>
      </trkpt>
      <trkpt lat="43.52608" lon="5.68601">
        <ele>352</ele>
        <time>2017-03-05T10:38:38Z</time>
      </trkpt>
      <trkpt lat="43.52612" lon="5.68576">
        <ele>355</ele>
        <time>2017-03-05T10:38:43Z</time>
      </trkpt>
      <trkpt lat="43.52617" lon="5.68551">
        <ele>356</ele>
        <time>2017-03-05T10:38:48Z</time>
      </trkpt>
      <trkpt lat="43.52623" lon="5.68527">
        <ele>356</ele>
        <time>2017-03-05T10:38:53Z</time>
      </trkpt>
      <trkpt lat="43.52631" lon="5.68503">
        <ele>357</ele>
        <time>2017-03-05T10:38:58Z</time>
      </trkpt>
      <trkpt lat="43.52639" lon="5.68476">
        <ele>358</ele>
        <time>2017-03-05T10:39:04Z</time>
      </trkpt>
      <trkpt lat="43.52644" lon="5.68452">
        <ele>358</ele>
        <time>2017-03-05T10:39:09Z</time>
      </trkpt>
      <trkpt lat="43.52648" lon="5.68423">
        <ele>359</ele>
        <time>2017-03-05T10:39:15Z</time>
      </trkpt>
      <trkpt lat="43.52649" lon="5.68394">
        <ele>360</ele>
        <time>2017-03-05T10:39:21Z</time>
      </trkpt>
      <trkpt lat="43.52648" lon="5.68366">
        <ele>361</ele>
        <time>2017-03-05T10:39:27Z</time>
      </trkpt>
      <trkpt lat="43.52645" lon="5.68338">
        <ele>362</ele>
        <time>2017-03-05T10:39:34Z</time>
      </trkpt>
      <trkpt lat="43.52641" lon="5.6831">
        <ele>362</ele>
        <time>2017-03-05T10:39:41Z</time>
      </trkpt>
      <trkpt lat="43.52636" lon="5.68285">
        <ele>362</ele>
        <time>2017-03-05T10:39:47Z</time>
      </trkpt>
      <trkpt lat="43.52634" lon="5.6826">
        <ele>362</ele>
        <time>2017-03-05T10:39:52Z</time>
      </trkpt>
      <trkpt lat="43.52632" lon="5.68234">
        <ele>359</ele>
        <time>2017-03-05T10:39:56Z</time>
      </trkpt>
      <trkpt lat="43.52634" lon="5.68205">
        <ele>358</ele>
        <time>2017-03-05T10:40:00Z</time>
      </trkpt>
      <trkpt lat="43.5264" lon="5.68174">
        <ele>358</ele>
        <time>2017-03-05T10:40:04Z</time>
      </trkpt>
    </trkseg>
  </trk>
</gpx>